<?xml version='1.0' encoding='UTF-8'?><gpx version="1.1" creator="JPX - https://github.com/jenetics/jpx" xmlns="http://www.topografix.com/GPX/1/1"><trk><trkseg><trkpt lat="46.01475963810364" lon="8.628888550890363"><ele>1292.0</ele><time>2026-04-25T09:49:39.999Z</time></trkpt><trkpt lat="46.01483961525848" lon="8.628821086963178"><ele>1292.0</ele><time>2026-04-25T09:49:40.999Z</time></trkpt><trkpt lat="46.01490572007517" lon="8.628759724029322"><ele>1292.0</ele><time>2026-04-25T09:49:41.999Z</time></trkpt><trkpt lat="46.015015863885836" lon="8.62865698295032"><ele>1292.0</ele><time>2026-04-25T09:49:43.999Z</time></trkpt><trkpt lat="46.015081619010104" lon="8.628588532713309"><ele>1292.0</ele><time>2026-04-25T09:49:44.999Z</time></trkpt><trkpt lat="46.015151835704344" lon="8.628510185476811"><ele>1291.3333333333335</ele><time>2026-04-25T09:49:45.999Z</time></trkpt><trkpt lat="46.015208420916196" lon="8.628414925534774"><ele>1290.6666666666667</ele><time>2026-04-25T09:49:46.999Z</time></trkpt><trkpt lat="46.01525922276141" lon="8.628313428701842"><ele>1290.0</ele><time>2026-04-25T09:49:47.999Z</time></trkpt><trkpt lat="46.01531334196006" lon="8.62821258046716"><ele>1289.3333333333333</ele><time>2026-04-25T09:49:48.999Z</time></trkpt><trkpt lat="46.01537765359788" lon="8.62812436968015"><ele>1288.6666666666665</ele><time>2026-04-25T09:49:49.999Z</time></trkpt><trkpt lat="46.015442044556075" lon="8.628049106852973"><ele>1288.0</ele><time>2026-04-25T09:49:50.999Z</time></trkpt><trkpt lat="46.015486297142346" lon="8.62797363161019"><ele>1288.0</ele><time>2026-04-25T09:49:51.999Z</time></trkpt><trkpt lat="46.01550108814846" lon="8.627882634928241"><ele>1288.0</ele><time>2026-04-25T09:49:52.999Z</time></trkpt><trkpt lat="46.01550439093366" lon="8.627778878167152"><ele>1288.0</ele><time>2026-04-25T09:49:53.999Z</time></trkpt><trkpt lat="46.01550916855734" lon="8.627671591814133"><ele>1288.0</ele><time>2026-04-25T09:49:54.999Z</time></trkpt><trkpt lat="46.01551165541706" lon="8.627557325282528"><ele>1288.0</ele><time>2026-04-25T09:49:55.999Z</time></trkpt><trkpt lat="46.015531310661146" lon="8.627455154143428"><ele>1288.0</ele><time>2026-04-25T09:49:56.999Z</time></trkpt><trkpt lat="46.01556785076009" lon="8.627361058904674"><ele>1288.0</ele><time>2026-04-25T09:49:57.999Z</time></trkpt><trkpt lat="46.01562830294967" lon="8.627264386540734"><ele>1284.0</ele><time>2026-04-25T09:49:58.999Z</time></trkpt><trkpt lat="46.01568391502258" lon="8.627152878204393"><ele>1280.0</ele><time>2026-04-25T09:49:59.999Z</time></trkpt><trkpt lat="46.01570226353027" lon="8.627021674395246"><ele>1276.0</ele><time>2026-04-25T09:50:00.999Z</time></trkpt><trkpt lat="46.01568454933821" lon="8.62686469084269"><ele>1272.0</ele><time>2026-04-25T09:50:01.999Z</time></trkpt><trkpt lat="46.015650354527736" lon="8.626703148481702"><ele>1268.0</ele><time>2026-04-25T09:50:02.999Z</time></trkpt><trkpt lat="46.01561917037199" lon="8.62655604269944"><ele>1267.3333333333335</ele><time>2026-04-25T09:50:03.999Z</time></trkpt><trkpt lat="46.015581502879826" lon="8.626426593602712"><ele>1266.6666666666667</ele><time>2026-04-25T09:50:04.999Z</time></trkpt><trkpt lat="46.0155552742745" lon="8.626315421296162"><ele>1266.0</ele><time>2026-04-25T09:50:05.999Z</time></trkpt><trkpt lat="46.0155263451495" lon="8.62620777535981"><ele>1265.3333333333333</ele><time>2026-04-25T09:50:06.999Z</time></trkpt><trkpt lat="46.015501623915654" lon="8.626086066480257"><ele>1264.6666666666665</ele><time>2026-04-25T09:50:07.999Z</time></trkpt><trkpt lat="46.0154817959921" lon="8.625963867670071"><ele>1264.0</ele><time>2026-04-25T09:50:08.999Z</time></trkpt><trkpt lat="46.01546353213462" lon="8.625847906151872"><ele>1264.0</ele><time>2026-04-25T09:50:09.999Z</time></trkpt><trkpt lat="46.01545592075071" lon="8.625732711695358"><ele>1264.0</ele><time>2026-04-25T09:50:10.999Z</time></trkpt><trkpt lat="46.015447769628494" lon="8.625595285983582"><ele>1264.0</ele><time>2026-04-25T09:50:11.999Z</time></trkpt><trkpt lat="46.01545060990939" lon="8.625442357256768"><ele>1264.0</ele><time>2026-04-25T09:50:12.999Z</time></trkpt><trkpt lat="46.01546769629654" lon="8.625303645867557"><ele>1264.0</ele><time>2026-04-25T09:50:13.999Z</time></trkpt><trkpt lat="46.015500954675595" lon="8.625169631865704"><ele>1263.4</ele><time>2026-04-25T09:50:14.999Z</time></trkpt><trkpt lat="46.01553561913279" lon="8.625039174129524"><ele>1262.8000000000002</ele><time>2026-04-25T09:50:15.999Z</time></trkpt><trkpt lat="46.01554509187755" lon="8.624924099352091"><ele>1262.1999999999998</ele><time>2026-04-25T09:50:16.999Z</time></trkpt><trkpt lat="46.015522226897275" lon="8.624789889926468"><ele>1261.6</ele><time>2026-04-25T09:50:17.999Z</time></trkpt><trkpt lat="46.01550019122799" lon="8.62466465006899"><ele>1261.0</ele><time>2026-04-25T09:50:18.999Z</time></trkpt><trkpt lat="46.01548604768483" lon="8.62453787182271"><ele>1259.8333333333333</ele><time>2026-04-25T09:50:19.999Z</time></trkpt><trkpt lat="46.01547580849098" lon="8.62441953238488"><ele>1258.6666666666665</ele><time>2026-04-25T09:50:20.999Z</time></trkpt><trkpt lat="46.01547315284462" lon="8.624317782970605"><ele>1257.5</ele><time>2026-04-25T09:50:21.999Z</time></trkpt><trkpt lat="46.01549876935619" lon="8.624222017926437"><ele>1256.3333333333333</ele><time>2026-04-25T09:50:22.999Z</time></trkpt><trkpt lat="46.01555218294797" lon="8.624134018740417"><ele>1255.1666666666667</ele><time>2026-04-25T09:50:24Z</time></trkpt><trkpt lat="46.01563563553687" lon="8.624056620255681"><ele>1254.0</ele><time>2026-04-25T09:50:25Z</time></trkpt><trkpt lat="46.01570717286433" lon="8.623976213746046"><ele>1254.0</ele><time>2026-04-25T09:50:26Z</time></trkpt><trkpt lat="46.0157643247746" lon="8.623884262191384"><ele>1254.0</ele><time>2026-04-25T09:50:27Z</time></trkpt><trkpt lat="46.01579677281898" lon="8.623772670704069"><ele>1254.0</ele><time>2026-04-25T09:50:28Z</time></trkpt><trkpt lat="46.01578746180424" lon="8.623630751790358"><ele>1254.0</ele><time>2026-04-25T09:50:29Z</time></trkpt><trkpt lat="46.015764892552006" lon="8.623485188525516"><ele>1254.0</ele><time>2026-04-25T09:50:30Z</time></trkpt><trkpt lat="46.01575046789386" lon="8.623357971211417"><ele>1250.6000000000001</ele><time>2026-04-25T09:50:31Z</time></trkpt><trkpt lat="46.01575160384222" lon="8.623255365392593"><ele>1247.2</ele><time>2026-04-25T09:50:32Z</time></trkpt><trkpt lat="46.01576634256437" lon="8.623071838433615"><ele>1243.8000000000002</ele><time>2026-04-25T09:50:34Z</time></trkpt><trkpt lat="46.015777863227754" lon="8.622962294561551"><ele>1240.4</ele><time>2026-04-25T09:50:35Z</time></trkpt><trkpt lat="46.015796265407296" lon="8.622840315384849"><ele>1237.0</ele><time>2026-04-25T09:50:36Z</time></trkpt><trkpt lat="46.015838374026636" lon="8.622711870312308"><ele>1243.5</ele><time>2026-04-25T09:50:37Z</time></trkpt><trkpt lat="46.015890671103435" lon="8.622591449235914"><ele>1250.0</ele><time>2026-04-25T09:50:38Z</time></trkpt><trkpt lat="46.015939512977035" lon="8.62249291603997"><ele>1256.5</ele><time>2026-04-25T09:50:39Z</time></trkpt><trkpt lat="46.015981454942164" lon="8.622395895763958"><ele>1263.0</ele><time>2026-04-25T09:50:40Z</time></trkpt><trkpt lat="46.016025862698584" lon="8.622298960189925"><ele>1269.5</ele><time>2026-04-25T09:50:41Z</time></trkpt><trkpt lat="46.016072244188265" lon="8.622196114052088"><ele>1276.0</ele><time>2026-04-25T09:50:42Z</time></trkpt><trkpt lat="46.01613461652293" lon="8.62210673907392"><ele>1276.0</ele><time>2026-04-25T09:50:43Z</time></trkpt><trkpt lat="46.01621245013697" lon="8.622039895008504"><ele>1276.0</ele><time>2026-04-25T09:50:44Z</time></trkpt><trkpt lat="46.01630558823814" lon="8.622001244279286"><ele>1276.0</ele><time>2026-04-25T09:50:45Z</time></trkpt><trkpt lat="46.016387281434206" lon="8.62199205450344"><ele>1276.0</ele><time>2026-04-25T09:50:46Z</time></trkpt><trkpt lat="46.01647630132233" lon="8.621993705985611"><ele>1276.0</ele><time>2026-04-25T09:50:47Z</time></trkpt><trkpt lat="46.016564901894576" lon="8.622015773024144"><ele>1276.0</ele><time>2026-04-25T09:50:48Z</time></trkpt><trkpt lat="46.01664418581561" lon="8.622053421325404"><ele>1279.0</ele><time>2026-04-25T09:50:49Z</time></trkpt><trkpt lat="46.01670018799976" lon="8.622104741809512"><ele>1282.0</ele><time>2026-04-25T09:50:50Z</time></trkpt><trkpt lat="46.016773763353605" lon="8.622205610935321"><ele>1285.0</ele><time>2026-04-25T09:50:51Z</time></trkpt><trkpt lat="46.016832294658876" lon="8.622301143345199"><ele>1288.0</ele><time>2026-04-25T09:50:52Z</time></trkpt><trkpt lat="46.01691274105642" lon="8.622425255602534"><ele>1291.0</ele><time>2026-04-25T09:50:53Z</time></trkpt><trkpt lat="46.01697986323943" lon="8.622516506129152"><ele>1291.0</ele><time>2026-04-25T09:50:54Z</time></trkpt><trkpt lat="46.01703923426746" lon="8.62259208531711"><ele>1291.0</ele><time>2026-04-25T09:50:55Z</time></trkpt><trkpt lat="46.01710060080939" lon="8.622652320986404"><ele>1291.0</ele><time>2026-04-25T09:50:56Z</time></trkpt><trkpt lat="46.017161268773776" lon="8.622705655052307"><ele>1291.0</ele><time>2026-04-25T09:50:57Z</time></trkpt><trkpt lat="46.01727389871532" lon="8.622798972556154"><ele>1291.0</ele><time>2026-04-25T09:50:58Z</time></trkpt><trkpt lat="46.01735924452974" lon="8.622867030206532"><ele>1291.7142857142856</ele><time>2026-04-25T09:50:59Z</time></trkpt><trkpt lat="46.01742166689226" lon="8.622913298750662"><ele>1292.4285714285713</ele><time>2026-04-25T09:51:00Z</time></trkpt><trkpt lat="46.01747977587888" lon="8.62296701619882"><ele>1293.142857142857</ele><time>2026-04-25T09:51:01Z</time></trkpt><trkpt lat="46.01753945462833" lon="8.623015903975999"><ele>1293.8571428571427</ele><time>2026-04-25T09:51:02Z</time></trkpt><trkpt lat="46.017602008371334" lon="8.62306619231788"><ele>1294.5714285714284</ele><time>2026-04-25T09:51:03Z</time></trkpt><trkpt lat="46.0176719398161" lon="8.623123097155736"><ele>1295.2857142857142</ele><time>2026-04-25T09:51:04Z</time></trkpt><trkpt lat="46.017749940583776" lon="8.62318662899099"><ele>1296.0</ele><time>2026-04-25T09:51:05Z</time></trkpt><trkpt lat="46.017830246906286" lon="8.62325571027406"><ele>1296.0</ele><time>2026-04-25T09:51:06Z</time></trkpt><trkpt lat="46.0179186865409" lon="8.623323510406635"><ele>1296.0</ele><time>2026-04-25T09:51:07Z</time></trkpt><trkpt lat="46.01802355920405" lon="8.623384208199468"><ele>1296.0</ele><time>2026-04-25T09:51:08Z</time></trkpt><trkpt lat="46.01812649935934" lon="8.62343327775603"><ele>1296.0</ele><time>2026-04-25T09:51:09Z</time></trkpt><trkpt lat="46.018212460843394" lon="8.623474746077166"><ele>1296.0</ele><time>2026-04-25T09:51:10Z</time></trkpt><trkpt lat="46.018286184756576" lon="8.62351236152093"><ele>1296.5</ele><time>2026-04-25T09:51:11Z</time></trkpt><trkpt lat="46.01834595032328" lon="8.623545740588806"><ele>1297.0</ele><time>2026-04-25T09:51:12Z</time></trkpt><trkpt lat="46.0184180516519" lon="8.623585418273889"><ele>1297.5</ele><time>2026-04-25T09:51:13Z</time></trkpt><trkpt lat="46.01850547156705" lon="8.623628747697962"><ele>1298.0</ele><time>2026-04-25T09:51:14Z</time></trkpt><trkpt lat="46.01858502607572" lon="8.623671791580653"><ele>1298.5</ele><time>2026-04-25T09:51:15Z</time></trkpt><trkpt lat="46.01867322883398" lon="8.623741874979771"><ele>1299.0</ele><time>2026-04-25T09:51:16Z</time></trkpt><trkpt lat="46.01875120648347" lon="8.62381214079378"><ele>1299.0</ele><time>2026-04-25T09:51:17Z</time></trkpt><trkpt lat="46.01881709720326" lon="8.62389216798136"><ele>1299.0</ele><time>2026-04-25T09:51:18Z</time></trkpt><trkpt lat="46.01886581752332" lon="8.624007862577166"><ele>1299.0</ele><time>2026-04-25T09:51:19Z</time></trkpt><trkpt lat="46.01890002874024" lon="8.624132936318222"><ele>1299.0</ele><time>2026-04-25T09:51:20Z</time></trkpt><trkpt lat="46.01892489263595" lon="8.624260073354039"><ele>1299.0</ele><time>2026-04-25T09:51:21Z</time></trkpt><trkpt lat="46.01897680508612" lon="8.624368434411807"><ele>1301.8333333333333</ele><time>2026-04-25T09:51:22Z</time></trkpt><trkpt lat="46.01900556493261" lon="8.624487952578875"><ele>1304.6666666666667</ele><time>2026-04-25T09:51:23Z</time></trkpt><trkpt lat="46.01904504949772" lon="8.624595021465671"><ele>1307.5</ele><time>2026-04-25T09:51:24Z</time></trkpt><trkpt lat="46.01908456300356" lon="8.624711554257328"><ele>1310.3333333333335</ele><time>2026-04-25T09:51:25Z</time></trkpt><trkpt lat="46.01911798405378" lon="8.624819733971213"><ele>1313.1666666666667</ele><time>2026-04-25T09:51:26Z</time></trkpt><trkpt lat="46.019159995852704" lon="8.624931097423948"><ele>1316.0</ele><time>2026-04-25T09:51:27Z</time></trkpt><trkpt lat="46.019205547664036" lon="8.6250476572363"><ele>1310.4</ele><time>2026-04-25T09:51:28Z</time></trkpt><trkpt lat="46.01925379252955" lon="8.625155272611382"><ele>1304.8</ele><time>2026-04-25T09:51:29Z</time></trkpt><trkpt lat="46.019309450532994" lon="8.625262216315942"><ele>1299.2</ele><time>2026-04-25T09:51:30Z</time></trkpt><trkpt lat="46.01935827668789" lon="8.625369738088004"><ele>1293.6000000000001</ele><time>2026-04-25T09:51:31Z</time></trkpt><trkpt lat="46.019423092724644" lon="8.625480393246765"><ele>1288.0</ele><time>2026-04-25T09:51:32Z</time></trkpt><trkpt lat="46.01948179284035" lon="8.625649015901592"><ele>1288.0</ele><time>2026-04-25T09:51:33Z</time></trkpt><trkpt lat="46.019533105019434" lon="8.625800668945576"><ele>1288.0</ele><time>2026-04-25T09:51:34Z</time></trkpt><trkpt lat="46.01956940962857" lon="8.625958131721275"><ele>1288.0</ele><time>2026-04-25T09:51:34.998Z</time></trkpt><trkpt lat="46.019595232874515" lon="8.626105365450513"><ele>1288.0</ele><time>2026-04-25T09:51:35.998Z</time></trkpt><trkpt lat="46.019611549836334" lon="8.626266109853985"><ele>1289.2</ele><time>2026-04-25T09:51:36.998Z</time></trkpt><trkpt lat="46.019626733190435" lon="8.626405667657787"><ele>1290.4</ele><time>2026-04-25T09:51:37.998Z</time></trkpt><trkpt lat="46.019634502542225" lon="8.626518569468114"><ele>1291.6000000000001</ele><time>2026-04-25T09:51:38.998Z</time></trkpt><trkpt lat="46.01962068194195" lon="8.626646953231166"><ele>1292.8000000000002</ele><time>2026-04-25T09:51:39.998Z</time></trkpt><trkpt lat="46.01959965402424" lon="8.626765077062915"><ele>1294.0</ele><time>2026-04-25T09:51:40.998Z</time></trkpt><trkpt lat="46.01956040278126" lon="8.626933290319355"><ele>1297.5</ele><time>2026-04-25T09:51:42.998Z</time></trkpt><trkpt lat="46.019590638153865" lon="8.627037512134084"><ele>1301.0</ele><time>2026-04-25T09:51:43.998Z</time></trkpt><trkpt lat="46.019757931174624" lon="8.627111692189295"><ele>1304.5</ele><time>2026-04-25T09:51:45.998Z</time></trkpt><trkpt lat="46.01987771483607" lon="8.627102943306967"><ele>1308.0</ele><time>2026-04-25T09:51:46.999Z</time></trkpt><trkpt lat="46.01998375932093" lon="8.627089676510725"><ele>1302.2</ele><time>2026-04-25T09:51:47.999Z</time></trkpt><trkpt lat="46.0200552174584" lon="8.627093540857171"><ele>1296.4</ele><time>2026-04-25T09:51:48.999Z</time></trkpt><trkpt lat="46.020196889812574" lon="8.627126446406853"><ele>1290.6000000000001</ele><time>2026-04-25T09:51:51.999Z</time></trkpt><trkpt lat="46.02026539755909" lon="8.627166269185619"><ele>1284.8000000000002</ele><time>2026-04-25T09:51:52.999Z</time></trkpt><trkpt lat="46.020353679045726" lon="8.627223271690498"><ele>1279.0</ele><time>2026-04-25T09:51:53.999Z</time></trkpt><trkpt lat="46.02045043493737" lon="8.627293668684958"><ele>1279.0</ele><time>2026-04-25T09:51:54.999Z</time></trkpt><trkpt lat="46.020535815789465" lon="8.627373824482916"><ele>1279.0</ele><time>2026-04-25T09:51:55.999Z</time></trkpt><trkpt lat="46.02061296114617" lon="8.627460295242903"><ele>1279.0</ele><time>2026-04-25T09:51:56.999Z</time></trkpt><trkpt lat="46.020658640684296" lon="8.627553084792103"><ele>1279.0</ele><time>2026-04-25T09:51:57.999Z</time></trkpt><trkpt lat="46.02072457644744" lon="8.627669563134642"><ele>1279.0</ele><time>2026-04-25T09:51:58.999Z</time></trkpt><trkpt lat="46.02079344548296" lon="8.627736417587583"><ele>1275.4</ele><time>2026-04-25T09:51:59.999Z</time></trkpt><trkpt lat="46.02087318733384" lon="8.627742132387922"><ele>1271.8000000000002</ele><time>2026-04-25T09:52:00.999Z</time></trkpt><trkpt lat="46.02099018607832" lon="8.627707657336728"><ele>1268.1999999999998</ele><time>2026-04-25T09:52:01.999Z</time></trkpt><trkpt lat="46.02111598602962" lon="8.627663172947766"><ele>1264.6</ele><time>2026-04-25T09:52:02.999Z</time></trkpt><trkpt lat="46.02121530432208" lon="8.627604010643921"><ele>1261.0</ele><time>2026-04-25T09:52:03.999Z</time></trkpt><trkpt lat="46.02129506440065" lon="8.627525646185845"><ele>1261.0</ele><time>2026-04-25T09:52:04.999Z</time></trkpt><trkpt lat="46.02136679143611" lon="8.627431988122234"><ele>1261.0</ele><time>2026-04-25T09:52:05.999Z</time></trkpt><trkpt lat="46.02142186414021" lon="8.62735532857357"><ele>1261.0</ele><time>2026-04-25T09:52:06.999Z</time></trkpt><trkpt lat="46.02148378925505" lon="8.627291773892347"><ele>1261.0</ele><time>2026-04-25T09:52:07.999Z</time></trkpt><trkpt lat="46.02154776522196" lon="8.627252865306716"><ele>1261.0</ele><time>2026-04-25T09:52:08.999Z</time></trkpt><trkpt lat="46.021635676396365" lon="8.627247121365768"><ele>1261.0</ele><time>2026-04-25T09:52:09.999Z</time></trkpt><trkpt lat="46.02173292462848" lon="8.627225619699999"><ele>1262.0</ele><time>2026-04-25T09:52:10.999Z</time></trkpt><trkpt lat="46.021827550857004" lon="8.627199866894339"><ele>1263.0</ele><time>2026-04-25T09:52:11.999Z</time></trkpt><trkpt lat="46.021908417357785" lon="8.627143156603"><ele>1264.0</ele><time>2026-04-25T09:52:12.999Z</time></trkpt><trkpt lat="46.02200546931018" lon="8.627074788251022"><ele>1265.0</ele><time>2026-04-25T09:52:13.999Z</time></trkpt><trkpt lat="46.02208657141532" lon="8.627006964174939"><ele>1266.0</ele><time>2026-04-25T09:52:14.999Z</time></trkpt><trkpt lat="46.02216268708481" lon="8.62692548356776"><ele>1264.5</ele><time>2026-04-25T09:52:15.999Z</time></trkpt><trkpt lat="46.02222772528828" lon="8.626836873300702"><ele>1263.0</ele><time>2026-04-25T09:52:16.999Z</time></trkpt><trkpt lat="46.022291342489375" lon="8.626731275748051"><ele>1261.5</ele><time>2026-04-25T09:52:17.999Z</time></trkpt><trkpt lat="46.02234892634585" lon="8.62662328387077"><ele>1260.0</ele><time>2026-04-25T09:52:19Z</time></trkpt><trkpt lat="46.02237931077411" lon="8.626511504022389"><ele>1258.5</ele><time>2026-04-25T09:52:20Z</time></trkpt><trkpt lat="46.02243055074626" lon="8.626440199829018"><ele>1257.0</ele><time>2026-04-25T09:52:21Z</time></trkpt><trkpt lat="46.0224834632202" lon="8.626336951462555"><ele>1257.0</ele><time>2026-04-25T09:52:22Z</time></trkpt><trkpt lat="46.022530919854354" lon="8.62621566848669"><ele>1257.0</ele><time>2026-04-25T09:52:23Z</time></trkpt><trkpt lat="46.02257050068604" lon="8.626073175077941"><ele>1257.0</ele><time>2026-04-25T09:52:24Z</time></trkpt><trkpt lat="46.022600284449744" lon="8.625924675327582"><ele>1257.0</ele><time>2026-04-25T09:52:25Z</time></trkpt><trkpt lat="46.022610025415005" lon="8.625787103931263"><ele>1257.0</ele><time>2026-04-25T09:52:26Z</time></trkpt><trkpt lat="46.022603147401824" lon="8.62565681219176"><ele>1254.0</ele><time>2026-04-25T09:52:27Z</time></trkpt><trkpt lat="46.022610057652095" lon="8.625547385843635"><ele>1251.0</ele><time>2026-04-25T09:52:28Z</time></trkpt><trkpt lat="46.02263321439733" lon="8.625461478077336"><ele>1248.0</ele><time>2026-04-25T09:52:29Z</time></trkpt><trkpt lat="46.022722520363736" lon="8.625338153617804"><ele>1245.0</ele><time>2026-04-25T09:52:31Z</time></trkpt><trkpt lat="46.022808299907844" lon="8.62531134776721"><ele>1242.0</ele><time>2026-04-25T09:52:32Z</time></trkpt><trkpt lat="46.02290451391913" lon="8.625349210461348"><ele>1242.0</ele><time>2026-04-25T09:52:33Z</time></trkpt><trkpt lat="46.022999304032794" lon="8.625384432726218"><ele>1242.0</ele><time>2026-04-25T09:52:34Z</time></trkpt><trkpt lat="46.02308614240777" lon="8.625425802202576"><ele>1242.0</ele><time>2026-04-25T09:52:35Z</time></trkpt><trkpt lat="46.023174990906234" lon="8.625476196948679"><ele>1242.0</ele><time>2026-04-25T09:52:36Z</time></trkpt><trkpt lat="46.023255855278194" lon="8.625528606869006"><ele>1242.0</ele><time>2026-04-25T09:52:37Z</time></trkpt><trkpt lat="46.02334170987849" lon="8.62559389691424"><ele>1242.5</ele><time>2026-04-25T09:52:38Z</time></trkpt><trkpt lat="46.02342232822956" lon="8.625663353692836"><ele>1243.0</ele><time>2026-04-25T09:52:39Z</time></trkpt><trkpt lat="46.0234979679592" lon="8.625705724528551"><ele>1243.5</ele><time>2026-04-25T09:52:40Z</time></trkpt><trkpt lat="46.02357089244549" lon="8.625761120906821"><ele>1244.0</ele><time>2026-04-25T09:52:41Z</time></trkpt><trkpt lat="46.02365445217414" lon="8.625820320780525"><ele>1244.5</ele><time>2026-04-25T09:52:42Z</time></trkpt><trkpt lat="46.02372583354213" lon="8.625826838551667"><ele>1245.0</ele><time>2026-04-25T09:52:43Z</time></trkpt><trkpt lat="46.02378917288381" lon="8.625870455162005"><ele>1245.0</ele><time>2026-04-25T09:52:44Z</time></trkpt><trkpt lat="46.023855417442455" lon="8.62589111748559"><ele>1245.0</ele><time>2026-04-25T09:52:45Z</time></trkpt><trkpt lat="46.02392456122869" lon="8.62588334636252"><ele>1245.0</ele><time>2026-04-25T09:52:46Z</time></trkpt><trkpt lat="46.023988929870086" lon="8.62591411658738"><ele>1245.0</ele><time>2026-04-25T09:52:47Z</time></trkpt><trkpt lat="46.02410536635567" lon="8.625905523254168"><ele>1245.0</ele><time>2026-04-25T09:52:49Z</time></trkpt><trkpt lat="46.02420032890197" lon="8.625883073265832"><ele>1245.0</ele><time>2026-04-25T09:52:51Z</time></trkpt><trkpt lat="46.02427203725402" lon="8.62587505600604"><ele>1242.6</ele><time>2026-04-25T09:52:54Z</time></trkpt><trkpt lat="46.02435629263721" lon="8.625879433780195"><ele>1240.2</ele><time>2026-04-25T09:52:58Z</time></trkpt><trkpt lat="46.02448167456153" lon="8.625947630039025"><ele>1237.8</ele><time>2026-04-25T09:56:00.001Z</time></trkpt><trkpt lat="46.02459850271764" lon="8.62603772624444"><ele>1235.4</ele><time>2026-04-25T09:56:02.001Z</time></trkpt><trkpt lat="46.02466660678392" lon="8.626081781451722"><ele>1233.0</ele><time>2026-04-25T09:56:03.001Z</time></trkpt><trkpt lat="46.02474277128238" lon="8.6261118488768"><ele>1233.0</ele><time>2026-04-25T09:56:04.001Z</time></trkpt><trkpt lat="46.02482420034345" lon="8.62610933682683"><ele>1233.0</ele><time>2026-04-25T09:56:05.001Z</time></trkpt><trkpt lat="46.024887093254115" lon="8.626073106488327"><ele>1233.0</ele><time>2026-04-25T09:56:06.001Z</time></trkpt><trkpt lat="46.024972435142764" lon="8.626021797430848"><ele>1233.0</ele><time>2026-04-25T09:56:08.001Z</time></trkpt><trkpt lat="46.02503600841526" lon="8.625981523734126"><ele>1233.0</ele><time>2026-04-25T09:56:09Z</time></trkpt><trkpt lat="46.02512681106322" lon="8.625925414219653"><ele>1233.0</ele><time>2026-04-25T09:56:10Z</time></trkpt><trkpt lat="46.02521106955869" lon="8.625904567243877"><ele>1234.5</ele><time>2026-04-25T09:56:11Z</time></trkpt><trkpt lat="46.02531882622971" lon="8.625922775585135"><ele>1236.0</ele><time>2026-04-25T09:56:12Z</time></trkpt><trkpt lat="46.02543410643278" lon="8.62596223615543"><ele>1237.5</ele><time>2026-04-25T09:56:13Z</time></trkpt><trkpt lat="46.025567497424476" lon="8.625999529553436"><ele>1239.0</ele><time>2026-04-25T09:56:14Z</time></trkpt><trkpt lat="46.02569355732601" lon="8.6260058915623"><ele>1239.0</ele><time>2026-04-25T09:56:15Z</time></trkpt><trkpt lat="46.02580501539588" lon="8.626057469401742"><ele>1239.0</ele><time>2026-04-25T09:56:16.001Z</time></trkpt><trkpt lat="46.02589623204086" lon="8.626084716254134"><ele>1239.0</ele><time>2026-04-25T09:56:17.001Z</time></trkpt><trkpt lat="46.02597911745643" lon="8.6260977528752"><ele>1239.0</ele><time>2026-04-25T09:56:18.001Z</time></trkpt><trkpt lat="46.02607075203885" lon="8.626112373208535"><ele>1239.0</ele><time>2026-04-25T09:56:19.001Z</time></trkpt><trkpt lat="46.02615622441735" lon="8.626123689394731"><ele>1235.4</ele><time>2026-04-25T09:56:20.001Z</time></trkpt><trkpt lat="46.02624064479192" lon="8.626134783767839"><ele>1231.8000000000002</ele><time>2026-04-25T09:56:21.001Z</time></trkpt><trkpt lat="46.02633918893675" lon="8.62614611837309"><ele>1228.1999999999998</ele><time>2026-04-25T09:56:22.001Z</time></trkpt><trkpt lat="46.0264371677724" lon="8.626205549189038"><ele>1224.6</ele><time>2026-04-25T09:56:23.001Z</time></trkpt><trkpt lat="46.026537403254906" lon="8.626254249051952"><ele>1221.0</ele><time>2026-04-25T09:56:24.001Z</time></trkpt><trkpt lat="46.02662954604499" lon="8.626330044659099"><ele>1223.8</ele><time>2026-04-25T09:56:25.001Z</time></trkpt><trkpt lat="46.026730549922874" lon="8.626394288731497"><ele>1226.6</ele><time>2026-04-25T09:56:26.001Z</time></trkpt><trkpt lat="46.02681597393051" lon="8.626441564736703"><ele>1229.4</ele><time>2026-04-25T09:56:27.001Z</time></trkpt><trkpt lat="46.026904229158674" lon="8.62647112226146"><ele>1232.2</ele><time>2026-04-25T09:56:28.001Z</time></trkpt><trkpt lat="46.02701740769757" lon="8.626507890330384"><ele>1235.0</ele><time>2026-04-25T09:56:29.001Z</time></trkpt><trkpt lat="46.02712420798888" lon="8.626545184856804"><ele>1235.0</ele><time>2026-04-25T09:56:30.001Z</time></trkpt><trkpt lat="46.027229615420595" lon="8.62655897642832"><ele>1235.0</ele><time>2026-04-25T09:56:31.001Z</time></trkpt><trkpt lat="46.02732243213782" lon="8.626585064877855"><ele>1235.0</ele><time>2026-04-25T09:56:32.001Z</time></trkpt><trkpt lat="46.02741848895009" lon="8.626608125526898"><ele>1235.0</ele><time>2026-04-25T09:56:33.001Z</time></trkpt><trkpt lat="46.02751273285673" lon="8.626586788578884"><ele>1235.0</ele><time>2026-04-25T09:56:34.001Z</time></trkpt><trkpt lat="46.02759867883972" lon="8.626612637185948"><ele>1238.5</ele><time>2026-04-25T09:56:35.001Z</time></trkpt><trkpt lat="46.02767772820495" lon="8.626644277957634"><ele>1242.0</ele><time>2026-04-25T09:56:36.001Z</time></trkpt><trkpt lat="46.02775375094297" lon="8.626671938198797"><ele>1245.5</ele><time>2026-04-25T09:56:37.001Z</time></trkpt><trkpt lat="46.02783047169234" lon="8.626721936278685"><ele>1249.0</ele><time>2026-04-25T09:56:38.001Z</time></trkpt><trkpt lat="46.02790216742801" lon="8.626787738170654"><ele>1252.5</ele><time>2026-04-25T09:56:39.001Z</time></trkpt><trkpt lat="46.027982249710924" lon="8.626819511052462"><ele>1256.0</ele><time>2026-04-25T09:56:40.001Z</time></trkpt><trkpt lat="46.02805826473106" lon="8.626871596594551"><ele>1256.0</ele><time>2026-04-25T09:56:41.001Z</time></trkpt><trkpt lat="46.028138187575166" lon="8.626933170591053"><ele>1256.0</ele><time>2026-04-25T09:56:42.001Z</time></trkpt><trkpt lat="46.028212286709845" lon="8.627013007798453"><ele>1256.0</ele><time>2026-04-25T09:56:43.001Z</time></trkpt><trkpt lat="46.02829124713753" lon="8.627091930811813"><ele>1256.0</ele><time>2026-04-25T09:56:44.001Z</time></trkpt><trkpt lat="46.02837460600918" lon="8.627176177718772"><ele>1256.0</ele><time>2026-04-25T09:56:45.001Z</time></trkpt><trkpt lat="46.02846642135449" lon="8.627252610949657"><ele>1253.6666666666667</ele><time>2026-04-25T09:56:46.001Z</time></trkpt><trkpt lat="46.02853008771618" lon="8.627333604243278"><ele>1251.3333333333335</ele><time>2026-04-25T09:56:47.001Z</time></trkpt><trkpt lat="46.02860327400908" lon="8.627393019996662"><ele>1249.0</ele><time>2026-04-25T09:56:48.001Z</time></trkpt><trkpt lat="46.02866250014344" lon="8.627481655312584"><ele>1246.6666666666667</ele><time>2026-04-25T09:56:49.001Z</time></trkpt><trkpt lat="46.02873291458699" lon="8.627550164794657"><ele>1244.3333333333333</ele><time>2026-04-25T09:56:50.001Z</time></trkpt><trkpt lat="46.02882029416886" lon="8.627593801134617"><ele>1242.0</ele><time>2026-04-25T09:56:51.001Z</time></trkpt><trkpt lat="46.028917280223425" lon="8.627605260019843"><ele>1242.0</ele><time>2026-04-25T09:56:52.001Z</time></trkpt><trkpt lat="46.02897713367707" lon="8.627575725855177"><ele>1242.0</ele><time>2026-04-25T09:56:53.001Z</time></trkpt><trkpt lat="46.02907122813211" lon="8.627528654586222"><ele>1242.0</ele><time>2026-04-25T09:56:54.001Z</time></trkpt><trkpt lat="46.029166681788446" lon="8.627488109784116"><ele>1242.0</ele><time>2026-04-25T09:56:55.001Z</time></trkpt><trkpt lat="46.02923168881402" lon="8.627421151869761"><ele>1242.0</ele><time>2026-04-25T09:56:56.001Z</time></trkpt><trkpt lat="46.02929467349508" lon="8.627313409919385"><ele>1242.0</ele><time>2026-04-25T09:56:57.001Z</time></trkpt><trkpt lat="46.02935080124624" lon="8.627192271818624"><ele>1242.6</ele><time>2026-04-25T09:56:58.001Z</time></trkpt><trkpt lat="46.02940147185783" lon="8.627066266393882"><ele>1243.2</ele><time>2026-04-25T09:56:59.001Z</time></trkpt><trkpt lat="46.029439378192585" lon="8.626936918337435"><ele>1243.8</ele><time>2026-04-25T09:57:00.001Z</time></trkpt><trkpt lat="46.02950470092283" lon="8.626842737796416"><ele>1244.4</ele><time>2026-04-25T09:57:01.001Z</time></trkpt><trkpt lat="46.029552536153794" lon="8.626717278193798"><ele>1245.0</ele><time>2026-04-25T09:57:02.001Z</time></trkpt><trkpt lat="46.029592960657396" lon="8.626606940959455"><ele>1250.8</ele><time>2026-04-25T09:57:03.001Z</time></trkpt><trkpt lat="46.02962629511083" lon="8.626512721912666"><ele>1256.6</ele><time>2026-04-25T09:57:04.001Z</time></trkpt><trkpt lat="46.02967934474146" lon="8.62640551373711"><ele>1262.4</ele><time>2026-04-25T09:57:05.001Z</time></trkpt><trkpt lat="46.029742257666896" lon="8.626289354209424"><ele>1268.2</ele><time>2026-04-25T09:57:06.001Z</time></trkpt><trkpt lat="46.029806621060686" lon="8.626167413678777"><ele>1274.0</ele><time>2026-04-25T09:57:07.001Z</time></trkpt><trkpt lat="46.029879643273254" lon="8.626040403250425"><ele>1270.4</ele><time>2026-04-25T09:57:08.001Z</time></trkpt><trkpt lat="46.02994560258483" lon="8.625918447748944"><ele>1266.8000000000002</ele><time>2026-04-25T09:57:09.001Z</time></trkpt><trkpt lat="46.0300100980699" lon="8.62580347693082"><ele>1263.1999999999998</ele><time>2026-04-25T09:57:10.001Z</time></trkpt><trkpt lat="46.03007186964833" lon="8.625684340361733"><ele>1259.6</ele><time>2026-04-25T09:57:11.001Z</time></trkpt><trkpt lat="46.0301354998163" lon="8.625544395006196"><ele>1256.0</ele><time>2026-04-25T09:57:12.001Z</time></trkpt><trkpt lat="46.03020067964883" lon="8.625433563806247"><ele>1261.0</ele><time>2026-04-25T09:57:13.001Z</time></trkpt><trkpt lat="46.0302639997104" lon="8.625308632639483"><ele>1266.0</ele><time>2026-04-25T09:57:14.001Z</time></trkpt><trkpt lat="46.03032713154783" lon="8.625197975194732"><ele>1271.0</ele><time>2026-04-25T09:57:15.001Z</time></trkpt><trkpt lat="46.03037470115184" lon="8.625072136609617"><ele>1276.0</ele><time>2026-04-25T09:57:16.001Z</time></trkpt><trkpt lat="46.03041514689557" lon="8.624957806950208"><ele>1281.0</ele><time>2026-04-25T09:57:17.001Z</time></trkpt><trkpt lat="46.03046077869432" lon="8.62485065843102"><ele>1281.0</ele><time>2026-04-25T09:57:18.001Z</time></trkpt><trkpt lat="46.03050096419401" lon="8.624759081079167"><ele>1281.0</ele><time>2026-04-25T09:57:19.001Z</time></trkpt><trkpt lat="46.03053518163002" lon="8.624677063064576"><ele>1281.0</ele><time>2026-04-25T09:57:20.001Z</time></trkpt><trkpt lat="46.03054682064467" lon="8.624575966531692"><ele>1281.0</ele><time>2026-04-25T09:57:21.001Z</time></trkpt><trkpt lat="46.03060962328054" lon="8.624438704434883"><ele>1281.0</ele><time>2026-04-25T09:57:23.001Z</time></trkpt><trkpt lat="46.03071436756643" lon="8.62451195251426"><ele>1281.0</ele><time>2026-04-25T09:57:25.001Z</time></trkpt><trkpt lat="46.0307775467459" lon="8.624560795899557"><ele>1275.8</ele><time>2026-04-25T09:57:26.001Z</time></trkpt><trkpt lat="46.030848720093296" lon="8.624608075535658"><ele>1270.6</ele><time>2026-04-25T09:57:27.001Z</time></trkpt><trkpt lat="46.03095992505155" lon="8.624641766592031"><ele>1265.4</ele><time>2026-04-25T09:57:28.001Z</time></trkpt><trkpt lat="46.03105922622409" lon="8.624650568561803"><ele>1260.2</ele><time>2026-04-25T09:57:29.001Z</time></trkpt><trkpt lat="46.03117229373373" lon="8.624674158071128"><ele>1255.0</ele><time>2026-04-25T09:57:30.001Z</time></trkpt><trkpt lat="46.03126402739365" lon="8.624727086651394"><ele>1255.0</ele><time>2026-04-25T09:57:31.001Z</time></trkpt><trkpt lat="46.031358810091156" lon="8.624865300774951"><ele>1255.0</ele><time>2026-04-25T09:57:33.001Z</time></trkpt><trkpt lat="46.03144678989826" lon="8.62499219215298"><ele>1255.0</ele><time>2026-04-25T09:57:34.001Z</time></trkpt><trkpt lat="46.03152973093783" lon="8.625097995458445"><ele>1255.0</ele><time>2026-04-25T09:57:35.001Z</time></trkpt><trkpt lat="46.03162399479516" lon="8.625218632112183"><ele>1252.0</ele><time>2026-04-25T09:57:36.001Z</time></trkpt><trkpt lat="46.031722385144654" lon="8.625348824748636"><ele>1249.0</ele><time>2026-04-25T09:57:37.001Z</time></trkpt><trkpt lat="46.031824766863934" lon="8.62546639941101"><ele>1246.0</ele><time>2026-04-25T09:57:38.001Z</time></trkpt><trkpt lat="46.03191620026692" lon="8.62557569606894"><ele>1243.0</ele><time>2026-04-25T09:57:39.001Z</time></trkpt><trkpt lat="46.031986711899066" lon="8.625653817614126"><ele>1243.0</ele><time>2026-04-25T09:57:40.001Z</time></trkpt><trkpt lat="46.0320949272221" lon="8.625712101048688"><ele>1243.0</ele><time>2026-04-25T09:57:42.001Z</time></trkpt><trkpt lat="46.03219887468977" lon="8.625602741848645"><ele>1243.0</ele><time>2026-04-25T09:57:44.001Z</time></trkpt><trkpt lat="46.03225497642348" lon="8.625492659678303"><ele>1243.0</ele><time>2026-04-25T09:57:45.001Z</time></trkpt><trkpt lat="46.03230830430132" lon="8.62536982231155"><ele>1243.0</ele><time>2026-04-25T09:57:46.001Z</time></trkpt><trkpt lat="46.03236394381243" lon="8.625247855985558"><ele>1248.4</ele><time>2026-04-25T09:57:47.001Z</time></trkpt><trkpt lat="46.03241926351926" lon="8.625109856550567"><ele>1253.8</ele><time>2026-04-25T09:57:48.001Z</time></trkpt><trkpt lat="46.032479613294626" lon="8.624987156759957"><ele>1259.2</ele><time>2026-04-25T09:57:49.001Z</time></trkpt><trkpt lat="46.03252532295377" lon="8.624843191975216"><ele>1264.6</ele><time>2026-04-25T09:57:50.001Z</time></trkpt><trkpt lat="46.03259227393134" lon="8.624723393738167"><ele>1270.0</ele><time>2026-04-25T09:57:51.001Z</time></trkpt><trkpt lat="46.032635791767056" lon="8.624616207891016"><ele>1270.0</ele><time>2026-04-25T09:57:52.001Z</time></trkpt><trkpt lat="46.032677979010735" lon="8.624525500137048"><ele>1270.0</ele><time>2026-04-25T09:57:53Z</time></trkpt><trkpt lat="46.03278049677474" lon="8.624450953887628"><ele>1270.0</ele><time>2026-04-25T09:57:55Z</time></trkpt><trkpt lat="46.03284629303671" lon="8.624511491734495"><ele>1270.0</ele><time>2026-04-25T09:57:56Z</time></trkpt><trkpt lat="46.032865354757924" lon="8.624641365547927"><ele>1270.0</ele><time>2026-04-25T09:57:57Z</time></trkpt><trkpt lat="46.03292279356202" lon="8.624749194623847"><ele>1270.0</ele><time>2026-04-25T09:57:58Z</time></trkpt><trkpt lat="46.03298186135326" lon="8.624856528110048"><ele>1270.0</ele><time>2026-04-25T09:57:59Z</time></trkpt><trkpt lat="46.0330389115182" lon="8.624947144683944"><ele>1270.0</ele><time>2026-04-25T09:58:00Z</time></trkpt><trkpt lat="46.03309932908498" lon="8.625015659099667"><ele>1270.0</ele><time>2026-04-25T09:58:01Z</time></trkpt><trkpt lat="46.033178284463084" lon="8.625069618817095"><ele>1270.0</ele><time>2026-04-25T09:58:02Z</time></trkpt><trkpt lat="46.03325413317967" lon="8.625151000745301"><ele>1270.0</ele><time>2026-04-25T09:58:03Z</time></trkpt><trkpt lat="46.03335846130306" lon="8.62517133629748"><ele>1271.8</ele><time>2026-04-25T09:58:04Z</time></trkpt><trkpt lat="46.03348689450937" lon="8.625169660052665"><ele>1273.6</ele><time>2026-04-25T09:58:05Z</time></trkpt><trkpt lat="46.03357681395402" lon="8.625183641580819"><ele>1275.4</ele><time>2026-04-25T09:58:06Z</time></trkpt><trkpt lat="46.033674211003905" lon="8.625248707279718"><ele>1277.2</ele><time>2026-04-25T09:58:07Z</time></trkpt><trkpt lat="46.03376363554056" lon="8.625342825243372"><ele>1279.0</ele><time>2026-04-25T09:58:08Z</time></trkpt><trkpt lat="46.03385027648681" lon="8.625421271542677"><ele>1277.8333333333333</ele><time>2026-04-25T09:58:09Z</time></trkpt><trkpt lat="46.033929210162846" lon="8.625499027530111"><ele>1276.6666666666665</ele><time>2026-04-25T09:58:10Z</time></trkpt><trkpt lat="46.03399357908021" lon="8.625570771863375"><ele>1275.5</ele><time>2026-04-25T09:58:11Z</time></trkpt><trkpt lat="46.03405805115992" lon="8.625654607522037"><ele>1274.3333333333333</ele><time>2026-04-25T09:58:12Z</time></trkpt><trkpt lat="46.034116974521304" lon="8.625744140306393"><ele>1273.1666666666667</ele><time>2026-04-25T09:58:13Z</time></trkpt><trkpt lat="46.03417747217079" lon="8.62583394133052"><ele>1272.0</ele><time>2026-04-25T09:58:14Z</time></trkpt><trkpt lat="46.034237190914546" lon="8.62591698804729"><ele>1272.0</ele><time>2026-04-25T09:58:15Z</time></trkpt><trkpt lat="46.0343205825717" lon="8.625969363056006"><ele>1272.0</ele><time>2026-04-25T09:58:16Z</time></trkpt><trkpt lat="46.0344063882757" lon="8.626020806642325"><ele>1272.0</ele><time>2026-04-25T09:58:17Z</time></trkpt><trkpt lat="46.03452664510831" lon="8.626052412557893"><ele>1272.0</ele><time>2026-04-25T09:58:18Z</time></trkpt><trkpt lat="46.034617775858294" lon="8.626070503218601"><ele>1272.0</ele><time>2026-04-25T09:58:19Z</time></trkpt><trkpt lat="46.03471857226628" lon="8.62608677346103"><ele>1272.0</ele><time>2026-04-25T09:58:20Z</time></trkpt><trkpt lat="46.034823692445514" lon="8.6260899079221"><ele>1272.0</ele><time>2026-04-25T09:58:21Z</time></trkpt><trkpt lat="46.03492534245235" lon="8.626021314746353"><ele>1272.0</ele><time>2026-04-25T09:58:22Z</time></trkpt><trkpt lat="46.03501584121921" lon="8.625970535009966"><ele>1272.0</ele><time>2026-04-25T09:58:23Z</time></trkpt><trkpt lat="46.03509014519813" lon="8.625918910343666"><ele>1272.0</ele><time>2026-04-25T09:58:24Z</time></trkpt><trkpt lat="46.03515910731718" lon="8.625840742252363"><ele>1273.3333333333333</ele><time>2026-04-25T09:58:25Z</time></trkpt><trkpt lat="46.0352218246851" lon="8.625759099994076"><ele>1274.6666666666667</ele><time>2026-04-25T09:58:26Z</time></trkpt><trkpt lat="46.03527081536924" lon="8.6256848324377"><ele>1276.0</ele><time>2026-04-25T09:58:27Z</time></trkpt><trkpt lat="46.03532566699252" lon="8.62559795332254"><ele>1277.3333333333335</ele><time>2026-04-25T09:58:29Z</time></trkpt><trkpt lat="46.03537518829867" lon="8.625541765748666"><ele>1278.6666666666667</ele><time>2026-04-25T09:58:31Z</time></trkpt><trkpt lat="46.035461604633554" lon="8.625533796860381"><ele>1280.0</ele><time>2026-04-25T09:59:08.001Z</time></trkpt><trkpt lat="46.03553141373214" lon="8.625585132705083"><ele>1280.0</ele><time>2026-04-25T09:59:10.001Z</time></trkpt><trkpt lat="46.03560073599597" lon="8.625694107210558"><ele>1280.0</ele><time>2026-04-25T09:59:12.001Z</time></trkpt><trkpt lat="46.03563912800047" lon="8.625770064067451"><ele>1280.0</ele><time>2026-04-25T09:59:13.001Z</time></trkpt><trkpt lat="46.03568811336781" lon="8.625868481040525"><ele>1280.0</ele><time>2026-04-25T09:59:14.001Z</time></trkpt><trkpt lat="46.03574987486686" lon="8.625963075143977"><ele>1280.0</ele><time>2026-04-25T09:59:15.001Z</time></trkpt><trkpt lat="46.03580765639266" lon="8.626028223953211"><ele>1280.0</ele><time>2026-04-25T09:59:16.001Z</time></trkpt><trkpt lat="46.03588621207552" lon="8.626117347951688"><ele>1276.8</ele><time>2026-04-25T09:59:18.001Z</time></trkpt><trkpt lat="46.03592989885106" lon="8.626182816124269"><ele>1273.6</ele><time>2026-04-25T09:59:20.001Z</time></trkpt><trkpt lat="46.03593709765267" lon="8.626332587191557"><ele>1270.4</ele><time>2026-04-25T09:59:23.001Z</time></trkpt><trkpt lat="46.03595629637317" lon="8.626451346759483"><ele>1267.2</ele><time>2026-04-25T09:59:25.001Z</time></trkpt><trkpt lat="46.03599823317551" lon="8.626622424408716"><ele>1264.0</ele><time>2026-04-25T09:59:26.001Z</time></trkpt><trkpt lat="46.03605577327333" lon="8.626719808817787"><ele>1264.0</ele><time>2026-04-25T09:59:27.001Z</time></trkpt><trkpt lat="46.036115412528495" lon="8.626809441276396"><ele>1264.0</ele><time>2026-04-25T09:59:29.001Z</time></trkpt><trkpt lat="46.03617210648694" lon="8.626894644941922"><ele>1264.0</ele><time>2026-04-25T09:59:31.001Z</time></trkpt><trkpt lat="46.0366587629823" lon="8.626571880370689"><ele>1270.2</ele><time>2026-04-25T09:59:57.001Z</time></trkpt><trkpt lat="46.03667586285935" lon="8.62646208834023"><ele>1276.4</ele><time>2026-04-25T09:59:58.001Z</time></trkpt><trkpt lat="46.036735747199714" lon="8.626340805073049"><ele>1282.6</ele><time>2026-04-25T10:00:00Z</time></trkpt><trkpt lat="46.036780992173114" lon="8.626214557563266"><ele>1288.8</ele><time>2026-04-25T10:00:02Z</time></trkpt><trkpt lat="46.03681560531932" lon="8.626087723925641"><ele>1295.0</ele><time>2026-04-25T10:00:04Z</time></trkpt><trkpt lat="46.03687280693414" lon="8.625969470234367"><ele>1296.4</ele><time>2026-04-25T10:00:06Z</time></trkpt><trkpt lat="46.03690324692004" lon="8.62588678898148"><ele>1297.8</ele><time>2026-04-25T10:00:07Z</time></trkpt><trkpt lat="46.03692539107821" lon="8.625742836368662"><ele>1299.1999999999998</ele><time>2026-04-25T10:00:09Z</time></trkpt><trkpt lat="46.03698981129362" lon="8.625602464445814"><ele>1300.6</ele><time>2026-04-25T10:00:11Z</time></trkpt><trkpt lat="46.03704320291345" lon="8.625437890562209"><ele>1302.0</ele><time>2026-04-25T10:00:13Z</time></trkpt><trkpt lat="46.03705008147681" lon="8.62533682474416"><ele>1304.0</ele><time>2026-04-25T10:00:14Z</time></trkpt><trkpt lat="46.037049791623666" lon="8.62524128934114"><ele>1306.0</ele><time>2026-04-25T10:00:15Z</time></trkpt><trkpt lat="46.03704947121755" lon="8.625145456070952"><ele>1308.0</ele><time>2026-04-25T10:00:16Z</time></trkpt><trkpt lat="46.03704524673053" lon="8.624943083921725"><ele>1310.0</ele><time>2026-04-25T10:00:18Z</time></trkpt><trkpt lat="46.03706538398075" lon="8.624852236268435"><ele>1312.0</ele><time>2026-04-25T10:00:19Z</time></trkpt><trkpt lat="46.037090817177365" lon="8.624668006261702"><ele>1312.0</ele><time>2026-04-25T10:00:21Z</time></trkpt><trkpt lat="46.03712068097306" lon="8.624573646592772"><ele>1312.0</ele><time>2026-04-25T10:00:22Z</time></trkpt><trkpt lat="46.03713948174992" lon="8.624482156384863"><ele>1312.0</ele><time>2026-04-25T10:00:23Z</time></trkpt><trkpt lat="46.0371767191176" lon="8.62433305855565"><ele>1312.0</ele><time>2026-04-25T10:00:25Z</time></trkpt><trkpt lat="46.037214866071075" lon="8.62414963282496"><ele>1312.0</ele><time>2026-04-25T10:00:27Z</time></trkpt><trkpt lat="46.03722149850747" lon="8.624055721930612"><ele>1312.0</ele><time>2026-04-25T10:00:28Z</time></trkpt><trkpt lat="46.03722807705686" lon="8.623965486436449"><ele>1313.6666666666665</ele><time>2026-04-25T10:00:29Z</time></trkpt><trkpt lat="46.03722845556446" lon="8.623852455463673"><ele>1315.3333333333333</ele><time>2026-04-25T10:00:30Z</time></trkpt><trkpt lat="46.037227316986424" lon="8.623753304308712"><ele>1317.0</ele><time>2026-04-25T10:00:31Z</time></trkpt><trkpt lat="46.03722198469999" lon="8.623643072333278"><ele>1318.6666666666667</ele><time>2026-04-25T10:00:32Z</time></trkpt><trkpt lat="46.03718888434542" lon="8.623541449992377"><ele>1320.3333333333335</ele><time>2026-04-25T10:00:33Z</time></trkpt><trkpt lat="46.03715220291522" lon="8.623396131969114"><ele>1322.0</ele><time>2026-04-25T10:00:35Z</time></trkpt><trkpt lat="46.03709221710881" lon="8.623204431568372"><ele>1322.3999999999999</ele><time>2026-04-25T10:00:37Z</time></trkpt><trkpt lat="46.03701999382608" lon="8.623082332920484"><ele>1322.8</ele><time>2026-04-25T10:00:39Z</time></trkpt><trkpt lat="46.03697718149157" lon="8.622995174755758"><ele>1323.2</ele><time>2026-04-25T10:00:40Z</time></trkpt><trkpt lat="46.03692153436712" lon="8.622893617492522"><ele>1323.6</ele><time>2026-04-25T10:00:41Z</time></trkpt><trkpt lat="46.03686821110401" lon="8.622790914185432"><ele>1324.0</ele><time>2026-04-25T10:00:42Z</time></trkpt><trkpt lat="46.03680499756951" lon="8.622653558969247"><ele>1322.6</ele><time>2026-04-25T10:00:43Z</time></trkpt><trkpt lat="46.03674676763561" lon="8.622576102537948"><ele>1321.2</ele><time>2026-04-25T10:00:44Z</time></trkpt><trkpt lat="46.03671983938193" lon="8.622444474250651"><ele>1319.8</ele><time>2026-04-25T10:00:46Z</time></trkpt><trkpt lat="46.036711242635704" lon="8.622352685195"><ele>1318.3999999999999</ele><time>2026-04-25T10:00:47Z</time></trkpt><trkpt lat="46.036705018401534" lon="8.62216775753839"><ele>1317.0</ele><time>2026-04-25T10:00:49Z</time></trkpt><trkpt lat="46.03672871025669" lon="8.622039767363002"><ele>1314.6</ele><time>2026-04-25T10:00:50Z</time></trkpt><trkpt lat="46.03674207754681" lon="8.621938873964826"><ele>1312.1999999999998</ele><time>2026-04-25T10:00:51.001Z</time></trkpt><trkpt lat="46.03673057777227" lon="8.621827793392159"><ele>1309.8</ele><time>2026-04-25T10:00:52.001Z</time></trkpt><trkpt lat="46.036724955739274" lon="8.621709194142133"><ele>1307.4</ele><time>2026-04-25T10:00:53.001Z</time></trkpt><trkpt lat="46.0366923281092" lon="8.621539742395461"><ele>1305.0</ele><time>2026-04-25T10:00:55.001Z</time></trkpt><trkpt lat="46.036594821354754" lon="8.621398476648807"><ele>1310.1666666666667</ele><time>2026-04-25T10:00:57.001Z</time></trkpt><trkpt lat="46.036521737356885" lon="8.621323788179149"><ele>1315.3333333333333</ele><time>2026-04-25T10:00:58.001Z</time></trkpt><trkpt lat="46.03647200614738" lon="8.621260636230495"><ele>1320.5</ele><time>2026-04-25T10:00:59.001Z</time></trkpt><trkpt lat="46.03641970589918" lon="8.62120824822471"><ele>1325.6666666666665</ele><time>2026-04-25T10:01:00.001Z</time></trkpt><trkpt lat="46.03631975552649" lon="8.621123672871123"><ele>1330.8333333333333</ele><time>2026-04-25T10:01:02.001Z</time></trkpt><trkpt lat="46.036241228279" lon="8.621072351139492"><ele>1336.0</ele><time>2026-04-25T10:01:03.001Z</time></trkpt><trkpt lat="46.03618983513892" lon="8.62099506940047"><ele>1336.0</ele><time>2026-04-25T10:01:04.001Z</time></trkpt><trkpt lat="46.03613630313661" lon="8.620859137016593"><ele>1336.0</ele><time>2026-04-25T10:01:06.001Z</time></trkpt><trkpt lat="46.03606395773352" lon="8.62077456735667"><ele>1336.0</ele><time>2026-04-25T10:01:08.001Z</time></trkpt><trkpt lat="46.036015298955384" lon="8.620665050147176"><ele>1336.0</ele><time>2026-04-25T10:01:12.001Z</time></trkpt><trkpt lat="46.0360394837402" lon="8.620541261934335"><ele>1336.0</ele><time>2026-04-25T10:01:14.001Z</time></trkpt><trkpt lat="46.03612585494689" lon="8.620558390889098"><ele>1336.0</ele><time>2026-04-25T10:01:23.001Z</time></trkpt><trkpt lat="46.03622819845443" lon="8.620478775684937"><ele>1336.0</ele><time>2026-04-25T10:01:25.001Z</time></trkpt><trkpt lat="46.036317037887706" lon="8.62038371819172"><ele>1336.0</ele><time>2026-04-25T10:01:27.001Z</time></trkpt><trkpt lat="46.036363875176754" lon="8.620312162529052"><ele>1336.0</ele><time>2026-04-25T10:01:28.001Z</time></trkpt><trkpt lat="46.036431223088606" lon="8.620176230949347"><ele>1336.0</ele><time>2026-04-25T10:01:30.001Z</time></trkpt><trkpt lat="46.036467963762234" lon="8.620080344846963"><ele>1337.6666666666665</ele><time>2026-04-25T10:01:31.001Z</time></trkpt><trkpt lat="46.036507253994635" lon="8.619991942242974"><ele>1339.3333333333333</ele><time>2026-04-25T10:01:32.001Z</time></trkpt><trkpt lat="46.036546976621516" lon="8.619890382888373"><ele>1341.0</ele><time>2026-04-25T10:01:33.001Z</time></trkpt><trkpt lat="46.03658338375521" lon="8.619808935262817"><ele>1342.6666666666667</ele><time>2026-04-25T10:01:34.001Z</time></trkpt><trkpt lat="46.036633196032795" lon="8.61975152969847"><ele>1344.3333333333335</ele><time>2026-04-25T10:01:35.001Z</time></trkpt><trkpt lat="46.03670960463754" lon="8.619741121154716"><ele>1346.0</ele><time>2026-04-25T10:01:36.001Z</time></trkpt><trkpt lat="46.03681905985885" lon="8.619686163387025"><ele>1344.1666666666667</ele><time>2026-04-25T10:01:38.001Z</time></trkpt><trkpt lat="46.03687198110152" lon="8.619600807782865"><ele>1342.3333333333335</ele><time>2026-04-25T10:01:39.001Z</time></trkpt><trkpt lat="46.036955501372056" lon="8.619504779331038"><ele>1340.5</ele><time>2026-04-25T10:01:40.001Z</time></trkpt><trkpt lat="46.037007362942184" lon="8.619446312331325"><ele>1338.6666666666667</ele><time>2026-04-25T10:01:41.001Z</time></trkpt><trkpt lat="46.037067420173194" lon="8.619381593700117"><ele>1336.8333333333333</ele><time>2026-04-25T10:01:42.001Z</time></trkpt><trkpt lat="46.03713274436816" lon="8.61932727792385"><ele>1335.0</ele><time>2026-04-25T10:01:43.001Z</time></trkpt><trkpt lat="46.037219772522654" lon="8.619321432590374"><ele>1335.0</ele><time>2026-04-25T10:01:44.001Z</time></trkpt><trkpt lat="46.03731088077444" lon="8.61931316009776"><ele>1335.0</ele><time>2026-04-25T10:01:45.001Z</time></trkpt><trkpt lat="46.03738118225137" lon="8.619268746273878"><ele>1335.0</ele><time>2026-04-25T10:01:46.001Z</time></trkpt><trkpt lat="46.03746137572743" lon="8.619210872306864"><ele>1335.0</ele><time>2026-04-25T10:01:47.001Z</time></trkpt><trkpt lat="46.03751798061499" lon="8.6190937857419"><ele>1335.0</ele><time>2026-04-25T10:01:49.001Z</time></trkpt><trkpt lat="46.03756085571044" lon="8.619015202006803"><ele>1335.0</ele><time>2026-04-25T10:01:50.001Z</time></trkpt><trkpt lat="46.03761457189031" lon="8.618923800309213"><ele>1332.8</ele><time>2026-04-25T10:01:51.001Z</time></trkpt><trkpt lat="46.03767761276376" lon="8.618823510501613"><ele>1330.6</ele><time>2026-04-25T10:01:52.001Z</time></trkpt><trkpt lat="46.037735030262965" lon="8.618695512187209"><ele>1328.4</ele><time>2026-04-25T10:01:53.001Z</time></trkpt><trkpt lat="46.03775780033976" lon="8.61859645221706"><ele>1326.2</ele><time>2026-04-25T10:01:54.001Z</time></trkpt><trkpt lat="46.03776531652856" lon="8.618446282394713"><ele>1324.0</ele><time>2026-04-25T10:01:56.001Z</time></trkpt><trkpt lat="46.03779896509203" lon="8.618274054371946"><ele>1324.0</ele><time>2026-04-25T10:01:58.001Z</time></trkpt><trkpt lat="46.03778995982" lon="8.618180709772709"><ele>1324.0</ele><time>2026-04-25T10:01:59.001Z</time></trkpt><trkpt lat="46.03782524284082" lon="8.618025437311681"><ele>1324.0</ele><time>2026-04-25T10:02:01.001Z</time></trkpt><trkpt lat="46.03785536397702" lon="8.617888524511383"><ele>1324.0</ele><time>2026-04-25T10:02:03.001Z</time></trkpt><trkpt lat="46.03788577482904" lon="8.617764701087241"><ele>1324.0</ele><time>2026-04-25T10:02:05Z</time></trkpt><trkpt lat="46.03795717233464" lon="8.617593972290797"><ele>1324.3333333333333</ele><time>2026-04-25T10:02:07Z</time></trkpt><trkpt lat="46.037984909708356" lon="8.617505654399668"><ele>1324.6666666666665</ele><time>2026-04-25T10:02:08Z</time></trkpt><trkpt lat="46.03802198859693" lon="8.61735585175225"><ele>1325.0</ele><time>2026-04-25T10:02:10Z</time></trkpt><trkpt lat="46.03804331046152" lon="8.61725837243988"><ele>1325.3333333333333</ele><time>2026-04-25T10:02:11Z</time></trkpt><trkpt lat="46.03804468414103" lon="8.617166654147079"><ele>1325.6666666666667</ele><time>2026-04-25T10:02:12Z</time></trkpt><trkpt lat="46.038060635982546" lon="8.617009003247606"><ele>1326.0</ele><time>2026-04-25T10:02:14Z</time></trkpt><trkpt lat="46.038044537350395" lon="8.616853327507568"><ele>1323.1666666666667</ele><time>2026-04-25T10:02:16Z</time></trkpt><trkpt lat="46.038035454483605" lon="8.616720654277689"><ele>1320.3333333333333</ele><time>2026-04-25T10:02:18Z</time></trkpt><trkpt lat="46.03796732809798" lon="8.616633948236814"><ele>1317.5</ele><time>2026-04-25T10:02:20Z</time></trkpt><trkpt lat="46.03789638015692" lon="8.616630626355601"><ele>1314.6666666666665</ele><time>2026-04-25T10:02:22Z</time></trkpt><trkpt lat="46.03780870886262" lon="8.616645559879046"><ele>1311.8333333333333</ele><time>2026-04-25T10:02:24Z</time></trkpt><trkpt lat="46.03772048812258" lon="8.616678044073515"><ele>1309.0</ele><time>2026-04-25T10:02:26Z</time></trkpt><trkpt lat="46.03761804590596" lon="8.616705514194225"><ele>1309.0</ele><time>2026-04-25T10:02:28Z</time></trkpt><trkpt lat="46.03751924056606" lon="8.616726324311207"><ele>1309.0</ele><time>2026-04-25T10:02:30Z</time></trkpt><trkpt lat="46.037428698420996" lon="8.616757047961048"><ele>1309.0</ele><time>2026-04-25T10:02:32Z</time></trkpt><trkpt lat="46.03735495081628" lon="8.61680080285963"><ele>1309.0</ele><time>2026-04-25T10:02:34Z</time></trkpt><trkpt lat="46.0372661497922" lon="8.616831047897593"><ele>1309.0</ele><time>2026-04-25T10:02:36Z</time></trkpt><trkpt lat="46.03720407780896" lon="8.6167899341709"><ele>1309.0</ele><time>2026-04-25T10:02:38Z</time></trkpt><trkpt lat="46.03717963392857" lon="8.616682012364183"><ele>1309.3333333333333</ele><time>2026-04-25T10:02:41Z</time></trkpt><trkpt lat="46.03713828903235" lon="8.616584006630992"><ele>1309.6666666666665</ele><time>2026-04-25T10:02:45Z</time></trkpt><trkpt lat="46.037128613636" lon="8.616466496865081"><ele>1310.0</ele><time>2026-04-25T10:02:48Z</time></trkpt><trkpt lat="46.03714228153476" lon="8.61635204613751"><ele>1310.3333333333333</ele><time>2026-04-25T10:02:51Z</time></trkpt><trkpt lat="46.03715892871757" lon="8.616247666696202"><ele>1310.6666666666667</ele><time>2026-04-25T10:02:54Z</time></trkpt><trkpt lat="46.037131085283164" lon="8.61612333595488"><ele>1311.0</ele><time>2026-04-25T10:02:56Z</time></trkpt><trkpt lat="46.03705950140303" lon="8.615967556396699"><ele>1311.0</ele><time>2026-04-25T10:02:58Z</time></trkpt><trkpt lat="46.03702475262028" lon="8.61587232105315"><ele>1311.0</ele><time>2026-04-25T10:02:59Z</time></trkpt><trkpt lat="46.03698550351364" lon="8.61578934728973"><ele>1311.0</ele><time>2026-04-25T10:03:00.001Z</time></trkpt><trkpt lat="46.03695298666879" lon="8.61569458649875"><ele>1311.0</ele><time>2026-04-25T10:03:01.001Z</time></trkpt><trkpt lat="46.0369242026591" lon="8.615605619234897"><ele>1311.0</ele><time>2026-04-25T10:03:02.001Z</time></trkpt><trkpt lat="46.03694296907034" lon="8.61542046035041"><ele>1311.0</ele><time>2026-04-25T10:03:04.001Z</time></trkpt><trkpt lat="46.036934953374036" lon="8.615329521118523"><ele>1307.8333333333333</ele><time>2026-04-25T10:03:05.001Z</time></trkpt><trkpt lat="46.03692006555612" lon="8.615235077684018"><ele>1304.6666666666667</ele><time>2026-04-25T10:03:06.001Z</time></trkpt><trkpt lat="46.0368746493" lon="8.615066893688681"><ele>1301.5</ele><time>2026-04-25T10:03:08.001Z</time></trkpt><trkpt lat="46.036831721740654" lon="8.614997223227448"><ele>1298.3333333333335</ele><time>2026-04-25T10:03:09.001Z</time></trkpt><trkpt lat="46.03678549199385" lon="8.614926492697451"><ele>1295.1666666666667</ele><time>2026-04-25T10:03:10.001Z</time></trkpt><trkpt lat="46.036725957113745" lon="8.614863382914276"><ele>1292.0</ele><time>2026-04-25T10:03:11.001Z</time></trkpt><trkpt lat="46.03666556579807" lon="8.614804090810747"><ele>1293.4285714285716</ele><time>2026-04-25T10:03:12.001Z</time></trkpt><trkpt lat="46.0366041757497" lon="8.614755747685438"><ele>1294.857142857143</ele><time>2026-04-25T10:03:13.001Z</time></trkpt><trkpt lat="46.036537519588876" lon="8.61471224325277"><ele>1296.2857142857142</ele><time>2026-04-25T10:03:14.001Z</time></trkpt><trkpt lat="46.036461608949466" lon="8.61468560473874"><ele>1297.7142857142858</ele><time>2026-04-25T10:03:15.001Z</time></trkpt><trkpt lat="46.03639005399167" lon="8.614683481502746"><ele>1299.142857142857</ele><time>2026-04-25T10:03:16.001Z</time></trkpt><trkpt lat="46.03632374420662" lon="8.614655255122596"><ele>1300.5714285714287</ele><time>2026-04-25T10:03:17.001Z</time></trkpt><trkpt lat="46.0362569536229" lon="8.614640696902503"><ele>1302.0</ele><time>2026-04-25T10:03:18.001Z</time></trkpt><trkpt lat="46.036143084973126" lon="8.614607742488701"><ele>1302.0</ele><time>2026-04-25T10:03:20.001Z</time></trkpt><trkpt lat="46.03607151164355" lon="8.614603297890849"><ele>1302.0</ele><time>2026-04-25T10:03:21.001Z</time></trkpt><trkpt lat="46.035951327161165" lon="8.614579454686181"><ele>1302.0</ele><time>2026-04-25T10:03:23.001Z</time></trkpt><trkpt lat="46.03584863070661" lon="8.614586615247179"><ele>1302.0</ele><time>2026-04-25T10:03:25.001Z</time></trkpt><trkpt lat="46.03578743514047" lon="8.6146339388808"><ele>1302.0</ele><time>2026-04-25T10:03:26.001Z</time></trkpt><trkpt lat="46.03569198119929" lon="8.614605628298952"><ele>1304.1999999999998</ele><time>2026-04-25T10:03:28.001Z</time></trkpt><trkpt lat="46.035615796539886" lon="8.61459020329976"><ele>1306.4</ele><time>2026-04-25T10:03:30.001Z</time></trkpt><trkpt lat="46.035603537437666" lon="8.61447134897073"><ele>1308.6</ele><time>2026-04-25T10:03:33.001Z</time></trkpt><trkpt lat="46.03566967627049" lon="8.614319463111745"><ele>1310.8000000000002</ele><time>2026-04-25T10:03:35.001Z</time></trkpt><trkpt lat="46.035710905703155" lon="8.61417152912729"><ele>1313.0</ele><time>2026-04-25T10:03:37.001Z</time></trkpt><trkpt lat="46.03572944430745" lon="8.614078936235936"><ele>1313.0</ele><time>2026-04-25T10:03:38.001Z</time></trkpt><trkpt lat="46.035767585281974" lon="8.613885932163296"><ele>1313.0</ele><time>2026-04-25T10:03:40.001Z</time></trkpt><trkpt lat="46.035803138542974" lon="8.6138091647766"><ele>1313.0</ele><time>2026-04-25T10:03:41.001Z</time></trkpt><trkpt lat="46.0358235714127" lon="8.613640080478936"><ele>1313.0</ele><time>2026-04-25T10:03:43.001Z</time></trkpt><trkpt lat="46.03578838647035" lon="8.613545902007148"><ele>1313.0</ele><time>2026-04-25T10:03:45.001Z</time></trkpt><trkpt lat="46.035719924503084" lon="8.61354141032224"><ele>1312.6000000000001</ele><time>2026-04-25T10:03:46.001Z</time></trkpt><trkpt lat="46.035629313054436" lon="8.613545620258028"><ele>1312.2</ele><time>2026-04-25T10:03:47.001Z</time></trkpt><trkpt lat="46.03559436037606" lon="8.613419149447214"><ele>1311.8</ele><time>2026-04-25T10:03:50.001Z</time></trkpt><trkpt lat="46.03562512641514" lon="8.613305221120786"><ele>1311.4</ele><time>2026-04-25T10:03:52.001Z</time></trkpt><trkpt lat="46.035687825322896" lon="8.61315309675705"><ele>1311.0</ele><time>2026-04-25T10:03:54.001Z</time></trkpt><trkpt lat="46.03575615096791" lon="8.613009873978402"><ele>1300.75</ele><time>2026-04-25T10:03:56.001Z</time></trkpt><trkpt lat="46.03583444359623" lon="8.612935603309507"><ele>1290.5</ele><time>2026-04-25T10:03:57.001Z</time></trkpt><trkpt lat="46.03589613312184" lon="8.612792811268664"><ele>1280.25</ele><time>2026-04-25T10:03:59.001Z</time></trkpt><trkpt lat="46.03595820159521" lon="8.612640929942149"><ele>1270.0</ele><time>2026-04-25T10:04:01.001Z</time></trkpt><trkpt lat="46.036039306035825" lon="8.612496354546678"><ele>1270.0</ele><time>2026-04-25T10:04:03.001Z</time></trkpt><trkpt lat="46.03609868440872" lon="8.612437467580511"><ele>1270.0</ele><time>2026-04-25T10:04:04.001Z</time></trkpt><trkpt lat="46.03614402062017" lon="8.612374091018433"><ele>1270.0</ele><time>2026-04-25T10:04:05.001Z</time></trkpt><trkpt lat="46.03622449360534" lon="8.612196777328041"><ele>1270.0</ele><time>2026-04-25T10:04:07.001Z</time></trkpt><trkpt lat="46.03627912638752" lon="8.61211827827087"><ele>1270.0</ele><time>2026-04-25T10:04:08.001Z</time></trkpt><trkpt lat="46.03630930754472" lon="8.612027068907192"><ele>1270.0</ele><time>2026-04-25T10:04:09.001Z</time></trkpt><trkpt lat="46.03635391540846" lon="8.611931177071101"><ele>1272.2857142857142</ele><time>2026-04-25T10:04:10.001Z</time></trkpt><trkpt lat="46.03639386305439" lon="8.611848200943415"><ele>1274.5714285714284</ele><time>2026-04-25T10:04:11.001Z</time></trkpt><trkpt lat="46.03637867242852" lon="8.611736421748377"><ele>1276.8571428571427</ele><time>2026-04-25T10:04:12.001Z</time></trkpt><trkpt lat="46.03637575564913" lon="8.611637256997216"><ele>1279.142857142857</ele><time>2026-04-25T10:04:13.001Z</time></trkpt><trkpt lat="46.03637121012511" lon="8.611532759135484"><ele>1281.4285714285716</ele><time>2026-04-25T10:04:14.001Z</time></trkpt><trkpt lat="46.03636958767991" lon="8.611424871910598"><ele>1283.7142857142856</ele><time>2026-04-25T10:04:15.001Z</time></trkpt><trkpt lat="46.036362761174935" lon="8.61132989444823"><ele>1286.0</ele><time>2026-04-25T10:04:16.001Z</time></trkpt><trkpt lat="46.03632227395343" lon="8.6111232441447"><ele>1286.8333333333335</ele><time>2026-04-25T10:04:18.001Z</time></trkpt><trkpt lat="46.03632446514158" lon="8.61101822608822"><ele>1287.6666666666667</ele><time>2026-04-25T10:04:19.001Z</time></trkpt><trkpt lat="46.036355234628864" lon="8.61090681010968"><ele>1288.5</ele><time>2026-04-25T10:04:20.001Z</time></trkpt><trkpt lat="46.03637675035232" lon="8.610792184421813"><ele>1289.3333333333333</ele><time>2026-04-25T10:04:21.001Z</time></trkpt><trkpt lat="46.03640235862185" lon="8.610618847122051"><ele>1290.1666666666665</ele><time>2026-04-25T10:04:23.001Z</time></trkpt><trkpt lat="46.03642280578605" lon="8.610531621420943"><ele>1291.0</ele><time>2026-04-25T10:04:24.001Z</time></trkpt><trkpt lat="46.03644132024153" lon="8.610442260147352"><ele>1290.0</ele><time>2026-04-25T10:04:25.001Z</time></trkpt><trkpt lat="46.036449145398876" lon="8.610253190025452"><ele>1289.0</ele><time>2026-04-25T10:04:27.001Z</time></trkpt><trkpt lat="46.03643837757639" lon="8.610099314257484"><ele>1288.0</ele><time>2026-04-25T10:04:29.001Z</time></trkpt><trkpt lat="46.03648558118142" lon="8.609938684773187"><ele>1287.0</ele><time>2026-04-25T10:04:31.001Z</time></trkpt><trkpt lat="46.036533373629645" lon="8.609858575983177"><ele>1286.0</ele><time>2026-04-25T10:04:32.001Z</time></trkpt><trkpt lat="46.03653210620693" lon="8.60970141193871"><ele>1286.0</ele><time>2026-04-25T10:04:33.001Z</time></trkpt><trkpt lat="46.036558485071644" lon="8.609597502838412"><ele>1286.0</ele><time>2026-04-25T10:04:34.001Z</time></trkpt><trkpt lat="46.03661826811042" lon="8.6094522137286"><ele>1286.0</ele><time>2026-04-25T10:04:36.001Z</time></trkpt><trkpt lat="46.03664987470322" lon="8.6093227670452"><ele>1286.0</ele><time>2026-04-25T10:04:37.001Z</time></trkpt><trkpt lat="46.0366732730161" lon="8.609220010278989"><ele>1286.0</ele><time>2026-04-25T10:04:38.001Z</time></trkpt><trkpt lat="46.03669415280156" lon="8.609107037918418"><ele>1286.0</ele><time>2026-04-25T10:04:39.001Z</time></trkpt><trkpt lat="46.036712617748044" lon="8.609011107395455"><ele>1278.0</ele><time>2026-04-25T10:04:40.001Z</time></trkpt><trkpt lat="46.036734347956326" lon="8.608915977774211"><ele>1270.0</ele><time>2026-04-25T10:04:41.001Z</time></trkpt><trkpt lat="46.03674095462777" lon="8.608807369122863"><ele>1262.0</ele><time>2026-04-25T10:04:42.001Z</time></trkpt><trkpt lat="46.036750096886095" lon="8.608709407765083"><ele>1254.0</ele><time>2026-04-25T10:04:43.001Z</time></trkpt><trkpt lat="46.03676099112759" lon="8.60858461928938"><ele>1246.0</ele><time>2026-04-25T10:04:44.001Z</time></trkpt><trkpt lat="46.036773690349655" lon="8.60848132656355"><ele>1238.0</ele><time>2026-04-25T10:04:45.001Z</time></trkpt><trkpt lat="46.036757011714215" lon="8.60832625642268"><ele>1238.0</ele><time>2026-04-25T10:04:46.001Z</time></trkpt><trkpt lat="46.036764200359045" lon="8.608198807529597"><ele>1238.0</ele><time>2026-04-25T10:04:47.001Z</time></trkpt><trkpt lat="46.0367907865195" lon="8.608086821100072"><ele>1238.0</ele><time>2026-04-25T10:04:48.001Z</time></trkpt><trkpt lat="46.03680757866814" lon="8.607938970368249"><ele>1238.0</ele><time>2026-04-25T10:04:49.001Z</time></trkpt><trkpt lat="46.03682270220035" lon="8.607778160368225"><ele>1238.0</ele><time>2026-04-25T10:04:50.001Z</time></trkpt><trkpt lat="46.036821599672194" lon="8.607636290779546"><ele>1238.3333333333335</ele><time>2026-04-25T10:04:51.001Z</time></trkpt><trkpt lat="46.03681325606952" lon="8.607540428604608"><ele>1238.6666666666667</ele><time>2026-04-25T10:04:52.001Z</time></trkpt><trkpt lat="46.036820655159936" lon="8.60743876354603"><ele>1239.0</ele><time>2026-04-25T10:04:53.001Z</time></trkpt><trkpt lat="46.036824705933704" lon="8.607334463037828"><ele>1239.3333333333333</ele><time>2026-04-25T10:04:54.001Z</time></trkpt><trkpt lat="46.036785845845905" lon="8.607203954528934"><ele>1239.6666666666665</ele><time>2026-04-25T10:04:55.001Z</time></trkpt><trkpt lat="46.03670218907971" lon="8.607077190454724"><ele>1240.0</ele><time>2026-04-25T10:04:56.001Z</time></trkpt><trkpt lat="46.036664192213436" lon="8.606953185905242"><ele>1243.8</ele><time>2026-04-25T10:04:57.001Z</time></trkpt><trkpt lat="46.036632257073656" lon="8.60683864001794"><ele>1247.6</ele><time>2026-04-25T10:04:58.001Z</time></trkpt><trkpt lat="46.03657919512314" lon="8.606732607966634"><ele>1251.4</ele><time>2026-04-25T10:04:59.001Z</time></trkpt><trkpt lat="46.03649420532401" lon="8.606619875871255"><ele>1255.2</ele><time>2026-04-25T10:05:00.001Z</time></trkpt><trkpt lat="46.036437426796915" lon="8.606531752501164"><ele>1259.0</ele><time>2026-04-25T10:05:01.001Z</time></trkpt><trkpt lat="46.03630453241124" lon="8.6064803971862"><ele>1259.0</ele><time>2026-04-25T10:05:03.001Z</time></trkpt><trkpt lat="46.036235530663085" lon="8.60644703978265"><ele>1259.0</ele><time>2026-04-25T10:05:04.001Z</time></trkpt><trkpt lat="46.036139182141525" lon="8.606422040428168"><ele>1259.0</ele><time>2026-04-25T10:05:05.001Z</time></trkpt><trkpt lat="46.03604145210865" lon="8.606427312418791"><ele>1259.0</ele><time>2026-04-25T10:05:06.001Z</time></trkpt><trkpt lat="46.03591798511583" lon="8.606446597621845"><ele>1259.0</ele><time>2026-04-25T10:05:07.001Z</time></trkpt><trkpt lat="46.0357909685518" lon="8.606450083749541"><ele>1260.5</ele><time>2026-04-25T10:05:08.001Z</time></trkpt><trkpt lat="46.035711837911855" lon="8.606436153746214"><ele>1262.0</ele><time>2026-04-25T10:05:09.001Z</time></trkpt><trkpt lat="46.03563566973909" lon="8.606372761275116"><ele>1263.5</ele><time>2026-04-25T10:05:10.001Z</time></trkpt><trkpt lat="46.03554946777438" lon="8.606350897391327"><ele>1265.0</ele><time>2026-04-25T10:05:11.001Z</time></trkpt><trkpt lat="46.03547299090856" lon="8.606341085058544"><ele>1266.5</ele><time>2026-04-25T10:05:12.001Z</time></trkpt><trkpt lat="46.03538381954217" lon="8.606351071998361"><ele>1268.0</ele><time>2026-04-25T10:05:14.001Z</time></trkpt><trkpt lat="46.03531610267015" lon="8.606390957091845"><ele>1235.0</ele><time>2026-04-25T10:05:17.001Z</time></trkpt><trkpt lat="46.03381480841275" lon="8.607302134987671"><ele>1235.0</ele><time>2026-04-25T10:13:25Z</time></trkpt><trkpt lat="46.03379406763385" lon="8.607445853350262"><ele>1235.0</ele><time>2026-04-25T10:13:27Z</time></trkpt><trkpt lat="46.03376684344925" lon="8.607621518721658"><ele>1235.0</ele><time>2026-04-25T10:13:29Z</time></trkpt><trkpt lat="46.0337546406915" lon="8.60779175357964"><ele>1235.0</ele><time>2026-04-25T10:13:31Z</time></trkpt><trkpt lat="46.03374933202775" lon="8.607968824397423"><ele>1236.142857142857</ele><time>2026-04-25T10:13:33Z</time></trkpt><trkpt lat="46.0337512523732" lon="8.608060500099981"><ele>1237.2857142857142</ele><time>2026-04-25T10:13:34Z</time></trkpt><trkpt lat="46.033748153907574" lon="8.608160640583336"><ele>1238.4285714285716</ele><time>2026-04-25T10:13:35Z</time></trkpt><trkpt lat="46.03374052319855" lon="8.608255057811922"><ele>1239.5714285714284</ele><time>2026-04-25T10:13:36Z</time></trkpt><trkpt lat="46.033733710384304" lon="8.608347672248097"><ele>1240.7142857142858</ele><time>2026-04-25T10:13:37Z</time></trkpt><trkpt lat="46.03372717339165" lon="8.60845467386647"><ele>1241.857142857143</ele><time>2026-04-25T10:13:38Z</time></trkpt><trkpt lat="46.033721524532076" lon="8.608566657927826"><ele>1243.0</ele><time>2026-04-25T10:13:39Z</time></trkpt><trkpt lat="46.03371872015096" lon="8.608665778963761"><ele>1244.6</ele><time>2026-04-25T10:13:40Z</time></trkpt><trkpt lat="46.03371490775636" lon="8.60877328314809"><ele>1246.1999999999998</ele><time>2026-04-25T10:13:41Z</time></trkpt><trkpt lat="46.033703314758334" lon="8.608955544614217"><ele>1247.8</ele><time>2026-04-25T10:13:43Z</time></trkpt><trkpt lat="46.03369025747181" lon="8.609052048145692"><ele>1249.3999999999999</ele><time>2026-04-25T10:13:44Z</time></trkpt><trkpt lat="46.03367768414181" lon="8.609143847553133"><ele>1251.0</ele><time>2026-04-25T10:13:45Z</time></trkpt><trkpt lat="46.03360531860155" lon="8.609297485946264"><ele>1251.0</ele><time>2026-04-25T10:13:47Z</time></trkpt><trkpt lat="46.0335826190716" lon="8.60939034215888"><ele>1251.0</ele><time>2026-04-25T10:13:48Z</time></trkpt><trkpt lat="46.03356481177433" lon="8.609487469955834"><ele>1251.0</ele><time>2026-04-25T10:13:49Z</time></trkpt><trkpt lat="46.0335444897878" lon="8.609597468508271"><ele>1251.0</ele><time>2026-04-25T10:13:50Z</time></trkpt><trkpt lat="46.03353477459433" lon="8.609696748431094"><ele>1251.0</ele><time>2026-04-25T10:13:51Z</time></trkpt><trkpt lat="46.033512903086915" lon="8.609795891357656"><ele>1251.0</ele><time>2026-04-25T10:13:52Z</time></trkpt><trkpt lat="46.0334869865979" lon="8.609894472072583"><ele>1251.0</ele><time>2026-04-25T10:13:53Z</time></trkpt><trkpt lat="46.033468767757334" lon="8.6099977688126"><ele>1253.1666666666667</ele><time>2026-04-25T10:13:54Z</time></trkpt><trkpt lat="46.03344082312449" lon="8.61008576555618"><ele>1255.3333333333333</ele><time>2026-04-25T10:13:55Z</time></trkpt><trkpt lat="46.03340910619637" lon="8.610186906657471"><ele>1257.5</ele><time>2026-04-25T10:13:56Z</time></trkpt><trkpt lat="46.03337687225104" lon="8.610280304375928"><ele>1259.6666666666665</ele><time>2026-04-25T10:13:57Z</time></trkpt><trkpt lat="46.03334821286559" lon="8.610366329664162"><ele>1261.8333333333333</ele><time>2026-04-25T10:13:58Z</time></trkpt><trkpt lat="46.03332183277754" lon="8.610532609271786"><ele>1264.0</ele><time>2026-04-25T10:14:00Z</time></trkpt><trkpt lat="46.03328629569516" lon="8.610674510555857"><ele>1264.0</ele><time>2026-04-25T10:14:02Z</time></trkpt><trkpt lat="46.033216797333935" lon="8.610814768110151"><ele>1264.0</ele><time>2026-04-25T10:14:04Z</time></trkpt><trkpt lat="46.03315830713854" lon="8.61086085816003"><ele>1264.0</ele><time>2026-04-25T10:14:05Z</time></trkpt><trkpt lat="46.03309396449251" lon="8.610888779330708"><ele>1264.0</ele><time>2026-04-25T10:14:06Z</time></trkpt><trkpt lat="46.0330281606955" lon="8.610898235458535"><ele>1264.0</ele><time>2026-04-25T10:14:07Z</time></trkpt><trkpt lat="46.03296074571748" lon="8.61092037206538"><ele>1264.0</ele><time>2026-04-25T10:14:08Z</time></trkpt><trkpt lat="46.032898763938164" lon="8.610936625271963"><ele>1264.0</ele><time>2026-04-25T10:14:09Z</time></trkpt><trkpt lat="46.03283561927457" lon="8.610983884195065"><ele>1264.0</ele><time>2026-04-25T10:14:10Z</time></trkpt><trkpt lat="46.03277520938297" lon="8.611030718376501"><ele>1264.0</ele><time>2026-04-25T10:14:11Z</time></trkpt><trkpt lat="46.03269695239666" lon="8.611141011751817"><ele>1264.0</ele><time>2026-04-25T10:14:13Z</time></trkpt><trkpt lat="46.032624496332836" lon="8.61124268725768"><ele>1264.0</ele><time>2026-04-25T10:14:15Z</time></trkpt><trkpt lat="46.03254927966364" lon="8.611365644644314"><ele>1273.8000000000002</ele><time>2026-04-25T10:14:17Z</time></trkpt><trkpt lat="46.032441836640594" lon="8.611408717464403"><ele>1283.6000000000001</ele><time>2026-04-25T10:14:19Z</time></trkpt><trkpt lat="46.032331119927804" lon="8.611388504456599"><ele>1293.4</ele><time>2026-04-25T10:14:21Z</time></trkpt><trkpt lat="46.03222272498085" lon="8.611397274996634"><ele>1303.2</ele><time>2026-04-25T10:14:23Z</time></trkpt><trkpt lat="46.03215767769447" lon="8.611426075065141"><ele>1313.0</ele><time>2026-04-25T10:14:24Z</time></trkpt><trkpt lat="46.03208369143639" lon="8.611456291135307"><ele>1313.0</ele><time>2026-04-25T10:14:25Z</time></trkpt><trkpt lat="46.032019534232944" lon="8.611467017335299"><ele>1313.0</ele><time>2026-04-25T10:14:26Z</time></trkpt><trkpt lat="46.031908684979356" lon="8.61137517209553"><ele>1313.0</ele><time>2026-04-25T10:14:27.999Z</time></trkpt><trkpt lat="46.03186613330757" lon="8.611295065463432"><ele>1313.0</ele><time>2026-04-25T10:14:28.999Z</time></trkpt><trkpt lat="46.03183133808062" lon="8.61119604749615"><ele>1313.0</ele><time>2026-04-25T10:14:29.999Z</time></trkpt><trkpt lat="46.031818192969766" lon="8.611062756243898"><ele>1313.0</ele><time>2026-04-25T10:14:30.999Z</time></trkpt><trkpt lat="46.03181189042175" lon="8.61091154783239"><ele>1309.1666666666667</ele><time>2026-04-25T10:14:31.999Z</time></trkpt><trkpt lat="46.03180728485014" lon="8.610796088856366"><ele>1305.3333333333335</ele><time>2026-04-25T10:14:32.999Z</time></trkpt><trkpt lat="46.031797851070124" lon="8.610686744104886"><ele>1301.5</ele><time>2026-04-25T10:14:33.999Z</time></trkpt><trkpt lat="46.03176164324005" lon="8.610577105306549"><ele>1297.6666666666667</ele><time>2026-04-25T10:14:34.999Z</time></trkpt><trkpt lat="46.03169851733785" lon="8.610426483033132"><ele>1293.8333333333333</ele><time>2026-04-25T10:14:36.999Z</time></trkpt><trkpt lat="46.03164144815602" lon="8.610337404521914"><ele>1290.0</ele><time>2026-04-25T10:14:37.999Z</time></trkpt><trkpt lat="46.03159965695701" lon="8.610234408181862"><ele>1290.0</ele><time>2026-04-25T10:14:38.999Z</time></trkpt><trkpt lat="46.03158262360101" lon="8.610120786786878"><ele>1290.0</ele><time>2026-04-25T10:14:39.999Z</time></trkpt><trkpt lat="46.031481237315866" lon="8.610007014340258"><ele>1290.0</ele><time>2026-04-25T10:14:42Z</time></trkpt><trkpt lat="46.031390781108755" lon="8.60996918351658"><ele>1290.0</ele><time>2026-04-25T10:14:43Z</time></trkpt><trkpt lat="46.03132132969373" lon="8.609929273238508"><ele>1290.0</ele><time>2026-04-25T10:14:44Z</time></trkpt><trkpt lat="46.03125959249137" lon="8.609879345387707"><ele>1290.0</ele><time>2026-04-25T10:14:45Z</time></trkpt><trkpt lat="46.03118867247795" lon="8.609828249105663"><ele>1290.0</ele><time>2026-04-25T10:14:46Z</time></trkpt><trkpt lat="46.03112598121713" lon="8.60977673037001"><ele>1290.0</ele><time>2026-04-25T10:14:47Z</time></trkpt><trkpt lat="46.03105082648392" lon="8.609758685810547"><ele>1290.0</ele><time>2026-04-25T10:14:48Z</time></trkpt><trkpt lat="46.030983996942226" lon="8.609747631114045"><ele>1290.0</ele><time>2026-04-25T10:14:49Z</time></trkpt><trkpt lat="46.03090563918331" lon="8.60975054305273"><ele>1290.0</ele><time>2026-04-25T10:14:50Z</time></trkpt><trkpt lat="46.0308357703732" lon="8.609752069608687"><ele>1290.0</ele><time>2026-04-25T10:14:51Z</time></trkpt><trkpt lat="46.03069498118391" lon="8.609766844535736"><ele>1293.3333333333333</ele><time>2026-04-25T10:14:53Z</time></trkpt><trkpt lat="46.030618487288386" lon="8.60976179669754"><ele>1296.6666666666667</ele><time>2026-04-25T10:14:54Z</time></trkpt><trkpt lat="46.03054995380605" lon="8.609758498281826"><ele>1300.0</ele><time>2026-04-25T10:14:55Z</time></trkpt><trkpt lat="46.030477647904576" lon="8.609753571706516"><ele>1303.3333333333335</ele><time>2026-04-25T10:14:56Z</time></trkpt><trkpt lat="46.03041273715859" lon="8.609737175727675"><ele>1306.6666666666667</ele><time>2026-04-25T10:14:57Z</time></trkpt><trkpt lat="46.03033851253079" lon="8.609710688239359"><ele>1310.0</ele><time>2026-04-25T10:14:58Z</time></trkpt><trkpt lat="46.03021489837007" lon="8.609660627758139"><ele>1310.0</ele><time>2026-04-25T10:15:00Z</time></trkpt><trkpt lat="46.03009896311794" lon="8.609561532427232"><ele>1310.0</ele><time>2026-04-25T10:15:02Z</time></trkpt><trkpt lat="46.03003630283704" lon="8.60954229030153"><ele>1310.0</ele><time>2026-04-25T10:15:03Z</time></trkpt><trkpt lat="46.029966662395466" lon="8.609529474039931"><ele>1310.0</ele><time>2026-04-25T10:15:04Z</time></trkpt><trkpt lat="46.029847761966984" lon="8.609529839129884"><ele>1310.0</ele><time>2026-04-25T10:15:06Z</time></trkpt><trkpt lat="46.02971518956647" lon="8.609571592812664"><ele>1308.8</ele><time>2026-04-25T10:15:08Z</time></trkpt><trkpt lat="46.029618046458516" lon="8.609637033478945"><ele>1307.6</ele><time>2026-04-25T10:15:10Z</time></trkpt><trkpt lat="46.029504902622065" lon="8.609677700273052"><ele>1306.4</ele><time>2026-04-25T10:15:12Z</time></trkpt><trkpt lat="46.02937261285533" lon="8.609717595708334"><ele>1305.2</ele><time>2026-04-25T10:15:14Z</time></trkpt><trkpt lat="46.02930343715533" lon="8.60975188966268"><ele>1304.0</ele><time>2026-04-25T10:15:15Z</time></trkpt><trkpt lat="46.02922746338172" lon="8.609794741947708"><ele>1304.0</ele><time>2026-04-25T10:15:16Z</time></trkpt><trkpt lat="46.0291592684609" lon="8.609841827415302"><ele>1304.0</ele><time>2026-04-25T10:15:17Z</time></trkpt><trkpt lat="46.0290755116788" lon="8.609859165259124"><ele>1304.0</ele><time>2026-04-25T10:15:18Z</time></trkpt><trkpt lat="46.02896311887382" lon="8.609842779727623"><ele>1304.0</ele><time>2026-04-25T10:15:20Z</time></trkpt><trkpt lat="46.02889147904819" lon="8.609768501968068"><ele>1304.0</ele><time>2026-04-25T10:15:22Z</time></trkpt><trkpt lat="46.02881350008946" lon="8.609578983052312"><ele>1306.6</ele><time>2026-04-25T10:15:24Z</time></trkpt><trkpt lat="46.028740390712834" lon="8.609494749948249"><ele>1309.2</ele><time>2026-04-25T10:15:26Z</time></trkpt><trkpt lat="46.02863756206096" lon="8.60944021131433"><ele>1311.8</ele><time>2026-04-25T10:15:28Z</time></trkpt><trkpt lat="46.02853105604451" lon="8.609404187904552"><ele>1314.3999999999999</ele><time>2026-04-25T10:15:30Z</time></trkpt><trkpt lat="46.028418273292324" lon="8.609353751593044"><ele>1317.0</ele><time>2026-04-25T10:15:32Z</time></trkpt><trkpt lat="46.02832819510573" lon="8.609340549436777"><ele>1314.8333333333333</ele><time>2026-04-25T10:15:33Z</time></trkpt><trkpt lat="46.02824042825632" lon="8.609313943422348"><ele>1312.6666666666667</ele><time>2026-04-25T10:15:34Z</time></trkpt><trkpt lat="46.0281549182485" lon="8.609297276971446"><ele>1310.5</ele><time>2026-04-25T10:15:35Z</time></trkpt><trkpt lat="46.02807808090482" lon="8.609294362256852"><ele>1308.3333333333335</ele><time>2026-04-25T10:15:36Z</time></trkpt><trkpt lat="46.02800362535887" lon="8.609261852708892"><ele>1306.1666666666667</ele><time>2026-04-25T10:15:37Z</time></trkpt><trkpt lat="46.027916268422594" lon="8.609232942790937"><ele>1304.0</ele><time>2026-04-25T10:15:38Z</time></trkpt><trkpt lat="46.027851149975625" lon="8.609180243131012"><ele>1304.0</ele><time>2026-04-25T10:15:39Z</time></trkpt><trkpt lat="46.02775919517075" lon="8.609105710154692"><ele>1304.0</ele><time>2026-04-25T10:15:40Z</time></trkpt><trkpt lat="46.027684339728104" lon="8.609020350726297"><ele>1304.0</ele><time>2026-04-25T10:15:41Z</time></trkpt><trkpt lat="46.02761111001688" lon="8.608942375235902"><ele>1304.0</ele><time>2026-04-25T10:15:42Z</time></trkpt><trkpt lat="46.02753710996952" lon="8.608874872111738"><ele>1304.0</ele><time>2026-04-25T10:15:43Z</time></trkpt><trkpt lat="46.02747863904417" lon="8.608821392717708"><ele>1304.0</ele><time>2026-04-25T10:15:44Z</time></trkpt><trkpt lat="46.02740980114111" lon="8.608762414407936"><ele>1305.3333333333335</ele><time>2026-04-25T10:15:45Z</time></trkpt><trkpt lat="46.02734177049351" lon="8.608678492206268"><ele>1306.6666666666667</ele><time>2026-04-25T10:15:46Z</time></trkpt><trkpt lat="46.02727733590594" lon="8.60860669761435"><ele>1308.0</ele><time>2026-04-25T10:15:47Z</time></trkpt><trkpt lat="46.02720608997734" lon="8.6085338991051"><ele>1309.3333333333333</ele><time>2026-04-25T10:15:48Z</time></trkpt><trkpt lat="46.02714151623851" lon="8.608472648627345"><ele>1310.6666666666665</ele><time>2026-04-25T10:15:49Z</time></trkpt><trkpt lat="46.02708432912632" lon="8.608386458756774"><ele>1312.0</ele><time>2026-04-25T10:15:50Z</time></trkpt><trkpt lat="46.02702833342991" lon="8.608302953206726"><ele>1312.0</ele><time>2026-04-25T10:15:51Z</time></trkpt><trkpt lat="46.02699816147818" lon="8.608205414122907"><ele>1312.0</ele><time>2026-04-25T10:15:52Z</time></trkpt><trkpt lat="46.02695910579541" lon="8.608088186212633"><ele>1312.0</ele><time>2026-04-25T10:15:53Z</time></trkpt><trkpt lat="46.026974804841" lon="8.60793982120512"><ele>1312.0</ele><time>2026-04-25T10:15:54Z</time></trkpt><trkpt lat="46.02698310041244" lon="8.607836544444513"><ele>1312.0</ele><time>2026-04-25T10:15:55Z</time></trkpt><trkpt lat="46.026982241100576" lon="8.607697718271073"><ele>1312.0</ele><time>2026-04-25T10:15:56Z</time></trkpt><trkpt lat="46.02700545154098" lon="8.607574575155523"><ele>1312.0</ele><time>2026-04-25T10:15:57Z</time></trkpt><trkpt lat="46.02704549885146" lon="8.607449498892512"><ele>1312.0</ele><time>2026-04-25T10:15:58Z</time></trkpt><trkpt lat="46.02705528757395" lon="8.607316929082991"><ele>1312.0</ele><time>2026-04-25T10:15:59Z</time></trkpt><trkpt lat="46.02706919881245" lon="8.607196427398417"><ele>1312.0</ele><time>2026-04-25T10:16:00Z</time></trkpt><trkpt lat="46.02708351605695" lon="8.607072878083063"><ele>1312.0</ele><time>2026-04-25T10:16:01Z</time></trkpt><trkpt lat="46.027100439380995" lon="8.60694466399424"><ele>1311.3333333333333</ele><time>2026-04-25T10:16:01.999Z</time></trkpt><trkpt lat="46.02712429604005" lon="8.606791585510544"><ele>1310.6666666666665</ele><time>2026-04-25T10:16:02.999Z</time></trkpt><trkpt lat="46.027153597023016" lon="8.606651642265724"><ele>1310.0</ele><time>2026-04-25T10:16:03.999Z</time></trkpt><trkpt lat="46.02713980045911" lon="8.606549642382884"><ele>1309.3333333333333</ele><time>2026-04-25T10:16:04.999Z</time></trkpt><trkpt lat="46.02715041855348" lon="8.606444840313875"><ele>1308.6666666666667</ele><time>2026-04-25T10:16:05.999Z</time></trkpt><trkpt lat="46.02711330761544" lon="8.606322350112437"><ele>1308.0</ele><time>2026-04-25T10:16:06.999Z</time></trkpt><trkpt lat="46.02708819764738" lon="8.606207850816254"><ele>1305.0</ele><time>2026-04-25T10:16:07.999Z</time></trkpt><trkpt lat="46.027019011144326" lon="8.606090369439002"><ele>1302.0</ele><time>2026-04-25T10:16:08.999Z</time></trkpt><trkpt lat="46.026951471065175" lon="8.606004237584738"><ele>1299.0</ele><time>2026-04-25T10:16:09.999Z</time></trkpt><trkpt lat="46.02689288555657" lon="8.605937911916785"><ele>1296.0</ele><time>2026-04-25T10:16:10.999Z</time></trkpt><trkpt lat="46.02679858933796" lon="8.605858943167979"><ele>1293.0</ele><time>2026-04-25T10:16:11.999Z</time></trkpt><trkpt lat="46.02673184331489" lon="8.60578051318209"><ele>1293.0</ele><time>2026-04-25T10:16:12.999Z</time></trkpt><trkpt lat="46.02667341861501" lon="8.605728649399339"><ele>1293.0</ele><time>2026-04-25T10:16:13.999Z</time></trkpt><trkpt lat="46.02660587061948" lon="8.605665278834573"><ele>1293.0</ele><time>2026-04-25T10:16:14.999Z</time></trkpt><trkpt lat="46.02653974261452" lon="8.605602989943975"><ele>1293.0</ele><time>2026-04-25T10:16:15.999Z</time></trkpt><trkpt lat="46.026495708667355" lon="8.605534299067774"><ele>1293.0</ele><time>2026-04-25T10:16:16.999Z</time></trkpt><trkpt lat="46.026439149108825" lon="8.605465747248601"><ele>1293.0</ele><time>2026-04-25T10:16:17.999Z</time></trkpt><trkpt lat="46.026433098787955" lon="8.605332569193246"><ele>1298.6666666666667</ele><time>2026-04-25T10:16:18.999Z</time></trkpt><trkpt lat="46.02639223382178" lon="8.60518884130141"><ele>1304.3333333333333</ele><time>2026-04-25T10:16:19.999Z</time></trkpt><trkpt lat="46.026360135740134" lon="8.605070272490762"><ele>1310.0</ele><time>2026-04-25T10:16:20.999Z</time></trkpt><trkpt lat="46.026333070231" lon="8.604958069732552"><ele>1315.6666666666665</ele><time>2026-04-25T10:16:21.999Z</time></trkpt><trkpt lat="46.0263258477207" lon="8.604837158290373"><ele>1321.3333333333333</ele><time>2026-04-25T10:16:22.999Z</time></trkpt><trkpt lat="46.026330431286986" lon="8.604713172016387"><ele>1327.0</ele><time>2026-04-25T10:16:23.999Z</time></trkpt><trkpt lat="46.02632367077617" lon="8.604604670252678"><ele>1325.1999999999998</ele><time>2026-04-25T10:16:24.999Z</time></trkpt><trkpt lat="46.02635257196662" lon="8.604475581281225"><ele>1323.4</ele><time>2026-04-25T10:16:25.999Z</time></trkpt><trkpt lat="46.02635400678421" lon="8.604285209500908"><ele>1321.6</ele><time>2026-04-25T10:16:27.999Z</time></trkpt><trkpt lat="46.02636414497267" lon="8.604151215852077"><ele>1319.8000000000002</ele><time>2026-04-25T10:16:28.999Z</time></trkpt><trkpt lat="46.026338120102245" lon="8.6040362976939"><ele>1318.0</ele><time>2026-04-25T10:16:29.999Z</time></trkpt><trkpt lat="46.02631933530306" lon="8.603905525575808"><ele>1318.0</ele><time>2026-04-25T10:16:30.999Z</time></trkpt><trkpt lat="46.02624336771539" lon="8.603766960054374"><ele>1318.0</ele><time>2026-04-25T10:16:31.999Z</time></trkpt><trkpt lat="46.02620383520096" lon="8.603670526624416"><ele>1318.0</ele><time>2026-04-25T10:16:32.999Z</time></trkpt><trkpt lat="46.02615999405674" lon="8.60359478737155"><ele>1318.0</ele><time>2026-04-25T10:16:33.999Z</time></trkpt><trkpt lat="46.026108235725104" lon="8.603485921348838"><ele>1318.0</ele><time>2026-04-25T10:16:34.999Z</time></trkpt><trkpt lat="46.02603356691564" lon="8.603383747424107"><ele>1319.5</ele><time>2026-04-25T10:16:35.999Z</time></trkpt><trkpt lat="46.02598280663741" lon="8.60329731233117"><ele>1321.0</ele><time>2026-04-25T10:16:36.999Z</time></trkpt><trkpt lat="46.0259258129657" lon="8.60321520222077"><ele>1322.5</ele><time>2026-04-25T10:16:37.999Z</time></trkpt><trkpt lat="46.025846987782536" lon="8.603151115003818"><ele>1324.0</ele><time>2026-04-25T10:16:38.999Z</time></trkpt><trkpt lat="46.025782679664864" lon="8.60306471729722"><ele>1325.5</ele><time>2026-04-25T10:16:39.999Z</time></trkpt><trkpt lat="46.02571382361162" lon="8.602988494694317"><ele>1327.0</ele><time>2026-04-25T10:16:40.999Z</time></trkpt><trkpt lat="46.025642503185175" lon="8.602904889111203"><ele>1322.8</ele><time>2026-04-25T10:16:41.999Z</time></trkpt><trkpt lat="46.0255710788025" lon="8.602826806494816"><ele>1318.6</ele><time>2026-04-25T10:16:42.999Z</time></trkpt><trkpt lat="46.02545554998707" lon="8.60274257690994"><ele>1314.3999999999999</ele><time>2026-04-25T10:16:43.999Z</time></trkpt><trkpt lat="46.02539480884148" lon="8.602621301323106"><ele>1310.1999999999998</ele><time>2026-04-25T10:16:44.999Z</time></trkpt><trkpt lat="46.02530150554782" lon="8.602507448229883"><ele>1306.0</ele><time>2026-04-25T10:16:45.999Z</time></trkpt><trkpt lat="46.025233839177716" lon="8.602355039576787"><ele>1306.0</ele><time>2026-04-25T10:16:47Z</time></trkpt><trkpt lat="46.025145071783555" lon="8.602234101558162"><ele>1306.0</ele><time>2026-04-25T10:16:48Z</time></trkpt><trkpt lat="46.0250322883185" lon="8.602118899701532"><ele>1306.0</ele><time>2026-04-25T10:16:49Z</time></trkpt><trkpt lat="46.02490250463443" lon="8.602004798708688"><ele>1306.0</ele><time>2026-04-25T10:16:50Z</time></trkpt><trkpt lat="46.02480250817576" lon="8.601904662569769"><ele>1305.1999999999998</ele><time>2026-04-25T10:16:51Z</time></trkpt><trkpt lat="46.02469717036362" lon="8.601823204420203"><ele>1304.3999999999999</ele><time>2026-04-25T10:16:52Z</time></trkpt><trkpt lat="46.02461135731191" lon="8.601730854934981"><ele>1303.6</ele><time>2026-04-25T10:16:53Z</time></trkpt><trkpt lat="46.024525491696316" lon="8.601638763094224"><ele>1302.8</ele><time>2026-04-25T10:16:54Z</time></trkpt><trkpt lat="46.02443754478136" lon="8.601544754824959"><ele>1302.0</ele><time>2026-04-25T10:16:55Z</time></trkpt><trkpt lat="46.02436083049419" lon="8.60145213105279"><ele>1302.0</ele><time>2026-04-25T10:16:56Z</time></trkpt><trkpt lat="46.02428946910575" lon="8.601374727042774"><ele>1302.0</ele><time>2026-04-25T10:16:57Z</time></trkpt><trkpt lat="46.024229174133964" lon="8.601302711842418"><ele>1302.0</ele><time>2026-04-25T10:16:58Z</time></trkpt><trkpt lat="46.02416922705641" lon="8.601220797981817"><ele>1302.0</ele><time>2026-04-25T10:16:59Z</time></trkpt><trkpt lat="46.02409641327906" lon="8.601133238464646"><ele>1302.0</ele><time>2026-04-25T10:17:00Z</time></trkpt><trkpt lat="46.024044659472615" lon="8.601064377363226"><ele>1302.0</ele><time>2026-04-25T10:17:01Z</time></trkpt><trkpt lat="46.02394383941965" lon="8.600992251356606"><ele>1300.5</ele><time>2026-04-25T10:17:03Z</time></trkpt><trkpt lat="46.02387110054256" lon="8.600923710328084"><ele>1299.0</ele><time>2026-04-25T10:17:05Z</time></trkpt><trkpt lat="46.02378765858387" lon="8.600907822637073"><ele>1297.5</ele><time>2026-04-25T10:17:07Z</time></trkpt><trkpt lat="46.02367826398763" lon="8.6009228711819"><ele>1296.0</ele><time>2026-04-25T10:17:09Z</time></trkpt><trkpt lat="46.02361230516661" lon="8.600952461910918"><ele>1294.5</ele><time>2026-04-25T10:17:10Z</time></trkpt><trkpt lat="46.02354442862523" lon="8.600985749019607"><ele>1293.0</ele><time>2026-04-25T10:17:11Z</time></trkpt><trkpt lat="46.02348288070596" lon="8.601021497341018"><ele>1293.0</ele><time>2026-04-25T10:17:12Z</time></trkpt><trkpt lat="46.02338677223635" lon="8.601107626826373"><ele>1293.0</ele><time>2026-04-25T10:17:14Z</time></trkpt><trkpt lat="46.023291781746835" lon="8.60119346232962"><ele>1293.0</ele><time>2026-04-25T10:17:16Z</time></trkpt><trkpt lat="46.02324233289208" lon="8.601266390371302"><ele>1293.0</ele><time>2026-04-25T10:17:17Z</time></trkpt><trkpt lat="46.02319948846764" lon="8.601355041857724"><ele>1293.0</ele><time>2026-04-25T10:17:18Z</time></trkpt><trkpt lat="46.023161447339604" lon="8.60145220528754"><ele>1293.0</ele><time>2026-04-25T10:17:19Z</time></trkpt><trkpt lat="46.023137193289514" lon="8.601561195700002"><ele>1290.0</ele><time>2026-04-25T10:17:20Z</time></trkpt><trkpt lat="46.023118605976684" lon="8.601671503131902"><ele>1287.0</ele><time>2026-04-25T10:17:21Z</time></trkpt><trkpt lat="46.0230981303106" lon="8.60179435715897"><ele>1284.0</ele><time>2026-04-25T10:17:22Z</time></trkpt><trkpt lat="46.02307416500659" lon="8.60192891018222"><ele>1281.0</ele><time>2026-04-25T10:17:23Z</time></trkpt><trkpt lat="46.023046376223334" lon="8.602062779532767"><ele>1278.0</ele><time>2026-04-25T10:17:24Z</time></trkpt><trkpt lat="46.023015088757354" lon="8.602209866665207"><ele>1278.0</ele><time>2026-04-25T10:17:25Z</time></trkpt><trkpt lat="46.02299378517435" lon="8.602377858200981"><ele>1278.0</ele><time>2026-04-25T10:17:26Z</time></trkpt><trkpt lat="46.02295330333661" lon="8.602518476459116"><ele>1278.0</ele><time>2026-04-25T10:17:27Z</time></trkpt><trkpt lat="46.0229260164451" lon="8.602650421101915"><ele>1278.0</ele><time>2026-04-25T10:17:28Z</time></trkpt><trkpt lat="46.02289179992652" lon="8.602784835978476"><ele>1278.0</ele><time>2026-04-25T10:17:29Z</time></trkpt><trkpt lat="46.02285205895796" lon="8.60291846648645"><ele>1277.8333333333333</ele><time>2026-04-25T10:17:30Z</time></trkpt><trkpt lat="46.02282179197737" lon="8.603036691723743"><ele>1277.6666666666667</ele><time>2026-04-25T10:17:31Z</time></trkpt><trkpt lat="46.02279050447426" lon="8.603155554120283"><ele>1277.5</ele><time>2026-04-25T10:17:32Z</time></trkpt><trkpt lat="46.02276688098963" lon="8.603250138919798"><ele>1277.3333333333335</ele><time>2026-04-25T10:17:33Z</time></trkpt><trkpt lat="46.022750273549256" lon="8.603392316105632"><ele>1277.1666666666667</ele><time>2026-04-25T10:17:35Z</time></trkpt><trkpt lat="46.0227437568289" lon="8.603511915856526"><ele>1277.0</ele><time>2026-04-25T10:17:37Z</time></trkpt><trkpt lat="46.0227806305616" lon="8.603659198981843"><ele>1274.5</ele><time>2026-04-25T10:17:39Z</time></trkpt><trkpt lat="46.02282353198296" lon="8.603755118673721"><ele>1272.0</ele><time>2026-04-25T10:17:40Z</time></trkpt><trkpt lat="46.02289292127249" lon="8.60382257038556"><ele>1269.5</ele><time>2026-04-25T10:17:41Z</time></trkpt><trkpt lat="46.022937584551016" lon="8.603890776208168"><ele>1267.0</ele><time>2026-04-25T10:17:42Z</time></trkpt><trkpt lat="46.02300066355764" lon="8.603957936647774"><ele>1264.5</ele><time>2026-04-25T10:17:44Z</time></trkpt><trkpt lat="46.023065911166945" lon="8.604049868097496"><ele>1262.0</ele><time>2026-04-25T10:17:47Z</time></trkpt><trkpt lat="46.02312543850099" lon="8.604110135955874"><ele>1262.0</ele><time>2026-04-25T10:17:48Z</time></trkpt><trkpt lat="46.02320253117002" lon="8.60417183709033"><ele>1262.0</ele><time>2026-04-25T10:17:49Z</time></trkpt><trkpt lat="46.023280954513005" lon="8.604249849472513"><ele>1262.0</ele><time>2026-04-25T10:17:50Z</time></trkpt><trkpt lat="46.023356259540186" lon="8.60433783287231"><ele>1262.0</ele><time>2026-04-25T10:17:51Z</time></trkpt><trkpt lat="46.02342782720341" lon="8.60441432606552"><ele>1262.0</ele><time>2026-04-25T10:17:52Z</time></trkpt><trkpt lat="46.02350071717789" lon="8.604494013388203"><ele>1263.2</ele><time>2026-04-25T10:17:53Z</time></trkpt><trkpt lat="46.023577167634485" lon="8.60457282487528"><ele>1264.4</ele><time>2026-04-25T10:17:53.999Z</time></trkpt><trkpt lat="46.02363906015076" lon="8.604661682566185"><ele>1265.6</ele><time>2026-04-25T10:17:54.999Z</time></trkpt><trkpt lat="46.02371291834255" lon="8.60475010994668"><ele>1266.8</ele><time>2026-04-25T10:17:55.999Z</time></trkpt><trkpt lat="46.02378827542743" lon="8.604842768107059"><ele>1268.0</ele><time>2026-04-25T10:17:56.999Z</time></trkpt><trkpt lat="46.02386008335724" lon="8.604945423057728"><ele>1268.0</ele><time>2026-04-25T10:17:57.999Z</time></trkpt><trkpt lat="46.023913958679344" lon="8.605057197351085"><ele>1268.0</ele><time>2026-04-25T10:17:58.999Z</time></trkpt><trkpt lat="46.02398161137442" lon="8.605172301624723"><ele>1268.0</ele><time>2026-04-25T10:17:59.999Z</time></trkpt><trkpt lat="46.02404137148147" lon="8.60528172523315"><ele>1268.0</ele><time>2026-04-25T10:18:00.999Z</time></trkpt><trkpt lat="46.02410700535305" lon="8.605406898442792"><ele>1268.0</ele><time>2026-04-25T10:18:01.999Z</time></trkpt><trkpt lat="46.02416711782554" lon="8.60553635064397"><ele>1267.4</ele><time>2026-04-25T10:18:02.999Z</time></trkpt><trkpt lat="46.024232256000275" lon="8.605661501449475"><ele>1266.8</ele><time>2026-04-25T10:18:03.999Z</time></trkpt><trkpt lat="46.02429053366882" lon="8.605801818187128"><ele>1266.2</ele><time>2026-04-25T10:18:04.999Z</time></trkpt><trkpt lat="46.02433298119" lon="8.605926958149183"><ele>1265.6</ele><time>2026-04-25T10:18:05.999Z</time></trkpt><trkpt lat="46.02438002077426" lon="8.60606115365877"><ele>1265.0</ele><time>2026-04-25T10:18:06.999Z</time></trkpt><trkpt lat="46.024421698990544" lon="8.606193696921599"><ele>1265.0</ele><time>2026-04-25T10:18:07.999Z</time></trkpt><trkpt lat="46.02445668971329" lon="8.606317323487144"><ele>1265.0</ele><time>2026-04-25T10:18:08.999Z</time></trkpt><trkpt lat="46.02449045566664" lon="8.606470671219164"><ele>1265.0</ele><time>2026-04-25T10:18:09.999Z</time></trkpt><trkpt lat="46.02452728456394" lon="8.606625168634162"><ele>1265.0</ele><time>2026-04-25T10:18:10.999Z</time></trkpt><trkpt lat="46.02455648895503" lon="8.606783951877839"><ele>1265.0</ele><time>2026-04-25T10:18:11.999Z</time></trkpt><trkpt lat="46.02458700855744" lon="8.606945512055045"><ele>1263.2</ele><time>2026-04-25T10:18:12.999Z</time></trkpt><trkpt lat="46.024610983450046" lon="8.607134493314119"><ele>1261.4</ele><time>2026-04-25T10:18:13.999Z</time></trkpt><trkpt lat="46.02465015805064" lon="8.60727844271013"><ele>1259.6</ele><time>2026-04-25T10:18:14.999Z</time></trkpt><trkpt lat="46.02467999537102" lon="8.607389302469494"><ele>1257.8</ele><time>2026-04-25T10:18:15.999Z</time></trkpt><trkpt lat="46.02470410252585" lon="8.607497640684771"><ele>1256.0</ele><time>2026-04-25T10:18:16.999Z</time></trkpt><trkpt lat="46.024733638100216" lon="8.607622431130338"><ele>1256.0</ele><time>2026-04-25T10:18:17.999Z</time></trkpt><trkpt lat="46.024770142544895" lon="8.607760657805931"><ele>1256.0</ele><time>2026-04-25T10:18:18.999Z</time></trkpt><trkpt lat="46.02481386703313" lon="8.607919626974484"><ele>1256.0</ele><time>2026-04-25T10:18:19.999Z</time></trkpt><trkpt lat="46.0248595322514" lon="8.608087227628285"><ele>1256.0</ele><time>2026-04-25T10:18:20.999Z</time></trkpt><trkpt lat="46.024896864032144" lon="8.60826929296199"><ele>1253.0</ele><time>2026-04-25T10:18:21.999Z</time></trkpt><trkpt lat="46.024947594005674" lon="8.608451870819975"><ele>1250.0</ele><time>2026-04-25T10:18:22.999Z</time></trkpt><trkpt lat="46.024997465115725" lon="8.608623267061828"><ele>1247.0</ele><time>2026-04-25T10:18:23.999Z</time></trkpt><trkpt lat="46.02504135307644" lon="8.60878533097252"><ele>1244.0</ele><time>2026-04-25T10:18:24.999Z</time></trkpt><trkpt lat="46.025091150450116" lon="8.608948243657078"><ele>1246.0</ele><time>2026-04-25T10:18:25.999Z</time></trkpt><trkpt lat="46.025132483802516" lon="8.609099905710801"><ele>1248.0</ele><time>2026-04-25T10:18:26.999Z</time></trkpt><trkpt lat="46.02516344832522" lon="8.609258811369978"><ele>1250.0</ele><time>2026-04-25T10:18:27.999Z</time></trkpt><trkpt lat="46.02520757206619" lon="8.609408592607194"><ele>1252.0</ele><time>2026-04-25T10:18:28.999Z</time></trkpt><trkpt lat="46.02524593899724" lon="8.60955413742357"><ele>1254.0</ele><time>2026-04-25T10:18:29.999Z</time></trkpt><trkpt lat="46.02528707055791" lon="8.609703522545066"><ele>1254.0</ele><time>2026-04-25T10:18:30.999Z</time></trkpt><trkpt lat="46.02532484813312" lon="8.609843140442884"><ele>1254.0</ele><time>2026-04-25T10:18:31.999Z</time></trkpt><trkpt lat="46.02535912863936" lon="8.60996406365252"><ele>1254.0</ele><time>2026-04-25T10:18:32.999Z</time></trkpt><trkpt lat="46.02539476807056" lon="8.61007871574929"><ele>1254.0</ele><time>2026-04-25T10:18:33.999Z</time></trkpt><trkpt lat="46.02542550480711" lon="8.61019077825138"><ele>1254.0</ele><time>2026-04-25T10:18:34.999Z</time></trkpt><trkpt lat="46.025459447202394" lon="8.61030120963197"><ele>1254.0</ele><time>2026-04-25T10:18:35.999Z</time></trkpt><trkpt lat="46.025487597712875" lon="8.610416343903992"><ele>1252.6000000000001</ele><time>2026-04-25T10:18:36.999Z</time></trkpt><trkpt lat="46.02548350977961" lon="8.610540128178588"><ele>1251.2</ele><time>2026-04-25T10:18:37.999Z</time></trkpt><trkpt lat="46.025498713661065" lon="8.610648251383989"><ele>1249.8000000000002</ele><time>2026-04-25T10:18:38.999Z</time></trkpt><trkpt lat="46.0254876599217" lon="8.610747840800911"><ele>1248.4</ele><time>2026-04-25T10:18:39.999Z</time></trkpt><trkpt lat="46.02547195148715" lon="8.610947119170902"><ele>1247.0</ele><time>2026-04-25T10:18:41.999Z</time></trkpt><trkpt lat="46.02546557152088" lon="8.611060628442168"><ele>1249.0</ele><time>2026-04-25T10:18:42.999Z</time></trkpt><trkpt lat="46.025445480035536" lon="8.611172014942952"><ele>1251.0</ele><time>2026-04-25T10:18:43.999Z</time></trkpt><trkpt lat="46.02542062754972" lon="8.611277068520476"><ele>1253.0</ele><time>2026-04-25T10:18:44.999Z</time></trkpt><trkpt lat="46.0254105198249" lon="8.611374082759042"><ele>1255.0</ele><time>2026-04-25T10:18:45.999Z</time></trkpt><trkpt lat="46.02541644965958" lon="8.611544363901327"><ele>1257.0</ele><time>2026-04-25T10:18:47.999Z</time></trkpt><trkpt lat="46.02545932829129" lon="8.611697491061706"><ele>1257.0</ele><time>2026-04-25T10:18:49.999Z</time></trkpt><trkpt lat="46.02548240140722" lon="8.611783659295526"><ele>1257.0</ele><time>2026-04-25T10:18:50.999Z</time></trkpt><trkpt lat="46.02557883021386" lon="8.611897609722844"><ele>1257.0</ele><time>2026-04-25T10:18:52.999Z</time></trkpt><trkpt lat="46.02564381977257" lon="8.6119438380031"><ele>1257.0</ele><time>2026-04-25T10:18:53.999Z</time></trkpt><trkpt lat="46.02571792169074" lon="8.611993063013887"><ele>1257.0</ele><time>2026-04-25T10:18:54.999Z</time></trkpt><trkpt lat="46.02578749124412" lon="8.612027929533415"><ele>1257.0</ele><time>2026-04-25T10:18:55.999Z</time></trkpt><trkpt lat="46.02585056241521" lon="8.612064890979525"><ele>1259.0</ele><time>2026-04-25T10:18:56.999Z</time></trkpt><trkpt lat="46.02590548867306" lon="8.612129160656306"><ele>1261.0</ele><time>2026-04-25T10:18:57.999Z</time></trkpt><trkpt lat="46.02595030524226" lon="8.612309175457419"><ele>1263.0</ele><time>2026-04-25T10:18:59.999Z</time></trkpt><trkpt lat="46.02593975982517" lon="8.612418542724953"><ele>1265.0</ele><time>2026-04-25T10:19:00.999Z</time></trkpt><trkpt lat="46.02593566332914" lon="8.6125292964627"><ele>1267.0</ele><time>2026-04-25T10:19:01.999Z</time></trkpt><trkpt lat="46.02592959457761" lon="8.61264311525642"><ele>1269.0</ele><time>2026-04-25T10:19:02.999Z</time></trkpt><trkpt lat="46.02592209128593" lon="8.612754028798506"><ele>1268.6666666666667</ele><time>2026-04-25T10:19:03.999Z</time></trkpt><trkpt lat="46.02591276963048" lon="8.612881724502701"><ele>1268.3333333333333</ele><time>2026-04-25T10:19:05Z</time></trkpt><trkpt lat="46.025901047646066" lon="8.61300385784148"><ele>1268.0</ele><time>2026-04-25T10:19:06Z</time></trkpt><trkpt lat="46.02589047256164" lon="8.613125385225565"><ele>1267.6666666666665</ele><time>2026-04-25T10:19:07Z</time></trkpt><trkpt lat="46.0258817821308" lon="8.613243382451305"><ele>1267.3333333333333</ele><time>2026-04-25T10:19:08Z</time></trkpt><trkpt lat="46.02587542570925" lon="8.613344837362217"><ele>1267.0</ele><time>2026-04-25T10:19:09Z</time></trkpt><trkpt lat="46.02586998265023" lon="8.61343663059331"><ele>1267.0</ele><time>2026-04-25T10:19:10Z</time></trkpt><trkpt lat="46.02586375959138" lon="8.61353751866012"><ele>1267.0</ele><time>2026-04-25T10:19:11Z</time></trkpt><trkpt lat="46.02585610207238" lon="8.613646864677815"><ele>1267.0</ele><time>2026-04-25T10:19:12Z</time></trkpt><trkpt lat="46.025854066704206" lon="8.613755221344364"><ele>1267.0</ele><time>2026-04-25T10:19:13Z</time></trkpt><trkpt lat="46.02584521448684" lon="8.613867521989109"><ele>1267.0</ele><time>2026-04-25T10:19:14Z</time></trkpt><trkpt lat="46.02582539102229" lon="8.613979385313588"><ele>1267.0</ele><time>2026-04-25T10:19:15Z</time></trkpt><trkpt lat="46.02580191558894" lon="8.614088655246755"><ele>1262.0</ele><time>2026-04-25T10:19:16Z</time></trkpt><trkpt lat="46.025768836930624" lon="8.614182833282849"><ele>1257.0</ele><time>2026-04-25T10:19:17Z</time></trkpt><trkpt lat="46.02575499942289" lon="8.61428408818679"><ele>1252.0</ele><time>2026-04-25T10:19:18Z</time></trkpt><trkpt lat="46.02572885782158" lon="8.6143922106449"><ele>1247.0</ele><time>2026-04-25T10:19:19Z</time></trkpt><trkpt lat="46.02571181454805" lon="8.61449704376515"><ele>1242.0</ele><time>2026-04-25T10:19:20Z</time></trkpt><trkpt lat="46.02569135677064" lon="8.614586827830948"><ele>1237.0</ele><time>2026-04-25T10:19:21Z</time></trkpt><trkpt lat="46.02567171640861" lon="8.614674843828727"><ele>1232.0</ele><time>2026-04-25T10:19:22Z</time></trkpt><trkpt lat="46.025641696719426" lon="8.614770696340699"><ele>1232.0</ele><time>2026-04-25T10:19:25Z</time></trkpt><trkpt lat="46.02560075936069" lon="8.61486252293401"><ele>1232.0</ele><time>2026-04-25T10:19:28Z</time></trkpt><trkpt lat="46.02557654429546" lon="8.614966906399765"><ele>1232.0</ele><time>2026-04-25T10:19:30Z</time></trkpt><trkpt lat="46.02575645136875" lon="8.615188492061462"><ele>1232.0</ele><time>2026-04-25T10:19:40Z</time></trkpt><trkpt lat="46.025856058918635" lon="8.615211418529633"><ele>1238.0</ele><time>2026-04-25T10:19:42Z</time></trkpt><trkpt lat="46.0259679290494" lon="8.615234640763932"><ele>1244.0</ele><time>2026-04-25T10:19:44Z</time></trkpt><trkpt lat="46.026039675378385" lon="8.615248306727027"><ele>1250.0</ele><time>2026-04-25T10:19:45Z</time></trkpt><trkpt lat="46.026116438861536" lon="8.615262122173032"><ele>1256.0</ele><time>2026-04-25T10:19:46Z</time></trkpt><trkpt lat="46.02618300500168" lon="8.615274023247741"><ele>1262.0</ele><time>2026-04-25T10:19:47Z</time></trkpt><trkpt lat="46.02627018677064" lon="8.615286601593226"><ele>1268.0</ele><time>2026-04-25T10:19:49Z</time></trkpt><trkpt lat="46.02638111780274" lon="8.61530183170435"><ele>1268.0</ele><time>2026-04-25T10:19:50.999Z</time></trkpt><trkpt lat="46.02647908800906" lon="8.615292330139203"><ele>1268.0</ele><time>2026-04-25T10:19:52.999Z</time></trkpt><trkpt lat="46.026553587882056" lon="8.615346164999929"><ele>1268.0</ele><time>2026-04-25T10:19:54.999Z</time></trkpt><trkpt lat="46.02661341909607" lon="8.615424545396877"><ele>1268.0</ele><time>2026-04-25T10:19:56.999Z</time></trkpt><trkpt lat="46.026563701810275" lon="8.615533219393438"><ele>1268.0</ele><time>2026-04-25T10:19:58.999Z</time></trkpt><trkpt lat="46.0265216941437" lon="8.615666911579968"><ele>1264.3333333333335</ele><time>2026-04-25T10:20:00.999Z</time></trkpt><trkpt lat="46.02648953478047" lon="8.615749287230779"><ele>1260.6666666666667</ele><time>2026-04-25T10:20:01.999Z</time></trkpt><trkpt lat="46.02643467849339" lon="8.615891422716237"><ele>1257.0</ele><time>2026-04-25T10:20:03.999Z</time></trkpt><trkpt lat="46.02637341594306" lon="8.616049370444406"><ele>1253.3333333333333</ele><time>2026-04-25T10:20:05.999Z</time></trkpt><trkpt lat="46.02635398790388" lon="8.616135724501959"><ele>1249.6666666666665</ele><time>2026-04-25T10:20:06.999Z</time></trkpt><trkpt lat="46.02631987573639" lon="8.616213486086187"><ele>1246.0</ele><time>2026-04-25T10:20:07.999Z</time></trkpt><trkpt lat="46.02627308597491" lon="8.616340610937888"><ele>1246.0</ele><time>2026-04-25T10:20:09.999Z</time></trkpt><trkpt lat="46.02624366094098" lon="8.616445315832996"><ele>1246.0</ele><time>2026-04-25T10:20:11.999Z</time></trkpt><trkpt lat="46.0262444334394" lon="8.616568496872867"><ele>1246.0</ele><time>2026-04-25T10:20:15.999Z</time></trkpt><trkpt lat="46.02621787046703" lon="8.616658903303572"><ele>1246.0</ele><time>2026-04-25T10:20:17.999Z</time></trkpt><trkpt lat="46.02641651113289" lon="8.61593826293271"><ele>1246.0</ele><time>2026-04-25T10:24:28Z</time></trkpt><trkpt lat="46.02647523103163" lon="8.615786870786375"><ele>1246.0</ele><time>2026-04-25T10:24:30Z</time></trkpt><trkpt lat="46.02652270234379" lon="8.615707399486423"><ele>1246.0</ele><time>2026-04-25T10:24:31Z</time></trkpt><trkpt lat="46.02654314636245" lon="8.615605141170137"><ele>1246.0</ele><time>2026-04-25T10:24:32Z</time></trkpt><trkpt lat="46.02657742139542" lon="8.615521925221396"><ele>1246.0</ele><time>2026-04-25T10:24:33Z</time></trkpt><trkpt lat="46.02660602156317" lon="8.615399447956868"><ele>1246.0</ele><time>2026-04-25T10:24:35Z</time></trkpt><trkpt lat="46.0265458381112" lon="8.615289046267733"><ele>1253.3333333333333</ele><time>2026-04-25T10:24:37Z</time></trkpt><trkpt lat="46.026267528138135" lon="8.61524273088046"><ele>1260.6666666666667</ele><time>2026-04-25T10:24:40Z</time></trkpt><trkpt lat="46.026164332893785" lon="8.615234133899634"><ele>1268.0</ele><time>2026-04-25T10:24:41Z</time></trkpt><trkpt lat="46.02606756206701" lon="8.615212967701318"><ele>1268.0</ele><time>2026-04-25T10:24:42Z</time></trkpt><trkpt lat="46.0259707597675" lon="8.615204907814462"><ele>1268.0</ele><time>2026-04-25T10:24:43Z</time></trkpt><trkpt lat="46.02588999247232" lon="8.61519906442993"><ele>1268.0</ele><time>2026-04-25T10:24:44Z</time></trkpt><trkpt lat="46.02581943690152" lon="8.615185496066589"><ele>1268.0</ele><time>2026-04-25T10:24:45Z</time></trkpt><trkpt lat="46.02573630863206" lon="8.615130156129224"><ele>1268.0</ele><time>2026-04-25T10:24:47Z</time></trkpt><trkpt lat="46.025702988553526" lon="8.615024686797822"><ele>1268.0</ele><time>2026-04-25T10:24:51.999Z</time></trkpt><trkpt lat="46.02570414159643" lon="8.614891234646146"><ele>1268.4</ele><time>2026-04-25T10:24:53.999Z</time></trkpt><trkpt lat="46.02567575837456" lon="8.614786706100576"><ele>1268.8</ele><time>2026-04-25T10:24:55.999Z</time></trkpt><trkpt lat="46.02570897198076" lon="8.61459538036826"><ele>1269.2</ele><time>2026-04-25T10:24:57.999Z</time></trkpt><trkpt lat="46.02574390013025" lon="8.614450715850877"><ele>1269.6</ele><time>2026-04-25T10:24:58.999Z</time></trkpt><trkpt lat="46.02577794419035" lon="8.614330687104237"><ele>1270.0</ele><time>2026-04-25T10:24:59.999Z</time></trkpt><trkpt lat="46.02582252124921" lon="8.614178336459394"><ele>1270.0</ele><time>2026-04-25T10:25:00.999Z</time></trkpt><trkpt lat="46.025852270767146" lon="8.614002052510392"><ele>1270.0</ele><time>2026-04-25T10:25:01.999Z</time></trkpt><trkpt lat="46.02588948018466" lon="8.613810523406457"><ele>1270.0</ele><time>2026-04-25T10:25:02.999Z</time></trkpt><trkpt lat="46.02591921664395" lon="8.613629930683087"><ele>1270.0</ele><time>2026-04-25T10:25:03.999Z</time></trkpt><trkpt lat="46.025935352578976" lon="8.613452610347963"><ele>1269.8</ele><time>2026-04-25T10:25:04.999Z</time></trkpt><trkpt lat="46.02593989632386" lon="8.613285889090637"><ele>1269.6</ele><time>2026-04-25T10:25:05.999Z</time></trkpt><trkpt lat="46.02594967944575" lon="8.613118326177249"><ele>1269.4</ele><time>2026-04-25T10:25:06.999Z</time></trkpt><trkpt lat="46.025956961729506" lon="8.612979188754855"><ele>1269.2</ele><time>2026-04-25T10:25:07.999Z</time></trkpt><trkpt lat="46.025965092229576" lon="8.612836041303492"><ele>1269.0</ele><time>2026-04-25T10:25:08.999Z</time></trkpt><trkpt lat="46.0259790487042" lon="8.612709796328444"><ele>1269.0</ele><time>2026-04-25T10:25:09.999Z</time></trkpt><trkpt lat="46.02598636303799" lon="8.612594322805418"><ele>1269.0</ele><time>2026-04-25T10:25:11Z</time></trkpt><trkpt lat="46.02599501197529" lon="8.612471399080738"><ele>1269.0</ele><time>2026-04-25T10:25:12Z</time></trkpt><trkpt lat="46.02599914685562" lon="8.612358218290439"><ele>1269.0</ele><time>2026-04-25T10:25:13Z</time></trkpt><trkpt lat="46.02599875110454" lon="8.61225057827955"><ele>1269.0</ele><time>2026-04-25T10:25:14Z</time></trkpt><trkpt lat="46.02593565675205" lon="8.612097891690967"><ele>1269.0</ele><time>2026-04-25T10:25:16Z</time></trkpt><trkpt lat="46.02588535078811" lon="8.612037398272097"><ele>1269.0</ele><time>2026-04-25T10:25:17Z</time></trkpt><trkpt lat="46.02583017955436" lon="8.611991131240284"><ele>1269.0</ele><time>2026-04-25T10:25:18Z</time></trkpt><trkpt lat="46.025759459641144" lon="8.611961596069797"><ele>1269.0</ele><time>2026-04-25T10:25:19Z</time></trkpt><trkpt lat="46.0256885107825" lon="8.61193996190111"><ele>1269.0</ele><time>2026-04-25T10:25:20Z</time></trkpt><trkpt lat="46.02562198645537" lon="8.611897676034962"><ele>1269.0</ele><time>2026-04-25T10:25:21Z</time></trkpt><trkpt lat="46.02556551825804" lon="8.611838361572794"><ele>1269.0</ele><time>2026-04-25T10:25:22Z</time></trkpt><trkpt lat="46.025518301377005" lon="8.61176416750127"><ele>1269.0</ele><time>2026-04-25T10:25:23Z</time></trkpt><trkpt lat="46.025482235070704" lon="8.611670914956516"><ele>1267.0</ele><time>2026-04-25T10:25:24Z</time></trkpt><trkpt lat="46.025460445836835" lon="8.611584328347886"><ele>1265.0</ele><time>2026-04-25T10:25:25Z</time></trkpt><trkpt lat="46.02544531496455" lon="8.611467859088194"><ele>1263.0</ele><time>2026-04-25T10:25:26Z</time></trkpt><trkpt lat="46.0254456665029" lon="8.611344463519165"><ele>1261.0</ele><time>2026-04-25T10:25:27Z</time></trkpt><trkpt lat="46.02546366092647" lon="8.611225352742625"><ele>1259.0</ele><time>2026-04-25T10:25:28Z</time></trkpt><trkpt lat="46.02548623835753" lon="8.611106951230322"><ele>1257.0</ele><time>2026-04-25T10:25:29Z</time></trkpt><trkpt lat="46.02550337578447" lon="8.61098196010356"><ele>1256.5</ele><time>2026-04-25T10:25:30Z</time></trkpt><trkpt lat="46.02551622371844" lon="8.610884874361581"><ele>1256.0</ele><time>2026-04-25T10:25:31Z</time></trkpt><trkpt lat="46.02552765668647" lon="8.610778953199329"><ele>1255.5</ele><time>2026-04-25T10:25:32Z</time></trkpt><trkpt lat="46.02553634284949" lon="8.610630849093106"><ele>1255.0</ele><time>2026-04-25T10:25:33Z</time></trkpt><trkpt lat="46.02553750749223" lon="8.610506081915794"><ele>1254.5</ele><time>2026-04-25T10:25:34Z</time></trkpt><trkpt lat="46.025529513539034" lon="8.610389638783175"><ele>1254.0</ele><time>2026-04-25T10:25:35Z</time></trkpt><trkpt lat="46.02550183685264" lon="8.61027095599329"><ele>1254.0</ele><time>2026-04-25T10:25:36Z</time></trkpt><trkpt lat="46.02546667805129" lon="8.610148266999852"><ele>1254.0</ele><time>2026-04-25T10:25:37Z</time></trkpt><trkpt lat="46.025427672240774" lon="8.61001957232119"><ele>1254.0</ele><time>2026-04-25T10:25:38Z</time></trkpt><trkpt lat="46.02539202828648" lon="8.609880388770637"><ele>1254.0</ele><time>2026-04-25T10:25:39Z</time></trkpt><trkpt lat="46.02536206150558" lon="8.609749799965222"><ele>1254.0</ele><time>2026-04-25T10:25:40Z</time></trkpt><trkpt lat="46.02532816600393" lon="8.609638976413411"><ele>1254.0</ele><time>2026-04-25T10:25:41Z</time></trkpt><trkpt lat="46.025292557884484" lon="8.609521573839563"><ele>1254.0</ele><time>2026-04-25T10:25:42Z</time></trkpt><trkpt lat="46.02525599647128" lon="8.609389289125223"><ele>1254.0</ele><time>2026-04-25T10:25:43Z</time></trkpt><trkpt lat="46.02521768929459" lon="8.609249213478984"><ele>1254.0</ele><time>2026-04-25T10:25:44Z</time></trkpt><trkpt lat="46.025177824700805" lon="8.609122848702217"><ele>1254.0</ele><time>2026-04-25T10:25:45Z</time></trkpt><trkpt lat="46.02514404677" lon="8.609003019666316"><ele>1252.0</ele><time>2026-04-25T10:25:46Z</time></trkpt><trkpt lat="46.02511369498724" lon="8.608886257231111"><ele>1250.0</ele><time>2026-04-25T10:25:47Z</time></trkpt><trkpt lat="46.0250750985609" lon="8.60877137505592"><ele>1248.0</ele><time>2026-04-25T10:25:48Z</time></trkpt><trkpt lat="46.02503795825189" lon="8.608639897165464"><ele>1246.0</ele><time>2026-04-25T10:25:49Z</time></trkpt><trkpt lat="46.024998294109025" lon="8.608503509875673"><ele>1244.0</ele><time>2026-04-25T10:25:50Z</time></trkpt><trkpt lat="46.02495378214504" lon="8.608358943637775"><ele>1244.0</ele><time>2026-04-25T10:25:51Z</time></trkpt><trkpt lat="46.02491732329591" lon="8.608199680810982"><ele>1244.0</ele><time>2026-04-25T10:25:52Z</time></trkpt><trkpt lat="46.024876353137046" lon="8.608052958867251"><ele>1244.0</ele><time>2026-04-25T10:25:53Z</time></trkpt><trkpt lat="46.024839225660685" lon="8.607906223196817"><ele>1244.0</ele><time>2026-04-25T10:25:54Z</time></trkpt><trkpt lat="46.02480472580143" lon="8.607756819598603"><ele>1244.0</ele><time>2026-04-25T10:25:55Z</time></trkpt><trkpt lat="46.02476172072114" lon="8.607613243407851"><ele>1246.4</ele><time>2026-04-25T10:25:56Z</time></trkpt><trkpt lat="46.024724741434454" lon="8.607459230126716"><ele>1248.8000000000002</ele><time>2026-04-25T10:25:57Z</time></trkpt><trkpt lat="46.024692542479634" lon="8.607338634920723"><ele>1251.1999999999998</ele><time>2026-04-25T10:25:58Z</time></trkpt><trkpt lat="46.02467358159287" lon="8.607212680529607"><ele>1253.6</ele><time>2026-04-25T10:25:59Z</time></trkpt><trkpt lat="46.02465094667576" lon="8.607078212052313"><ele>1256.0</ele><time>2026-04-25T10:26:00Z</time></trkpt><trkpt lat="46.02462035973867" lon="8.606946777793874"><ele>1257.8</ele><time>2026-04-25T10:26:01Z</time></trkpt><trkpt lat="46.024595023723805" lon="8.606817469782206"><ele>1259.6</ele><time>2026-04-25T10:26:02Z</time></trkpt><trkpt lat="46.024571609279356" lon="8.60668223780249"><ele>1261.4</ele><time>2026-04-25T10:26:03Z</time></trkpt><trkpt lat="46.02453866129218" lon="8.606522638794479"><ele>1263.2</ele><time>2026-04-25T10:26:04Z</time></trkpt><trkpt lat="46.02450296513092" lon="8.606352064263291"><ele>1265.0</ele><time>2026-04-25T10:26:05Z</time></trkpt><trkpt lat="46.02447090243691" lon="8.606198801394491"><ele>1268.2</ele><time>2026-04-25T10:26:06Z</time></trkpt><trkpt lat="46.024449728821224" lon="8.606037274595018"><ele>1271.4</ele><time>2026-04-25T10:26:07Z</time></trkpt><trkpt lat="46.02439477609428" lon="8.605902892764236"><ele>1274.6</ele><time>2026-04-25T10:26:08Z</time></trkpt><trkpt lat="46.024339659924124" lon="8.605766288346546"><ele>1277.8</ele><time>2026-04-25T10:26:09Z</time></trkpt><trkpt lat="46.02428903323963" lon="8.60564378989891"><ele>1281.0</ele><time>2026-04-25T10:26:10Z</time></trkpt><trkpt lat="46.02423611841665" lon="8.605527664278036"><ele>1281.0</ele><time>2026-04-25T10:26:11Z</time></trkpt><trkpt lat="46.02417841678035" lon="8.60540471574204"><ele>1281.0</ele><time>2026-04-25T10:26:12Z</time></trkpt><trkpt lat="46.024122881651984" lon="8.60530547151963"><ele>1281.0</ele><time>2026-04-25T10:26:13Z</time></trkpt><trkpt lat="46.02406632801232" lon="8.60521200029132"><ele>1281.0</ele><time>2026-04-25T10:26:14Z</time></trkpt><trkpt lat="46.024005894284244" lon="8.605115158062747"><ele>1281.0</ele><time>2026-04-25T10:26:15Z</time></trkpt><trkpt lat="46.023941236269195" lon="8.605008563437876"><ele>1278.3999999999999</ele><time>2026-04-25T10:26:16Z</time></trkpt><trkpt lat="46.023878978211506" lon="8.604901539058826"><ele>1275.8</ele><time>2026-04-25T10:26:17Z</time></trkpt><trkpt lat="46.023811798870526" lon="8.60480702196094"><ele>1273.1999999999998</ele><time>2026-04-25T10:26:18Z</time></trkpt><trkpt lat="46.02373601441158" lon="8.604704201635508"><ele>1270.6</ele><time>2026-04-25T10:26:19Z</time></trkpt><trkpt lat="46.023666173996986" lon="8.60460554548232"><ele>1268.0</ele><time>2026-04-25T10:26:20Z</time></trkpt><trkpt lat="46.02358937788732" lon="8.604522616803278"><ele>1266.8</ele><time>2026-04-25T10:26:21Z</time></trkpt><trkpt lat="46.023509439338646" lon="8.604450414508257"><ele>1265.6</ele><time>2026-04-25T10:26:22Z</time></trkpt><trkpt lat="46.023420451204586" lon="8.60435615678298"><ele>1264.4</ele><time>2026-04-25T10:26:23Z</time></trkpt><trkpt lat="46.02334044027517" lon="8.604276324756025"><ele>1263.2</ele><time>2026-04-25T10:26:24Z</time></trkpt><trkpt lat="46.02326757763443" lon="8.604203804802092"><ele>1262.0</ele><time>2026-04-25T10:26:25Z</time></trkpt><trkpt lat="46.02320449318977" lon="8.60413222132713"><ele>1262.0</ele><time>2026-04-25T10:26:26Z</time></trkpt><trkpt lat="46.02314022848127" lon="8.604058304648717"><ele>1262.0</ele><time>2026-04-25T10:26:27Z</time></trkpt><trkpt lat="46.02307092660561" lon="8.603994761659903"><ele>1262.0</ele><time>2026-04-25T10:26:28Z</time></trkpt><trkpt lat="46.02300147068982" lon="8.603921809182088"><ele>1262.0</ele><time>2026-04-25T10:26:29Z</time></trkpt><trkpt lat="46.02293863330604" lon="8.603850100709424"><ele>1262.0</ele><time>2026-04-25T10:26:30Z</time></trkpt><trkpt lat="46.022884871640485" lon="8.603776531549368"><ele>1262.0</ele><time>2026-04-25T10:26:31Z</time></trkpt><trkpt lat="46.02283701286809" lon="8.603695526620225"><ele>1264.142857142857</ele><time>2026-04-25T10:26:32Z</time></trkpt><trkpt lat="46.02280419362477" lon="8.603615893237825"><ele>1266.2857142857142</ele><time>2026-04-25T10:26:33Z</time></trkpt><trkpt lat="46.02277599659329" lon="8.603446192426"><ele>1268.4285714285713</ele><time>2026-04-25T10:26:35Z</time></trkpt><trkpt lat="46.022781894483984" lon="8.603349339289124"><ele>1270.5714285714284</ele><time>2026-04-25T10:26:36Z</time></trkpt><trkpt lat="46.02279616876082" lon="8.603259534662335"><ele>1272.7142857142858</ele><time>2026-04-25T10:26:37Z</time></trkpt><trkpt lat="46.02282177366795" lon="8.603174892111634"><ele>1274.8571428571427</ele><time>2026-04-25T10:26:38Z</time></trkpt><trkpt lat="46.022847998239946" lon="8.603086339183976"><ele>1277.0</ele><time>2026-04-25T10:26:39Z</time></trkpt><trkpt lat="46.022879785588835" lon="8.602981719820779"><ele>1277.0</ele><time>2026-04-25T10:26:40Z</time></trkpt><trkpt lat="46.022910743324154" lon="8.602857777682454"><ele>1277.0</ele><time>2026-04-25T10:26:41Z</time></trkpt><trkpt lat="46.02294520836968" lon="8.602721703379743"><ele>1277.0</ele><time>2026-04-25T10:26:42Z</time></trkpt><trkpt lat="46.02298126899265" lon="8.602593035087047"><ele>1277.0</ele><time>2026-04-25T10:26:43Z</time></trkpt><trkpt lat="46.023017843486116" lon="8.602470526413846"><ele>1277.0</ele><time>2026-04-25T10:26:44Z</time></trkpt><trkpt lat="46.023043275037665" lon="8.60232722623911"><ele>1277.1666666666667</ele><time>2026-04-25T10:26:45Z</time></trkpt><trkpt lat="46.0230716576138" lon="8.602197742155145"><ele>1277.3333333333335</ele><time>2026-04-25T10:26:46Z</time></trkpt><trkpt lat="46.023088298958776" lon="8.602079067634024"><ele>1277.5</ele><time>2026-04-25T10:26:47Z</time></trkpt><trkpt lat="46.023117107263666" lon="8.601956265614659"><ele>1277.6666666666667</ele><time>2026-04-25T10:26:48Z</time></trkpt><trkpt lat="46.023145139309534" lon="8.601847624977987"><ele>1277.8333333333333</ele><time>2026-04-25T10:26:49Z</time></trkpt><trkpt lat="46.02316775157944" lon="8.601746331808345"><ele>1278.0</ele><time>2026-04-25T10:26:49.999Z</time></trkpt><trkpt lat="46.02318912736866" lon="8.601650613162596"><ele>1276.0</ele><time>2026-04-25T10:26:50.999Z</time></trkpt><trkpt lat="46.02320670480453" lon="8.601553599095734"><ele>1274.0</ele><time>2026-04-25T10:26:51.999Z</time></trkpt><trkpt lat="46.02323822611078" lon="8.60141207738878"><ele>1272.0</ele><time>2026-04-25T10:26:53.999Z</time></trkpt><trkpt lat="46.023261400147334" lon="8.601313940800448"><ele>1270.0</ele><time>2026-04-25T10:26:55.999Z</time></trkpt><trkpt lat="46.02332233055135" lon="8.601203249015285"><ele>1268.0</ele><time>2026-04-25T10:26:57.999Z</time></trkpt><trkpt lat="46.02343031150251" lon="8.601096640850919"><ele>1293.0</ele><time>2026-04-25T10:26:59.999Z</time></trkpt><trkpt lat="46.02353603241802" lon="8.601022668613584"><ele>1293.0</ele><time>2026-04-25T10:27:01.999Z</time></trkpt><trkpt lat="46.023623004220255" lon="8.600984252948523"><ele>1293.0</ele><time>2026-04-25T10:27:03.999Z</time></trkpt><trkpt lat="46.023707323240274" lon="8.600972680179824"><ele>1293.0</ele><time>2026-04-25T10:27:07.999Z</time></trkpt><trkpt lat="46.02377393514459" lon="8.600976583103364"><ele>1293.0</ele><time>2026-04-25T10:27:11.999Z</time></trkpt></trkseg><trkseg><trkpt lat="46.02634051401614" lon="8.604485697338324"><ele>1319.8000000000002</ele><time>2026-04-25T10:28:19.999Z</time></trkpt><trkpt lat="46.02633628217993" lon="8.604582825554843"><ele>1321.6</ele><time>2026-04-25T10:28:20.999Z</time></trkpt><trkpt lat="46.026326736993006" lon="8.604765952484332"><ele>1323.4</ele><time>2026-04-25T10:28:22.999Z</time></trkpt><trkpt lat="46.02632505322736" lon="8.604897792817258"><ele>1325.1999999999998</ele><time>2026-04-25T10:28:23.999Z</time></trkpt><trkpt lat="46.02630843611134" lon="8.605018640759198"><ele>1327.0</ele><time>2026-04-25T10:28:24.999Z</time></trkpt><trkpt lat="46.026315152365385" lon="8.605137269052744"><ele>1327.0</ele><time>2026-04-25T10:28:25.999Z</time></trkpt><trkpt lat="46.02634423283538" lon="8.605245539231571"><ele>1327.0</ele><time>2026-04-25T10:28:26.999Z</time></trkpt><trkpt lat="46.02634708358063" lon="8.60534965992438"><ele>1327.0</ele><time>2026-04-25T10:28:27.999Z</time></trkpt><trkpt lat="46.02638242396705" lon="8.605449713823948"><ele>1327.0</ele><time>2026-04-25T10:28:28.999Z</time></trkpt><trkpt lat="46.026419457006966" lon="8.605538768923171"><ele>1327.0</ele><time>2026-04-25T10:28:29.999Z</time></trkpt><trkpt lat="46.02646455041601" lon="8.605613174138904"><ele>1327.0</ele><time>2026-04-25T10:28:30.999Z</time></trkpt><trkpt lat="46.02655902121957" lon="8.605742362499944"><ele>1323.1999999999998</ele><time>2026-04-25T10:28:32.999Z</time></trkpt><trkpt lat="46.0266605782064" lon="8.605847784844123"><ele>1319.4</ele><time>2026-04-25T10:28:34.999Z</time></trkpt><trkpt lat="46.02669377615301" lon="8.605935950988151"><ele>1315.6</ele><time>2026-04-25T10:28:35.999Z</time></trkpt><trkpt lat="46.026754533495" lon="8.60600468823798"><ele>1311.8000000000002</ele><time>2026-04-25T10:28:36.999Z</time></trkpt><trkpt lat="46.02680256598441" lon="8.606063441167052"><ele>1308.0</ele><time>2026-04-25T10:28:37.999Z</time></trkpt><trkpt lat="46.026906931826126" lon="8.606184030977474"><ele>1308.0</ele><time>2026-04-25T10:28:39.999Z</time></trkpt><trkpt lat="46.02695074321182" lon="8.606272629971361"><ele>1308.0</ele><time>2026-04-25T10:28:40.999Z</time></trkpt><trkpt lat="46.02698674066559" lon="8.606361390301661"><ele>1308.0</ele><time>2026-04-25T10:28:41.999Z</time></trkpt><trkpt lat="46.02703310654784" lon="8.606524618549159"><ele>1308.0</ele><time>2026-04-25T10:28:43.999Z</time></trkpt><trkpt lat="46.02704002715668" lon="8.606617686868843"><ele>1308.0</ele><time>2026-04-25T10:28:44.999Z</time></trkpt><trkpt lat="46.0270454611957" lon="8.606773490739192"><ele>1308.0</ele><time>2026-04-25T10:28:46.999Z</time></trkpt><trkpt lat="46.02703397725852" lon="8.606923189444961"><ele>1308.6666666666667</ele><time>2026-04-25T10:28:48.999Z</time></trkpt><trkpt lat="46.027037916404694" lon="8.607031514531371"><ele>1309.3333333333333</ele><time>2026-04-25T10:28:49.999Z</time></trkpt><trkpt lat="46.027039869234564" lon="8.60718451533372"><ele>1310.0</ele><time>2026-04-25T10:28:51.999Z</time></trkpt><trkpt lat="46.02702199702269" lon="8.607342915908013"><ele>1310.6666666666665</ele><time>2026-04-25T10:28:53.999Z</time></trkpt><trkpt lat="46.027027663787095" lon="8.60743741293287"><ele>1311.3333333333333</ele><time>2026-04-25T10:28:54.999Z</time></trkpt><trkpt lat="46.027004002879394" lon="8.607538980432192"><ele>1312.0</ele><time>2026-04-25T10:28:55.999Z</time></trkpt><trkpt lat="46.026993067920046" lon="8.60764209485119"><ele>1312.0</ele><time>2026-04-25T10:28:56.999Z</time></trkpt><trkpt lat="46.02698275356129" lon="8.607758039992866"><ele>1312.0</ele><time>2026-04-25T10:28:57.999Z</time></trkpt><trkpt lat="46.026991075471976" lon="8.607865268055868"><ele>1312.0</ele><time>2026-04-25T10:28:58.999Z</time></trkpt><trkpt lat="46.02698772373009" lon="8.60795976707399"><ele>1312.0</ele><time>2026-04-25T10:28:59.999Z</time></trkpt><trkpt lat="46.02699185925217" lon="8.608138030613127"><ele>1312.0</ele><time>2026-04-25T10:29:01.999Z</time></trkpt><trkpt lat="46.02702968805975" lon="8.608289358758652"><ele>1312.0</ele><time>2026-04-25T10:29:03.999Z</time></trkpt><trkpt lat="46.027070044120016" lon="8.608378808276257"><ele>1312.0</ele><time>2026-04-25T10:29:04.999Z</time></trkpt><trkpt lat="46.02711832043328" lon="8.6084622576175"><ele>1312.0</ele><time>2026-04-25T10:29:05.999Z</time></trkpt><trkpt lat="46.02717131912502" lon="8.608533259688265"><ele>1312.0</ele><time>2026-04-25T10:29:06.999Z</time></trkpt><trkpt lat="46.02723163168847" lon="8.608611608143029"><ele>1312.0</ele><time>2026-04-25T10:29:07.999Z</time></trkpt><trkpt lat="46.027304692110434" lon="8.608697629934113"><ele>1312.0</ele><time>2026-04-25T10:29:09.999Z</time></trkpt><trkpt lat="46.027377476045366" lon="8.608776594390173"><ele>1310.3999999999999</ele><time>2026-04-25T10:29:11.999Z</time></trkpt><trkpt lat="46.027468244271226" lon="8.608864895485741"><ele>1308.8</ele><time>2026-04-25T10:29:13.999Z</time></trkpt><trkpt lat="46.027529231734846" lon="8.608912887243674"><ele>1307.2</ele><time>2026-04-25T10:29:14.999Z</time></trkpt><trkpt lat="46.02765972320035" lon="8.60899627831244"><ele>1305.6</ele><time>2026-04-25T10:29:16.999Z</time></trkpt><trkpt lat="46.027726656223855" lon="8.609065941129995"><ele>1304.0</ele><time>2026-04-25T10:29:17.999Z</time></trkpt><trkpt lat="46.027787748810205" lon="8.609122029757945"><ele>1304.0</ele><time>2026-04-25T10:29:18.999Z</time></trkpt><trkpt lat="46.02784811586668" lon="8.609187317230495"><ele>1304.0</ele><time>2026-04-25T10:29:19.999Z</time></trkpt><trkpt lat="46.02792021426318" lon="8.6092363260306"><ele>1304.0</ele><time>2026-04-25T10:29:20.999Z</time></trkpt><trkpt lat="46.027985450225174" lon="8.609276359553677"><ele>1304.0</ele><time>2026-04-25T10:29:21.999Z</time></trkpt><trkpt lat="46.0280469018447" lon="8.609326929998236"><ele>1304.0</ele><time>2026-04-25T10:29:23Z</time></trkpt><trkpt lat="46.02810653636764" lon="8.60935968215082"><ele>1304.0</ele><time>2026-04-25T10:29:24Z</time></trkpt><trkpt lat="46.028185824763746" lon="8.609376387673473"><ele>1304.0</ele><time>2026-04-25T10:29:25Z</time></trkpt><trkpt lat="46.02826118903644" lon="8.609369488391248"><ele>1306.1666666666667</ele><time>2026-04-25T10:29:26Z</time></trkpt><trkpt lat="46.028334470771426" lon="8.609381236171847"><ele>1308.3333333333335</ele><time>2026-04-25T10:29:27Z</time></trkpt><trkpt lat="46.028409351066735" lon="8.609383920163497"><ele>1310.5</ele><time>2026-04-25T10:29:28Z</time></trkpt><trkpt lat="46.02852918945294" lon="8.609419892016696"><ele>1312.6666666666667</ele><time>2026-04-25T10:29:30Z</time></trkpt><trkpt lat="46.028595861269494" lon="8.609445437277452"><ele>1314.8333333333333</ele><time>2026-04-25T10:29:31Z</time></trkpt><trkpt lat="46.028669494805044" lon="8.60953169198952"><ele>1317.0</ele><time>2026-04-25T10:29:33Z</time></trkpt><trkpt lat="46.02875067008202" lon="8.60956626114382"><ele>1317.0</ele><time>2026-04-25T10:29:35Z</time></trkpt><trkpt lat="46.028826763129636" lon="8.609663842619662"><ele>1317.0</ele><time>2026-04-25T10:29:37Z</time></trkpt><trkpt lat="46.02888313500862" lon="8.609729986203094"><ele>1317.0</ele><time>2026-04-25T10:29:38Z</time></trkpt><trkpt lat="46.02893792324095" lon="8.609815877116775"><ele>1317.0</ele><time>2026-04-25T10:29:39Z</time></trkpt><trkpt lat="46.02899817738638" lon="8.609873281259247"><ele>1317.0</ele><time>2026-04-25T10:29:40Z</time></trkpt><trkpt lat="46.02908010266359" lon="8.609860839183007"><ele>1317.0</ele><time>2026-04-25T10:29:41Z</time></trkpt><trkpt lat="46.029146765681595" lon="8.60982485046167"><ele>1314.8333333333333</ele><time>2026-04-25T10:29:42Z</time></trkpt><trkpt lat="46.029226504294385" lon="8.609798368801238"><ele>1312.6666666666667</ele><time>2026-04-25T10:29:43Z</time></trkpt><trkpt lat="46.02929429196758" lon="8.60977515142753"><ele>1310.5</ele><time>2026-04-25T10:29:44Z</time></trkpt><trkpt lat="46.0293706134881" lon="8.609745811376694"><ele>1308.3333333333335</ele><time>2026-04-25T10:29:45Z</time></trkpt><trkpt lat="46.02944093346285" lon="8.60971648224438"><ele>1306.1666666666667</ele><time>2026-04-25T10:29:46Z</time></trkpt><trkpt lat="46.02954773635572" lon="8.60969580419873"><ele>1304.0</ele><time>2026-04-25T10:29:48Z</time></trkpt><trkpt lat="46.02963606583164" lon="8.60960912078724"><ele>1304.0</ele><time>2026-04-25T10:29:50Z</time></trkpt><trkpt lat="46.02970161489405" lon="8.609597406112174"><ele>1304.0</ele><time>2026-04-25T10:29:51Z</time></trkpt><trkpt lat="46.02981480711213" lon="8.609560594346457"><ele>1304.0</ele><time>2026-04-25T10:29:53Z</time></trkpt><trkpt lat="46.029942674396274" lon="8.609559958038194"><ele>1304.0</ele><time>2026-04-25T10:29:55Z</time></trkpt><trkpt lat="46.030051241450906" lon="8.609582763986113"><ele>1304.0</ele><time>2026-04-25T10:29:57Z</time></trkpt><trkpt lat="46.03011492500878" lon="8.60965495475251"><ele>1305.2</ele><time>2026-04-25T10:29:58Z</time></trkpt><trkpt lat="46.03018033913924" lon="8.609697971814935"><ele>1306.4</ele><time>2026-04-25T10:29:59Z</time></trkpt><trkpt lat="46.03027880774146" lon="8.60976338913088"><ele>1307.6</ele><time>2026-04-25T10:30:01Z</time></trkpt><trkpt lat="46.03038491851364" lon="8.609773219769597"><ele>1308.8</ele><time>2026-04-25T10:30:03Z</time></trkpt><trkpt lat="46.03046875344781" lon="8.609772937652599"><ele>1310.0</ele><time>2026-04-25T10:30:04Z</time></trkpt><trkpt lat="46.030552842821756" lon="8.609764973534887"><ele>1310.0</ele><time>2026-04-25T10:30:05Z</time></trkpt><trkpt lat="46.03062510950196" lon="8.609779587484722"><ele>1310.0</ele><time>2026-04-25T10:30:06Z</time></trkpt><trkpt lat="46.03073706061687" lon="8.609794090149983"><ele>1310.0</ele><time>2026-04-25T10:30:08Z</time></trkpt><trkpt lat="46.030817970660756" lon="8.609808775599976"><ele>1310.0</ele><time>2026-04-25T10:30:09Z</time></trkpt><trkpt lat="46.03088715081956" lon="8.609813792166785"><ele>1310.0</ele><time>2026-04-25T10:30:10Z</time></trkpt><trkpt lat="46.03095745102229" lon="8.609808607444718"><ele>1310.0</ele><time>2026-04-25T10:30:11Z</time></trkpt><trkpt lat="46.03107108888073" lon="8.60983417607905"><ele>1306.0</ele><time>2026-04-25T10:30:13Z</time></trkpt><trkpt lat="46.03117582558889" lon="8.609856259093773"><ele>1302.0</ele><time>2026-04-25T10:30:15Z</time></trkpt><trkpt lat="46.03124323458489" lon="8.609874845973447"><ele>1298.0</ele><time>2026-04-25T10:30:16Z</time></trkpt><trkpt lat="46.031294038235494" lon="8.609931462149108"><ele>1294.0</ele><time>2026-04-25T10:30:17Z</time></trkpt><trkpt lat="46.03139907066733" lon="8.610022059280023"><ele>1290.0</ele><time>2026-04-25T10:30:19Z</time></trkpt><trkpt lat="46.031481100403624" lon="8.610115885390139"><ele>1290.0</ele><time>2026-04-25T10:30:21Z</time></trkpt><trkpt lat="46.031534970732" lon="8.610174119871278"><ele>1290.0</ele><time>2026-04-25T10:30:22Z</time></trkpt><trkpt lat="46.03158677974386" lon="8.610241390974247"><ele>1290.0</ele><time>2026-04-25T10:30:23Z</time></trkpt><trkpt lat="46.03162328158798" lon="8.610320817341474"><ele>1290.0</ele><time>2026-04-25T10:30:24Z</time></trkpt><trkpt lat="46.031657889783894" lon="8.610401283046475"><ele>1290.0</ele><time>2026-04-25T10:30:25Z</time></trkpt><trkpt lat="46.03168975619115" lon="8.61048041390332"><ele>1290.0</ele><time>2026-04-25T10:30:26Z</time></trkpt><trkpt lat="46.03174369596222" lon="8.610623795656409"><ele>1290.0</ele><time>2026-04-25T10:30:28Z</time></trkpt><trkpt lat="46.03176974380789" lon="8.610713304868492"><ele>1289.8</ele><time>2026-04-25T10:30:29Z</time></trkpt><trkpt lat="46.031795898382555" lon="8.610886446595984"><ele>1289.6</ele><time>2026-04-25T10:30:31Z</time></trkpt><trkpt lat="46.031808252913294" lon="8.611063476343414"><ele>1289.4</ele><time>2026-04-25T10:30:33Z</time></trkpt><trkpt lat="46.031822050236435" lon="8.611205125837369"><ele>1289.2</ele><time>2026-04-25T10:30:35Z</time></trkpt><trkpt lat="46.031879502108026" lon="8.611326635987439"><ele>1289.0</ele><time>2026-04-25T10:30:37Z</time></trkpt><trkpt lat="46.03194546128644" lon="8.611335663698538"><ele>1293.8000000000002</ele><time>2026-04-25T10:30:38Z</time></trkpt><trkpt lat="46.03205314138107" lon="8.611325622407875"><ele>1298.6000000000001</ele><time>2026-04-25T10:30:40Z</time></trkpt><trkpt lat="46.032127159395884" lon="8.611343057299145"><ele>1303.4</ele><time>2026-04-25T10:30:41Z</time></trkpt><trkpt lat="46.032233122140966" lon="8.611403329634435"><ele>1308.2</ele><time>2026-04-25T10:30:43Z</time></trkpt><trkpt lat="46.03233189911661" lon="8.611378215520567"><ele>1313.0</ele><time>2026-04-25T10:30:45Z</time></trkpt><trkpt lat="46.03245500080755" lon="8.611348400759681"><ele>1311.0</ele><time>2026-04-25T10:30:47Z</time></trkpt><trkpt lat="46.03256947814301" lon="8.611262264177286"><ele>1309.0</ele><time>2026-04-25T10:30:49Z</time></trkpt><trkpt lat="46.03266099383906" lon="8.61109542759892"><ele>1307.0</ele><time>2026-04-25T10:30:51Z</time></trkpt><trkpt lat="46.03271511335963" lon="8.611038207588914"><ele>1305.0</ele><time>2026-04-25T10:30:52Z</time></trkpt><trkpt lat="46.032767580629084" lon="8.610966118803852"><ele>1303.0</ele><time>2026-04-25T10:30:53Z</time></trkpt><trkpt lat="46.03286239209915" lon="8.610871571468023"><ele>1295.2</ele><time>2026-04-25T10:30:55Z</time></trkpt><trkpt lat="46.03298021844921" lon="8.610846955196996"><ele>1287.4</ele><time>2026-04-25T10:30:57Z</time></trkpt><trkpt lat="46.03304599726781" lon="8.610832741742696"><ele>1279.6000000000001</ele><time>2026-04-25T10:30:58Z</time></trkpt><trkpt lat="46.03311381299193" lon="8.610828725680465"><ele>1271.8000000000002</ele><time>2026-04-25T10:30:59Z</time></trkpt><trkpt lat="46.03321978704018" lon="8.610691358179686"><ele>1264.0</ele><time>2026-04-25T10:31:01Z</time></trkpt><trkpt lat="46.03325523476314" lon="8.610601730468364"><ele>1264.0000000000002</ele><time>2026-04-25T10:31:01.999Z</time></trkpt><trkpt lat="46.033281116558975" lon="8.610497929897663"><ele>1264.0</ele><time>2026-04-25T10:31:02.999Z</time></trkpt><trkpt lat="46.033283991208144" lon="8.610391813035836"><ele>1264.0</ele><time>2026-04-25T10:31:03.999Z</time></trkpt><trkpt lat="46.03330914874633" lon="8.610280404346558"><ele>1264.0</ele><time>2026-04-25T10:31:04.999Z</time></trkpt><trkpt lat="46.03335471063397" lon="8.610193799201209"><ele>1264.0</ele><time>2026-04-25T10:31:05.999Z</time></trkpt><trkpt lat="46.0333853042569" lon="8.610104372457851"><ele>1264.0000000000002</ele><time>2026-04-25T10:31:06.999Z</time></trkpt><trkpt lat="46.03341303222571" lon="8.610021969576273"><ele>1264.0</ele><time>2026-04-25T10:31:07.999Z</time></trkpt><trkpt lat="46.03342946984275" lon="8.609911434540425"><ele>1264.6666666666665</ele><time>2026-04-25T10:31:08.999Z</time></trkpt><trkpt lat="46.033484739969545" lon="8.60980008771033"><ele>1265.3333333333333</ele><time>2026-04-25T10:31:09.999Z</time></trkpt><trkpt lat="46.03352121513842" lon="8.609698014478717"><ele>1266.0</ele><time>2026-04-25T10:31:10.999Z</time></trkpt><trkpt lat="46.03354001647391" lon="8.609569225046064"><ele>1266.6666666666667</ele><time>2026-04-25T10:31:11.999Z</time></trkpt><trkpt lat="46.033566412307415" lon="8.609464557838827"><ele>1267.3333333333335</ele><time>2026-04-25T10:31:12.999Z</time></trkpt><trkpt lat="46.03359551899801" lon="8.609364310177702"><ele>1268.0</ele><time>2026-04-25T10:31:13.999Z</time></trkpt><trkpt lat="46.03362770480858" lon="8.609261338691022"><ele>1265.1666666666667</ele><time>2026-04-25T10:31:14.999Z</time></trkpt><trkpt lat="46.03365423848697" lon="8.609148486397912"><ele>1262.3333333333335</ele><time>2026-04-25T10:31:15.999Z</time></trkpt><trkpt lat="46.033676090922334" lon="8.609052366551982"><ele>1259.5</ele><time>2026-04-25T10:31:16.999Z</time></trkpt><trkpt lat="46.033682329478985" lon="8.60893068584502"><ele>1256.6666666666667</ele><time>2026-04-25T10:31:17.999Z</time></trkpt><trkpt lat="46.033697277957" lon="8.608829978433366"><ele>1253.8333333333333</ele><time>2026-04-25T10:31:18.999Z</time></trkpt><trkpt lat="46.03371073587425" lon="8.60871657226629"><ele>1251.0</ele><time>2026-04-25T10:31:19.999Z</time></trkpt><trkpt lat="46.0337239613642" lon="8.608608018023522"><ele>1249.857142857143</ele><time>2026-04-25T10:31:20.999Z</time></trkpt><trkpt lat="46.03373507656836" lon="8.608499553824073"><ele>1248.7142857142858</ele><time>2026-04-25T10:31:21.999Z</time></trkpt><trkpt lat="46.03373918153693" lon="8.608393872396142"><ele>1247.5714285714287</ele><time>2026-04-25T10:31:22.999Z</time></trkpt><trkpt lat="46.033743091718904" lon="8.608297735988447"><ele>1246.4285714285716</ele><time>2026-04-25T10:31:23.999Z</time></trkpt><trkpt lat="46.03374885039403" lon="8.608195252919613"><ele>1245.2857142857142</ele><time>2026-04-25T10:31:24.999Z</time></trkpt><trkpt lat="46.033753794361346" lon="8.608087623812624"><ele>1244.1428571428573</ele><time>2026-04-25T10:31:25.999Z</time></trkpt><trkpt lat="46.03375913993654" lon="8.607983337584265"><ele>1243.0</ele><time>2026-04-25T10:31:26.999Z</time></trkpt><trkpt lat="46.03376157680652" lon="8.60787915353347"><ele>1241.857142857143</ele><time>2026-04-25T10:31:27.999Z</time></trkpt><trkpt lat="46.03376867453685" lon="8.607769557473075"><ele>1240.7142857142858</ele><time>2026-04-25T10:31:29Z</time></trkpt><trkpt lat="46.033774629557286" lon="8.60766991108434"><ele>1239.5714285714284</ele><time>2026-04-25T10:31:30Z</time></trkpt><trkpt lat="46.033776146517006" lon="8.607562462447326"><ele>1238.4285714285716</ele><time>2026-04-25T10:31:31Z</time></trkpt><trkpt lat="46.03378577066909" lon="8.60745262855974"><ele>1237.2857142857142</ele><time>2026-04-25T10:31:32Z</time></trkpt><trkpt lat="46.033796097504435" lon="8.60733896054886"><ele>1236.142857142857</ele><time>2026-04-25T10:31:33Z</time></trkpt><trkpt lat="46.03382890393394" lon="8.607260609513062"><ele>1235.0</ele><time>2026-04-25T10:31:34Z</time></trkpt><trkpt lat="46.03384262941762" lon="8.607166686671373"><ele>1235.0</ele><time>2026-04-25T10:31:35Z</time></trkpt><trkpt lat="46.03384797439291" lon="8.60699540211291"><ele>1235.0</ele><time>2026-04-25T10:31:37Z</time></trkpt><trkpt lat="46.033847362934694" lon="8.60679838334555"><ele>1235.0</ele><time>2026-04-25T10:31:39Z</time></trkpt><trkpt lat="46.03385438292296" lon="8.60670669931214"><ele>1235.0</ele><time>2026-04-25T10:31:40Z</time></trkpt><trkpt lat="46.03382460249619" lon="8.606535513966444"><ele>1235.0</ele><time>2026-04-25T10:31:42Z</time></trkpt><trkpt lat="46.03379228561339" lon="8.606384146725228"><ele>1235.8</ele><time>2026-04-25T10:31:44Z</time></trkpt><trkpt lat="46.033772892413374" lon="8.60625735331161"><ele>1236.6</ele><time>2026-04-25T10:31:46Z</time></trkpt><trkpt lat="46.033663922870346" lon="8.60615835079359"><ele>1237.4</ele><time>2026-04-25T10:31:48Z</time></trkpt><trkpt lat="46.03359151188039" lon="8.606065851194739"><ele>1238.2</ele><time>2026-04-25T10:31:50Z</time></trkpt><trkpt lat="46.033546032538624" lon="8.605912569728815"><ele>1239.0</ele><time>2026-04-25T10:31:52Z</time></trkpt><trkpt lat="46.033547579665836" lon="8.605813936753387"><ele>1239.6666666666667</ele><time>2026-04-25T10:31:53Z</time></trkpt><trkpt lat="46.03356967206279" lon="8.605726423083492"><ele>1240.3333333333333</ele><time>2026-04-25T10:31:54Z</time></trkpt><trkpt lat="46.033619071792536" lon="8.605661377422226"><ele>1241.0</ele><time>2026-04-25T10:31:55Z</time></trkpt><trkpt lat="46.033650164140234" lon="8.605521984753889"><ele>1241.6666666666665</ele><time>2026-04-25T10:31:57Z</time></trkpt><trkpt lat="46.03367664658243" lon="8.605404074919944"><ele>1242.3333333333333</ele><time>2026-04-25T10:31:59Z</time></trkpt><trkpt lat="46.03368792160364" lon="8.6052770601354"><ele>1243.0</ele><time>2026-04-25T10:32:03Z</time></trkpt><trkpt lat="46.033686973413126" lon="8.605142018141677"><ele>1243.0</ele><time>2026-04-25T10:32:05Z</time></trkpt><trkpt lat="46.03364979062136" lon="8.60498551441101"><ele>1243.0</ele><time>2026-04-25T10:32:07Z</time></trkpt><trkpt lat="46.033621003393414" lon="8.60482764609641"><ele>1243.0</ele><time>2026-04-25T10:32:09Z</time></trkpt><trkpt lat="46.03360827703525" lon="8.60473266466983"><ele>1243.0</ele><time>2026-04-25T10:32:10Z</time></trkpt><trkpt lat="46.033597791584164" lon="8.604637485163732"><ele>1243.0</ele><time>2026-04-25T10:32:11Z</time></trkpt><trkpt lat="46.03358143800687" lon="8.604535252475578"><ele>1243.0</ele><time>2026-04-25T10:32:12Z</time></trkpt><trkpt lat="46.03356927143066" lon="8.604416854429623"><ele>1243.8333333333333</ele><time>2026-04-25T10:32:13Z</time></trkpt><trkpt lat="46.033562935777134" lon="8.604312724968063"><ele>1244.6666666666665</ele><time>2026-04-25T10:32:14Z</time></trkpt><trkpt lat="46.033546248087745" lon="8.604204129782623"><ele>1245.5</ele><time>2026-04-25T10:32:15Z</time></trkpt><trkpt lat="46.03353214865576" lon="8.604074434623724"><ele>1246.3333333333333</ele><time>2026-04-25T10:32:16Z</time></trkpt><trkpt lat="46.03352116862595" lon="8.603937319048157"><ele>1247.1666666666667</ele><time>2026-04-25T10:32:17Z</time></trkpt><trkpt lat="46.03350772868027" lon="8.603808142838176"><ele>1248.0</ele><time>2026-04-25T10:32:18Z</time></trkpt><trkpt lat="46.03349726575437" lon="8.603687229592968"><ele>1248.3333333333333</ele><time>2026-04-25T10:32:19Z</time></trkpt><trkpt lat="46.03348123673408" lon="8.603577072000146"><ele>1248.6666666666667</ele><time>2026-04-25T10:32:20Z</time></trkpt><trkpt lat="46.03346748844952" lon="8.603458180897146"><ele>1249.0</ele><time>2026-04-25T10:32:21Z</time></trkpt><trkpt lat="46.033456677177426" lon="8.603334718964458"><ele>1249.3333333333335</ele><time>2026-04-25T10:32:22Z</time></trkpt><trkpt lat="46.033448140985705" lon="8.603227942332765"><ele>1249.6666666666667</ele><time>2026-04-25T10:32:23Z</time></trkpt><trkpt lat="46.033447491233574" lon="8.603114060902655"><ele>1250.0</ele><time>2026-04-25T10:32:24Z</time></trkpt><trkpt lat="46.03346272633239" lon="8.603017231499873"><ele>1250.0</ele><time>2026-04-25T10:32:25Z</time></trkpt><trkpt lat="46.03349060054113" lon="8.602906611975756"><ele>1250.0</ele><time>2026-04-25T10:32:26Z</time></trkpt><trkpt lat="46.03352731021493" lon="8.602784006147738"><ele>1250.0</ele><time>2026-04-25T10:32:27Z</time></trkpt><trkpt lat="46.0335711154" lon="8.602659791477278"><ele>1250.0</ele><time>2026-04-25T10:32:28Z</time></trkpt><trkpt lat="46.033613188677855" lon="8.602537145378824"><ele>1250.0</ele><time>2026-04-25T10:32:29Z</time></trkpt><trkpt lat="46.03363490036792" lon="8.602394704827127"><ele>1249.75</ele><time>2026-04-25T10:32:30Z</time></trkpt><trkpt lat="46.03365881205044" lon="8.602203769959168"><ele>1249.5</ele><time>2026-04-25T10:32:31Z</time></trkpt><trkpt lat="46.033665574034515" lon="8.602042370354727"><ele>1249.25</ele><time>2026-04-25T10:32:32Z</time></trkpt><trkpt lat="46.03366432940646" lon="8.601892133726519"><ele>1249.0</ele><time>2026-04-25T10:32:33Z</time></trkpt><trkpt lat="46.03365769726967" lon="8.601738660784449"><ele>1248.6666666666665</ele><time>2026-04-25T10:32:34Z</time></trkpt><trkpt lat="46.03365644889611" lon="8.60161967269444"><ele>1248.3333333333333</ele><time>2026-04-25T10:32:35Z</time></trkpt><trkpt lat="46.03366647208202" lon="8.60150782154862"><ele>1248.0</ele><time>2026-04-25T10:32:36Z</time></trkpt><trkpt lat="46.033672630559494" lon="8.601399376175689"><ele>1247.6666666666667</ele><time>2026-04-25T10:32:37Z</time></trkpt><trkpt lat="46.03367089719781" lon="8.601285982273762"><ele>1247.3333333333335</ele><time>2026-04-25T10:32:38Z</time></trkpt><trkpt lat="46.03366728577048" lon="8.601186071487449"><ele>1247.0</ele><time>2026-04-25T10:32:39Z</time></trkpt><trkpt lat="46.033663186690916" lon="8.60109097042826"><ele>1247.6666666666667</ele><time>2026-04-25T10:32:41Z</time></trkpt><trkpt lat="46.03365904460965" lon="8.600992585869363"><ele>1248.3333333333335</ele><time>2026-04-25T10:32:45Z</time></trkpt><trkpt lat="46.03366468887334" lon="8.600887517017425"><ele>1249.0</ele><time>2026-04-25T10:32:58Z</time></trkpt><trkpt lat="46.033658734848196" lon="8.600726949266006"><ele>1249.6666666666667</ele><time>2026-04-25T10:33:00Z</time></trkpt><trkpt lat="46.033655239027134" lon="8.600632674259744"><ele>1250.3333333333333</ele><time>2026-04-25T10:33:01Z</time></trkpt><trkpt lat="46.0336517277267" lon="8.60053419524932"><ele>1251.0</ele><time>2026-04-25T10:33:02Z</time></trkpt><trkpt lat="46.03364889665131" lon="8.600431951501873"><ele>1251.0</ele><time>2026-04-25T10:33:03Z</time></trkpt><trkpt lat="46.03364853683271" lon="8.600333614126905"><ele>1251.0</ele><time>2026-04-25T10:33:04Z</time></trkpt><trkpt lat="46.03365518706502" lon="8.600209478980826"><ele>1251.0</ele><time>2026-04-25T10:33:06Z</time></trkpt><trkpt lat="46.03370172094826" lon="8.600092831897634"><ele>1251.0</ele><time>2026-04-25T10:33:09Z</time></trkpt><trkpt lat="46.03374516076283" lon="8.599992336918332"><ele>1251.0</ele><time>2026-04-25T10:33:11Z</time></trkpt><trkpt lat="46.033826464147296" lon="8.599980140815868"><ele>1251.0</ele><time>2026-04-25T10:33:13Z</time></trkpt><trkpt lat="46.03388909532646" lon="8.60000968209383"><ele>1249.6666666666667</ele><time>2026-04-25T10:33:14Z</time></trkpt><trkpt lat="46.03395662705019" lon="8.600028324838432"><ele>1248.3333333333333</ele><time>2026-04-25T10:33:15Z</time></trkpt><trkpt lat="46.03403818902597" lon="8.600052667248393"><ele>1247.0</ele><time>2026-04-25T10:33:16Z</time></trkpt><trkpt lat="46.03412298816948" lon="8.600082603539718"><ele>1245.6666666666665</ele><time>2026-04-25T10:33:17Z</time></trkpt><trkpt lat="46.03421053364515" lon="8.600118027139809"><ele>1244.3333333333333</ele><time>2026-04-25T10:33:18Z</time></trkpt><trkpt lat="46.03429492293774" lon="8.60014936330496"><ele>1243.0</ele><time>2026-04-25T10:33:19Z</time></trkpt><trkpt lat="46.034378393464344" lon="8.60018091533834"><ele>1246.0</ele><time>2026-04-25T10:33:20Z</time></trkpt><trkpt lat="46.03445934298878" lon="8.600215927392336"><ele>1249.0</ele><time>2026-04-25T10:33:21Z</time></trkpt><trkpt lat="46.03454103808113" lon="8.600216424994882"><ele>1252.0</ele><time>2026-04-25T10:33:22Z</time></trkpt><trkpt lat="46.03462862953251" lon="8.600218397578853"><ele>1255.0</ele><time>2026-04-25T10:33:23Z</time></trkpt><trkpt lat="46.03471680533314" lon="8.600196780176619"><ele>1258.0</ele><time>2026-04-25T10:33:24Z</time></trkpt><trkpt lat="46.03478512552966" lon="8.600203700102938"><ele>1261.0</ele><time>2026-04-25T10:33:25Z</time></trkpt><trkpt lat="46.03486518054763" lon="8.600222814992858"><ele>1261.0</ele><time>2026-04-25T10:33:26Z</time></trkpt><trkpt lat="46.03494324737065" lon="8.600235865438203"><ele>1261.0</ele><time>2026-04-25T10:33:27Z</time></trkpt><trkpt lat="46.03501832457402" lon="8.600227064525917"><ele>1261.0</ele><time>2026-04-25T10:33:28Z</time></trkpt><trkpt lat="46.035093271388" lon="8.600192697890476"><ele>1261.0</ele><time>2026-04-25T10:33:29Z</time></trkpt><trkpt lat="46.03516146615966" lon="8.600184606265293"><ele>1261.0</ele><time>2026-04-25T10:33:30Z</time></trkpt><trkpt lat="46.03523830394962" lon="8.600191237346424"><ele>1261.0</ele><time>2026-04-25T10:33:32Z</time></trkpt><trkpt lat="46.03531354512014" lon="8.60021320900226"><ele>1261.1666666666665</ele><time>2026-04-25T10:33:53Z</time></trkpt><trkpt lat="46.03540510605881" lon="8.600222314623178"><ele>1261.3333333333333</ele><time>2026-04-25T10:33:56Z</time></trkpt><trkpt lat="46.03549477095343" lon="8.600246837140276"><ele>1261.5</ele><time>2026-04-25T10:33:58Z</time></trkpt><trkpt lat="46.0355611225886" lon="8.60026145979648"><ele>1261.6666666666667</ele><time>2026-04-25T10:33:59Z</time></trkpt><trkpt lat="46.035621130871064" lon="8.600295586059584"><ele>1261.8333333333335</ele><time>2026-04-25T10:34:00Z</time></trkpt><trkpt lat="46.03572327562341" lon="8.600323000332322"><ele>1262.0</ele><time>2026-04-25T10:34:02Z</time></trkpt><trkpt lat="46.03579153952603" lon="8.60033113870913"><ele>1263.2</ele><time>2026-04-25T10:34:04Z</time></trkpt><trkpt lat="46.03585310950828" lon="8.600243190136856"><ele>1264.4</ele><time>2026-04-25T10:34:06Z</time></trkpt><trkpt lat="46.03588089092544" lon="8.600083915008579"><ele>1265.6</ele><time>2026-04-25T10:34:08Z</time></trkpt><trkpt lat="46.03591209534473" lon="8.59996071770944"><ele>1266.8</ele><time>2026-04-25T10:34:10Z</time></trkpt><trkpt lat="46.03596686115575" lon="8.599816178440783"><ele>1268.0</ele><time>2026-04-25T10:34:12Z</time></trkpt><trkpt lat="46.035982369022356" lon="8.599688879549497"><ele>1268.0</ele><time>2026-04-25T10:34:14Z</time></trkpt><trkpt lat="46.036025214977876" lon="8.599539059764144"><ele>1268.0</ele><time>2026-04-25T10:34:16Z</time></trkpt><trkpt lat="46.03607347867888" lon="8.599396542635603"><ele>1268.0</ele><time>2026-04-25T10:34:18Z</time></trkpt><trkpt lat="46.036110525706874" lon="8.599317277228167"><ele>1268.0</ele><time>2026-04-25T10:34:19Z</time></trkpt><trkpt lat="46.03615006441686" lon="8.599220356497433"><ele>1268.0</ele><time>2026-04-25T10:34:21Z</time></trkpt><trkpt lat="46.03620142622702" lon="8.59909818589855"><ele>1269.4</ele><time>2026-04-25T10:34:23Z</time></trkpt><trkpt lat="46.03628321443503" lon="8.599004191487827"><ele>1270.8</ele><time>2026-04-25T10:34:25Z</time></trkpt><trkpt lat="46.036364137650914" lon="8.598927781965426"><ele>1272.2</ele><time>2026-04-25T10:34:27Z</time></trkpt><trkpt lat="46.036431115745344" lon="8.598833756104593"><ele>1273.6</ele><time>2026-04-25T10:34:29Z</time></trkpt><trkpt lat="46.036519449086114" lon="8.598686670193088"><ele>1275.0</ele><time>2026-04-25T10:34:31Z</time></trkpt><trkpt lat="46.036610531167014" lon="8.598577636739565"><ele>1278.0</ele><time>2026-04-25T10:34:33Z</time></trkpt><trkpt lat="46.036688136835345" lon="8.598488097503585"><ele>1281.0</ele><time>2026-04-25T10:34:35Z</time></trkpt><trkpt lat="46.03676266813885" lon="8.598425176815887"><ele>1284.0</ele><time>2026-04-25T10:34:36Z</time></trkpt><trkpt lat="46.036816427001064" lon="8.59835554384625"><ele>1287.0</ele><time>2026-04-25T10:34:37Z</time></trkpt><trkpt lat="46.03686562908694" lon="8.598279291495729"><ele>1290.0</ele><time>2026-04-25T10:34:38Z</time></trkpt><trkpt lat="46.03694897889845" lon="8.598155860388696"><ele>1290.0</ele><time>2026-04-25T10:34:40Z</time></trkpt><trkpt lat="46.037006991901436" lon="8.598096809446723"><ele>1290.0</ele><time>2026-04-25T10:34:41Z</time></trkpt><trkpt lat="46.03707079682914" lon="8.598076522414399"><ele>1290.0</ele><time>2026-04-25T10:34:42Z</time></trkpt><trkpt lat="46.03715717927491" lon="8.597999091224727"><ele>1290.0</ele><time>2026-04-25T10:34:44Z</time></trkpt><trkpt lat="46.037277644881044" lon="8.59790549635065"><ele>1290.0</ele><time>2026-04-25T10:34:46Z</time></trkpt><trkpt lat="46.037327591242104" lon="8.59784274876186"><ele>1290.0</ele><time>2026-04-25T10:34:47Z</time></trkpt><trkpt lat="46.037408429921285" lon="8.59774798331954"><ele>1288.6</ele><time>2026-04-25T10:34:49Z</time></trkpt><trkpt lat="46.037450098551396" lon="8.597679892737542"><ele>1287.2</ele><time>2026-04-25T10:34:50Z</time></trkpt><trkpt lat="46.03751510134792" lon="8.597535130301543"><ele>1285.8000000000002</ele><time>2026-04-25T10:34:52Z</time></trkpt><trkpt lat="46.037550584737744" lon="8.597383813062276"><ele>1284.4</ele><time>2026-04-25T10:34:54Z</time></trkpt><trkpt lat="46.037576119109865" lon="8.597185671221082"><ele>1283.0</ele><time>2026-04-25T10:34:56Z</time></trkpt><trkpt lat="46.0375772826991" lon="8.597091550784095"><ele>1285.0</ele><time>2026-04-25T10:34:57Z</time></trkpt><trkpt lat="46.037568503211375" lon="8.596983265317078"><ele>1287.0</ele><time>2026-04-25T10:34:58Z</time></trkpt><trkpt lat="46.0376125715055" lon="8.59677356208062"><ele>1289.0</ele><time>2026-04-25T10:35:00Z</time></trkpt><trkpt lat="46.037603934261945" lon="8.596683689836478"><ele>1291.0</ele><time>2026-04-25T10:35:01Z</time></trkpt><trkpt lat="46.037608683794495" lon="8.5965536098136"><ele>1293.0</ele><time>2026-04-25T10:35:03Z</time></trkpt><trkpt lat="46.03761388299261" lon="8.596433551507634"><ele>1293.0</ele><time>2026-04-25T10:35:04Z</time></trkpt><trkpt lat="46.03761980922651" lon="8.596338808783077"><ele>1293.0</ele><time>2026-04-25T10:35:05Z</time></trkpt><trkpt lat="46.0376398312995" lon="8.596160593031623"><ele>1293.0</ele><time>2026-04-25T10:35:07Z</time></trkpt><trkpt lat="46.0376647515785" lon="8.596069029280601"><ele>1293.0</ele><time>2026-04-25T10:35:08Z</time></trkpt><trkpt lat="46.03766912971052" lon="8.595960914700147"><ele>1293.0</ele><time>2026-04-25T10:35:09Z</time></trkpt><trkpt lat="46.03770273921828" lon="8.595816471831982"><ele>1293.0</ele><time>2026-04-25T10:35:11Z</time></trkpt><trkpt lat="46.03774199333738" lon="8.595647889948076"><ele>1294.5</ele><time>2026-04-25T10:35:13Z</time></trkpt><trkpt lat="46.03778086949492" lon="8.59554880718455"><ele>1296.0</ele><time>2026-04-25T10:35:14Z</time></trkpt><trkpt lat="46.03780350551491" lon="8.59546385067258"><ele>1297.5</ele><time>2026-04-25T10:35:15Z</time></trkpt><trkpt lat="46.037839844597784" lon="8.595282754518255"><ele>1299.0</ele><time>2026-04-25T10:35:17Z</time></trkpt><trkpt lat="46.03785520215671" lon="8.595191950373492"><ele>1300.5</ele><time>2026-04-25T10:35:18Z</time></trkpt><trkpt lat="46.03789883495224" lon="8.595118128058614"><ele>1302.0</ele><time>2026-04-25T10:35:19Z</time></trkpt><trkpt lat="46.037960457369046" lon="8.594931128897379"><ele>1304.8</ele><time>2026-04-25T10:35:21Z</time></trkpt><trkpt lat="46.03802206148402" lon="8.594877682836417"><ele>1307.6</ele><time>2026-04-25T10:35:22Z</time></trkpt><trkpt lat="46.03809876549718" lon="8.59475727736243"><ele>1310.3999999999999</ele><time>2026-04-25T10:35:24Z</time></trkpt><trkpt lat="46.03814363881036" lon="8.594680731846495"><ele>1313.1999999999998</ele><time>2026-04-25T10:35:25Z</time></trkpt><trkpt lat="46.038201140402286" lon="8.59461808432317"><ele>1316.0</ele><time>2026-04-25T10:35:26Z</time></trkpt><trkpt lat="46.0383204468297" lon="8.594539611045933"><ele>1315.1666666666667</ele><time>2026-04-25T10:35:28Z</time></trkpt><trkpt lat="46.038381171368755" lon="8.59451172057632"><ele>1314.3333333333335</ele><time>2026-04-25T10:35:29Z</time></trkpt><trkpt lat="46.03845659618863" lon="8.594462516503231"><ele>1313.5</ele><time>2026-04-25T10:35:30Z</time></trkpt><trkpt lat="46.03852903235195" lon="8.59444846754745"><ele>1312.6666666666667</ele><time>2026-04-25T10:35:31Z</time></trkpt><trkpt lat="46.03862958020175" lon="8.594411002105717"><ele>1311.8333333333333</ele><time>2026-04-25T10:35:32Z</time></trkpt><trkpt lat="46.03871611012266" lon="8.59440673492846"><ele>1311.0</ele><time>2026-04-25T10:35:33Z</time></trkpt><trkpt lat="46.038793000414486" lon="8.594369992732934"><ele>1311.0</ele><time>2026-04-25T10:35:34Z</time></trkpt><trkpt lat="46.03886080764446" lon="8.594354307960515"><ele>1311.0</ele><time>2026-04-25T10:35:35Z</time></trkpt><trkpt lat="46.03892577323923" lon="8.594347562491626"><ele>1311.0</ele><time>2026-04-25T10:35:36Z</time></trkpt><trkpt lat="46.038996487729825" lon="8.594347465833016"><ele>1311.0</ele><time>2026-04-25T10:35:37Z</time></trkpt><trkpt lat="46.039061373621465" lon="8.59434832965807"><ele>1311.0</ele><time>2026-04-25T10:35:38Z</time></trkpt><trkpt lat="46.0391324162526" lon="8.594349671072907"><ele>1311.0</ele><time>2026-04-25T10:35:39Z</time></trkpt><trkpt lat="46.03920205183023" lon="8.594345927168753"><ele>1311.0</ele><time>2026-04-25T10:35:40Z</time></trkpt><trkpt lat="46.03927842535618" lon="8.594335680537165"><ele>1310.6</ele><time>2026-04-25T10:35:41Z</time></trkpt><trkpt lat="46.0394110770702" lon="8.594296354332364"><ele>1310.1999999999998</ele><time>2026-04-25T10:35:43Z</time></trkpt><trkpt lat="46.03951578436892" lon="8.594252341085653"><ele>1309.8000000000002</ele><time>2026-04-25T10:35:45Z</time></trkpt><trkpt lat="46.039583322738636" lon="8.594208973481788"><ele>1309.4</ele><time>2026-04-25T10:35:46Z</time></trkpt><trkpt lat="46.03963892210477" lon="8.594155781030002"><ele>1309.0</ele><time>2026-04-25T10:35:47Z</time></trkpt><trkpt lat="46.039693758083736" lon="8.594075849928572"><ele>1309.0</ele><time>2026-04-25T10:35:48Z</time></trkpt><trkpt lat="46.03977525656132" lon="8.593959203198779"><ele>1309.0</ele><time>2026-04-25T10:35:50Z</time></trkpt><trkpt lat="46.03984849527958" lon="8.593852551968762"><ele>1309.0</ele><time>2026-04-25T10:35:52Z</time></trkpt><trkpt lat="46.03992902555497" lon="8.593751025199182"><ele>1309.0</ele><time>2026-04-25T10:35:54Z</time></trkpt><trkpt lat="46.04002860195871" lon="8.593694147227682"><ele>1309.0</ele><time>2026-04-25T10:35:56Z</time></trkpt><trkpt lat="46.04014079696599" lon="8.59373458379663"><ele>1306.4</ele><time>2026-04-25T10:35:58Z</time></trkpt><trkpt lat="46.04026987051825" lon="8.593742896705882"><ele>1303.8000000000002</ele><time>2026-04-25T10:36:00Z</time></trkpt><trkpt lat="46.0403403678781" lon="8.593743440495567"><ele>1301.1999999999998</ele><time>2026-04-25T10:36:01Z</time></trkpt><trkpt lat="46.04046525920168" lon="8.593819331537834"><ele>1298.6</ele><time>2026-04-25T10:36:03Z</time></trkpt><trkpt lat="46.04053420291881" lon="8.593871256795772"><ele>1296.0</ele><time>2026-04-25T10:36:04Z</time></trkpt><trkpt lat="46.040610722610005" lon="8.593914918238402"><ele>1296.0</ele><time>2026-04-25T10:36:05Z</time></trkpt><trkpt lat="46.04067699469689" lon="8.593979839130819"><ele>1296.0</ele><time>2026-04-25T10:36:06Z</time></trkpt><trkpt lat="46.04080073967057" lon="8.59406117159266"><ele>1296.0</ele><time>2026-04-25T10:36:08Z</time></trkpt><trkpt lat="46.04087765714756" lon="8.594083085361614"><ele>1296.0</ele><time>2026-04-25T10:36:09Z</time></trkpt><trkpt lat="46.040931932332285" lon="8.594146454902775"><ele>1296.0</ele><time>2026-04-25T10:36:10Z</time></trkpt><trkpt lat="46.04099402898779" lon="8.594185032652295"><ele>1296.0</ele><time>2026-04-25T10:36:11Z</time></trkpt><trkpt lat="46.041059513926626" lon="8.594210454574974"><ele>1298.1666666666667</ele><time>2026-04-25T10:36:12Z</time></trkpt><trkpt lat="46.04119985613199" lon="8.594244004975318"><ele>1300.3333333333333</ele><time>2026-04-25T10:36:14Z</time></trkpt><trkpt lat="46.04127532181651" lon="8.5942650440962"><ele>1302.5</ele><time>2026-04-25T10:36:15Z</time></trkpt><trkpt lat="46.04135348211695" lon="8.594279764352834"><ele>1304.6666666666665</ele><time>2026-04-25T10:36:16Z</time></trkpt><trkpt lat="46.04143231549848" lon="8.594295943240922"><ele>1306.8333333333333</ele><time>2026-04-25T10:36:17Z</time></trkpt><trkpt lat="46.04150315871024" lon="8.594303739960463"><ele>1309.0</ele><time>2026-04-25T10:36:18Z</time></trkpt><trkpt lat="46.04157745566007" lon="8.594308406903142"><ele>1311.6666666666665</ele><time>2026-04-25T10:36:19Z</time></trkpt><trkpt lat="46.041650921919384" lon="8.59432203719226"><ele>1314.3333333333333</ele><time>2026-04-25T10:36:20Z</time></trkpt><trkpt lat="46.04178301568311" lon="8.594373079861716"><ele>1317.0</ele><time>2026-04-25T10:36:22Z</time></trkpt><trkpt lat="46.041855269320905" lon="8.594411497314084"><ele>1319.6666666666667</ele><time>2026-04-25T10:36:23Z</time></trkpt><trkpt lat="46.041925364664465" lon="8.594457274354726"><ele>1322.3333333333335</ele><time>2026-04-25T10:36:24Z</time></trkpt><trkpt lat="46.04199871719273" lon="8.594491572655354"><ele>1325.0</ele><time>2026-04-25T10:36:25Z</time></trkpt><trkpt lat="46.04206020784764" lon="8.594538619125986"><ele>1320.6666666666667</ele><time>2026-04-25T10:36:26Z</time></trkpt><trkpt lat="46.04212465613119" lon="8.594584995196323"><ele>1316.3333333333335</ele><time>2026-04-25T10:36:27Z</time></trkpt><trkpt lat="46.042188611512145" lon="8.59462117792234"><ele>1312.0</ele><time>2026-04-25T10:36:28Z</time></trkpt><trkpt lat="46.04225473756893" lon="8.59464703282443"><ele>1307.6666666666667</ele><time>2026-04-25T10:36:29Z</time></trkpt><trkpt lat="46.04234129609657" lon="8.59468745496444"><ele>1303.3333333333333</ele><time>2026-04-25T10:36:30Z</time></trkpt><trkpt lat="46.042418291993016" lon="8.594696917248422"><ele>1299.0</ele><time>2026-04-25T10:36:31Z</time></trkpt><trkpt lat="46.04249193967724" lon="8.594678079079587"><ele>1299.0</ele><time>2026-04-25T10:36:32Z</time></trkpt><trkpt lat="46.04256091180236" lon="8.594667574088303"><ele>1299.0</ele><time>2026-04-25T10:36:33Z</time></trkpt><trkpt lat="46.04267103584204" lon="8.594617744923505"><ele>1299.0</ele><time>2026-04-25T10:36:35Z</time></trkpt><trkpt lat="46.04277977863403" lon="8.594553868758535"><ele>1299.0</ele><time>2026-04-25T10:36:37Z</time></trkpt><trkpt lat="46.04288005363849" lon="8.594496733684718"><ele>1299.0</ele><time>2026-04-25T10:36:39Z</time></trkpt><trkpt lat="46.04296126560504" lon="8.594454494796008"><ele>1303.0</ele><time>2026-04-25T10:36:41Z</time></trkpt><trkpt lat="46.04300990363008" lon="8.594386837909996"><ele>1307.0</ele><time>2026-04-25T10:36:42Z</time></trkpt><trkpt lat="46.04307356028234" lon="8.594252984650783"><ele>1311.0</ele><time>2026-04-25T10:36:44Z</time></trkpt><trkpt lat="46.04304919239269" lon="8.5941555150892"><ele>1315.0</ele><time>2026-04-25T10:36:45Z</time></trkpt><trkpt lat="46.04313382186793" lon="8.594091273354657"><ele>1319.0</ele><time>2026-04-25T10:36:47Z</time></trkpt><trkpt lat="46.04322824781427" lon="8.594095962798763"><ele>1323.0</ele><time>2026-04-25T10:36:49Z</time></trkpt><trkpt lat="46.04332610509398" lon="8.594086575297812"><ele>1323.0</ele><time>2026-04-25T10:36:51Z</time></trkpt><trkpt lat="46.043441146880284" lon="8.594049737914087"><ele>1323.0</ele><time>2026-04-25T10:36:53Z</time></trkpt><trkpt lat="46.04351193518824" lon="8.594021496378305"><ele>1323.0</ele><time>2026-04-25T10:36:54Z</time></trkpt><trkpt lat="46.043577765922706" lon="8.594014080222017"><ele>1323.0</ele><time>2026-04-25T10:36:55Z</time></trkpt><trkpt lat="46.04364996085046" lon="8.594021756254154"><ele>1323.0</ele><time>2026-04-25T10:36:56Z</time></trkpt><trkpt lat="46.04376040426958" lon="8.594015062362631"><ele>1323.0</ele><time>2026-04-25T10:36:58Z</time></trkpt><trkpt lat="46.043871316737295" lon="8.593944093649172"><ele>1323.0</ele><time>2026-04-25T10:37:00Z</time></trkpt><trkpt lat="46.043979020765235" lon="8.593921241010994"><ele>1323.0</ele><time>2026-04-25T10:37:02Z</time></trkpt><trkpt lat="46.04408981109249" lon="8.593914748977479"><ele>1323.0</ele><time>2026-04-25T10:37:04Z</time></trkpt><trkpt lat="46.04419004042063" lon="8.593905957896062"><ele>1323.0</ele><time>2026-04-25T10:37:06Z</time></trkpt><trkpt lat="46.04426769895201" lon="8.593924301615385"><ele>1323.0</ele><time>2026-04-25T10:37:08Z</time></trkpt><trkpt lat="46.04437126071651" lon="8.593946099537382"><ele>1322.6000000000001</ele><time>2026-04-25T10:37:10Z</time></trkpt><trkpt lat="46.044476125810775" lon="8.593968760747586"><ele>1322.2</ele><time>2026-04-25T10:37:12Z</time></trkpt><trkpt lat="46.0445934376716" lon="8.594004542599645"><ele>1321.8</ele><time>2026-04-25T10:37:14Z</time></trkpt><trkpt lat="46.04470227939887" lon="8.594079449383374"><ele>1321.4</ele><time>2026-04-25T10:37:16Z</time></trkpt><trkpt lat="46.044771153846234" lon="8.594118164142728"><ele>1321.0</ele><time>2026-04-25T10:37:17Z</time></trkpt><trkpt lat="46.04483778319584" lon="8.594152938310726"><ele>1321.0</ele><time>2026-04-25T10:37:18Z</time></trkpt><trkpt lat="46.04490695032837" lon="8.594213855013683"><ele>1321.0</ele><time>2026-04-25T10:37:20Z</time></trkpt><trkpt lat="46.04501366615224" lon="8.59422892118851"><ele>1321.0</ele><time>2026-04-25T10:37:22Z</time></trkpt><trkpt lat="46.04510986356401" lon="8.594266870936078"><ele>1321.0</ele><time>2026-04-25T10:37:24Z</time></trkpt><trkpt lat="46.04521847431073" lon="8.59432903176723"><ele>1321.0</ele><time>2026-04-25T10:37:26Z</time></trkpt><trkpt lat="46.04531520423571" lon="8.594437904298537"><ele>1321.1999999999998</ele><time>2026-04-25T10:37:28Z</time></trkpt><trkpt lat="46.04541562779488" lon="8.594461077910072"><ele>1321.3999999999999</ele><time>2026-04-25T10:37:30Z</time></trkpt><trkpt lat="46.045530171673505" lon="8.59449512827088"><ele>1321.6</ele><time>2026-04-25T10:37:32Z</time></trkpt><trkpt lat="46.04562033642587" lon="8.594492618087928"><ele>1321.8</ele><time>2026-04-25T10:37:34Z</time></trkpt><trkpt lat="46.04572633736118" lon="8.594487095641773"><ele>1322.0</ele><time>2026-04-25T10:37:36Z</time></trkpt><trkpt lat="46.04583366844722" lon="8.594522146132803"><ele>1322.0</ele><time>2026-04-25T10:37:38Z</time></trkpt><trkpt lat="46.04592264509816" lon="8.59452939239267"><ele>1322.0</ele><time>2026-04-25T10:37:40Z</time></trkpt><trkpt lat="46.04603247214655" lon="8.59454738712776"><ele>1322.0</ele><time>2026-04-25T10:37:42Z</time></trkpt><trkpt lat="46.046164224914584" lon="8.594588916814374"><ele>1322.0</ele><time>2026-04-25T10:37:44Z</time></trkpt><trkpt lat="46.046236254373596" lon="8.594577092206213"><ele>1322.0</ele><time>2026-04-25T10:37:45Z</time></trkpt><trkpt lat="46.046302845323964" lon="8.594582641253867"><ele>1322.0</ele><time>2026-04-25T10:37:46Z</time></trkpt><trkpt lat="46.046406149238365" lon="8.594593289886014"><ele>1322.0</ele><time>2026-04-25T10:37:47Z</time></trkpt><trkpt lat="46.046480004614295" lon="8.59456909963801"><ele>1322.0</ele><time>2026-04-25T10:37:48Z</time></trkpt><trkpt lat="46.04662341168212" lon="8.594516632979188"><ele>1322.0</ele><time>2026-04-25T10:37:50Z</time></trkpt><trkpt lat="46.04668727534731" lon="8.594513709212094"><ele>1322.0</ele><time>2026-04-25T10:37:51Z</time></trkpt><trkpt lat="46.046775976831064" lon="8.594493722340232"><ele>1342.0</ele><time>2026-04-25T10:37:53Z</time></trkpt><trkpt lat="46.046839931088414" lon="8.594521037727512"><ele>1334.0</ele><time>2026-04-25T10:37:54Z</time></trkpt><trkpt lat="46.04690071084506" lon="8.5945645628139"><ele>1334.0</ele><time>2026-04-25T10:37:55Z</time></trkpt><trkpt lat="46.04696645892384" lon="8.594511657858886"><ele>1334.0</ele><time>2026-04-25T10:37:57Z</time></trkpt><trkpt lat="46.04702888873812" lon="8.594439362266272"><ele>1342.0</ele><time>2026-04-25T10:38:01Z</time></trkpt></trkseg></trk></gpx>